Provisional Data: Little Muncy Creek near Moreland, PA


Please select a monitoring station.
Please select start date.
Please select start date.

Toggle Unit: C/F Toggle Unit: C/F
Sample Time Temperature (C) Temperature (F) Specific Conductivity (mS/cm) pH   Turbidity (NTU+) DO (mg/L)
12/23/2022 12:00:00 AM 2.09 35.762 0.098 7.23 308.12 13.24
12/23/2022 12:15:00 AM 2.11 35.798 0.094 7.23 292.09 13.24
12/23/2022 12:30:00 AM 2.18 35.924 0.09 7.22 253.75 13.21
12/23/2022 12:45:00 AM 2.27 36.086 0.089 7.2 215.65 13.16
12/23/2022 1:00:00 AM 2.36 36.248 0.086 7.19 193.82 13.1
12/23/2022 1:15:00 AM 2.44 36.392 0.084 7.19 145.07 13.06
12/23/2022 1:30:00 AM 2.51 36.518 0.083 7.12 169.98 13.01
12/23/2022 1:45:00 AM 2.54 36.572 0.084 7.08 175.17 12.99
12/23/2022 2:00:00 AM 2.57 36.626 0.085 7.08 179.06 12.98
12/23/2022 2:15:00 AM 2.6 36.68 0.086 7.1 197.82 12.98
12/23/2022 2:30:00 AM 2.6 36.68 0.087 7.11 295.47 12.98
12/23/2022 2:45:00 AM 2.58 36.644 0.087 7.08 201.8 13
12/23/2022 3:00:00 AM 2.58 36.644 0.087 7.07 197.34 13
12/23/2022 3:15:00 AM 2.58 36.644 0.086 7.04 197.15 13
12/23/2022 3:30:00 AM 2.59 36.662 0.084 7.03 190.03 12.99
12/23/2022 3:45:00 AM 2.61 36.698 0.081 6.99 196.3 12.98
12/23/2022 4:00:00 AM 2.64 36.752 0.079 6.97 179.49 12.97
12/23/2022 4:15:00 AM 2.7 36.86 0.078 6.97 174.22 12.95
12/23/2022 4:30:00 AM 2.77 36.986 0.077 6.95 157.93 12.92
12/23/2022 4:45:00 AM 2.83 37.094 0.076 6.95 147.46 12.89
12/23/2022 5:00:00 AM 2.9 37.22 0.075 6.92 122.51 12.86
12/23/2022 5:15:00 AM 2.96 37.328 0.075 6.91 123.64 12.83
12/23/2022 5:30:00 AM 3.01 37.418 0.074 6.87 120.27 12.81
12/23/2022 5:45:00 AM 3.07 37.526 0.074 6.92 105.67 12.77
12/23/2022 6:00:00 AM 3.12 37.616 0.074 6.96 111.61 12.75
12/23/2022 6:15:00 AM 3.18 37.724 0.074 6.87 97.08 12.72
12/23/2022 6:30:00 AM 3.22 37.796 0.074 6.94 90.96 12.7
12/23/2022 6:45:00 AM 3.26 37.868 0.074 6.88 92.85 12.68
12/23/2022 7:00:00 AM 3.31 37.958 0.074 6.93 91.36 12.67
12/23/2022 7:15:00 AM 3.35 38.03 0.073 6.91 87.6 12.65
12/23/2022 7:30:00 AM 3.39 38.102 0.073 6.93 84.31 12.63
12/23/2022 7:45:00 AM 3.44 38.192 0.073 6.96 81.77 12.61
12/23/2022 8:00:00 AM 3.48 38.264 0.073 6.87 81.64 12.6
12/23/2022 8:15:00 AM 3.53 38.354 0.073 6.9 76.73 12.59
12/23/2022 8:30:00 AM 3.58 38.444 0.073 6.9 76.72 12.57
12/23/2022 8:45:00 AM 3.63 38.534 0.073 6.93 72.14 12.56
12/23/2022 9:00:00 AM 3.69 38.642 0.073 6.92 69.7 12.54
12/23/2022 9:15:00 AM 3.73 38.714 0.073 6.97 71.05 12.52
12/23/2022 9:30:00 AM 3.77 38.786 0.074 6.92 75.24 12.51
12/23/2022 9:45:00 AM 3.82 38.876 0.075 6.92 80.69 12.5
12/23/2022 10:00:00 AM 3.83 38.894 0.075 6.91 87.01 12.49
12/23/2022 10:15:00 AM 3.83 38.894 0.076 6.99 92.97 12.49
12/23/2022 10:30:00 AM 3.82 38.876 0.076 7.03 107.51 12.49
12/23/2022 10:45:00 AM 3.8 38.84 0.076 7.02 96.6 12.5
12/23/2022 11:00:00 AM 3.77 38.786 0.076 7.02 95.22 12.5
12/23/2022 11:15:00 AM 3.74 38.732 0.076 7.02 102.75 12.51
12/23/2022 11:30:00 AM 3.7 38.66 0.075 7.02 103.04 12.52
12/23/2022 11:45:00 AM 3.67 38.606 0.075 6.92 108.75 12.53
12/23/2022 12:00:00 PM 3.61 38.498 0.075 7 114.66 12.55
12/23/2022 12:15:00 PM 3.57 38.426 0.074 6.98 119.5 12.57
12/23/2022 12:30:00 PM 3.5 38.3 0.074 6.97 120.53 12.59
12/23/2022 12:45:00 PM 3.45 38.21 0.074 6.95 119.89 12.62
12/23/2022 1:00:00 PM 3.37 38.066 0.074 6.93 112.66 12.64
12/23/2022 1:15:00 PM 3.31 37.958 0.074 6.97 108.8 12.67
12/23/2022 1:30:00 PM 3.26 37.868 0.074 6.97 98.5 12.69
12/23/2022 1:45:00 PM 3.18 37.724 0.074 6.95 93 12.71
12/23/2022 2:00:00 PM 3.11 37.598 0.074 6.95 84.19 12.74
12/23/2022 2:15:00 PM 3.05 37.49 0.073 6.94 78.07 12.76
12/23/2022 2:30:00 PM 2.98 37.364 0.073 6.88 71.97 12.78
12/23/2022 2:45:00 PM 2.92 37.256 0.073 6.92 68.85 12.81
12/23/2022 3:00:00 PM 2.86 37.148 0.074 6.92 61.59 12.83
12/23/2022 3:15:00 PM 2.82 37.076 0.074 6.91 58.5 12.85
12/23/2022 3:30:00 PM 2.75 36.95 0.074 6.91 54.46 12.88
12/23/2022 3:45:00 PM 2.68 36.824 0.074 6.86 53.26 12.91
12/23/2022 4:00:00 PM 2.62 36.716 0.074 6.86 49.31 12.93
12/23/2022 4:15:00 PM 2.56 36.608 0.074 6.92 45.02 12.96
12/23/2022 4:30:00 PM 2.5 36.5 0.074 6.92 44.39 12.99
12/23/2022 4:45:00 PM 2.44 36.392 0.074 6.92 41.7 13.02
12/23/2022 5:00:00 PM 2.36 36.248 0.075 6.91 40.33 13.06
12/23/2022 5:15:00 PM 2.29 36.122 0.075 6.68 39.01 13.08
12/23/2022 5:30:00 PM 2.23 36.014 0.075 6.67 38.15 13.11
12/23/2022 5:45:00 PM 2.16 35.888 0.075 6.72 35.84 13.13
12/23/2022 6:00:00 PM 2.09 35.762 0.075 6.69 34.85 13.15
12/23/2022 6:15:00 PM 2.03 35.654 0.075 6.64 33.7 13.18
12/23/2022 6:30:00 PM 1.98 35.564 0.075 6.7 32.1 13.2
12/23/2022 6:45:00 PM 1.9 35.42 0.075 6.67 32.03 13.21
12/23/2022 7:00:00 PM 1.84 35.312 0.076 6.67 31.32 13.23
12/23/2022 7:15:00 PM 1.79 35.222 0.075 6.66 31.52 13.26
12/23/2022 7:30:00 PM 1.74 35.132 0.075 6.65 30.09 13.27
12/23/2022 7:45:00 PM 1.69 35.042 0.076 6.8 29.45 13.29
12/23/2022 8:00:00 PM 1.63 34.934 0.076 6.75 29.32 13.31
12/23/2022 8:15:00 PM 1.58 34.844 0.076 6.62 28.48 13.33
12/23/2022 8:30:00 PM 1.53 34.754 0.076 6.62 29.74 13.36
12/23/2022 8:45:00 PM 1.48 34.664 0.076 6.67 27.72 13.38
12/23/2022 9:00:00 PM 1.44 34.592 0.076 6.65 27.16 13.4
12/23/2022 9:15:00 PM 1.41 34.538 0.076 6.66 27.16 13.42
12/23/2022 9:30:00 PM 1.37 34.466 0.076 6.66 22.31 13.44
12/23/2022 9:45:00 PM 1.34 34.412 0.076 6.68 24.94 13.47
12/23/2022 10:00:00 PM 1.3 34.34 0.076 6.67 24.52 13.48
12/23/2022 10:15:00 PM 1.26 34.268 0.076 6.63 24.58 13.5
12/23/2022 10:30:00 PM 1.23 34.214 0.076 6.67 23.36 13.51
12/23/2022 10:45:00 PM 1.19 34.142 0.076 6.61 22.7 13.53
12/23/2022 11:00:00 PM 1.16 34.088 0.076 6.67 23.29 13.55
12/23/2022 11:15:00 PM 1.13 34.034 0.076 6.69 49.8 13.56
12/23/2022 11:30:00 PM 1.1 33.98 0.076 6.71 22.42 13.58
12/23/2022 11:45:00 PM 1.07 33.926 0.077 6.64 22.88 13.59
12/24/2022 12:00:00 AM 1.04 33.872 0.077 6.82 19.27 13.6
12/24/2022 12:15:00 AM 1.02 33.836 0.077 6.9 20.26 13.61
12/24/2022 12:30:00 AM 0.99 33.782 0.077 6.87 18.85 13.62
12/24/2022 12:45:00 AM 0.97 33.746 0.077 6.91 20.53 13.63
12/24/2022 1:00:00 AM 0.96 33.728 0.077 6.89 20.5 13.63
12/24/2022 1:15:00 AM 0.95 33.71 0.077 6.91 20.88 13.64
12/24/2022 1:30:00 AM 0.94 33.692 0.077 6.91 19.43 13.65
12/24/2022 1:45:00 AM 0.92 33.656 0.077 6.91 19.71 13.65
12/24/2022 2:00:00 AM 0.91 33.638 0.077 6.9 20.34 13.66
12/24/2022 2:15:00 AM 0.9 33.62 0.077 6.91 18.54 13.66
12/24/2022 2:30:00 AM 0.88 33.584 0.077 6.85 18.64 13.67
12/24/2022 2:45:00 AM 0.86 33.548 0.077 6.91 18.51 13.67
12/24/2022 3:00:00 AM 0.85 33.53 0.077 6.9 18.68 13.68
12/24/2022 3:15:00 AM 0.83 33.494 0.077 6.87 17.13 13.69
12/24/2022 3:30:00 AM 0.81 33.458 0.077 6.88 17.91 13.7
12/24/2022 3:45:00 AM 0.8 33.44 0.077 6.91 18.6 13.7
12/24/2022 4:00:00 AM 0.79 33.422 0.077 6.92 17.46 13.7
12/24/2022 4:15:00 AM 0.77 33.386 0.077 6.9 17.62 13.71
12/24/2022 4:30:00 AM 0.75 33.35 0.077 6.92 16.57 13.72
12/24/2022 4:45:00 AM 0.74 33.332 0.077 6.92 17.3 13.72
12/24/2022 5:00:00 AM 0.72 33.296 0.077 6.91 17.23 13.73
12/24/2022 5:15:00 AM 0.7 33.26 0.077 6.91 16.49 13.73
12/24/2022 5:30:00 AM 0.69 33.242 0.077 6.87 16.22 13.74
12/24/2022 5:45:00 AM 0.67 33.206 0.077 6.92 16.25 13.75
12/24/2022 6:00:00 AM 0.65 33.17 0.077 6.92 16.03 13.76
12/24/2022 6:15:00 AM 0.62 33.116 0.077 6.92 15.75 13.77
12/24/2022 6:30:00 AM 0.6 33.08 0.077 6.89 15.79 13.78
12/24/2022 6:45:00 AM 0.59 33.062 0.078 6.89 15.68 13.78
12/24/2022 7:00:00 AM 0.57 33.026 0.078 6.92 17.47 13.79
12/24/2022 7:15:00 AM 0.57 33.026 0.077 6.91 15.6 13.79
12/24/2022 7:30:00 AM 0.56 33.008 0.077 6.93 15.16 13.8
12/24/2022 7:45:00 AM 0.54 32.972 0.078 6.93 14.95 13.81
12/24/2022 8:00:00 AM 0.53 32.954 0.078 6.93 14.8 13.83
12/24/2022 8:15:00 AM 0.52 32.936 0.078 6.94 14.38 13.84
12/24/2022 8:30:00 AM 0.52 32.936 0.078 6.94 13.79 13.85
12/24/2022 8:45:00 AM 0.52 32.936 0.078 6.94 12.49 13.87
12/24/2022 9:00:00 AM 0.54 32.972 0.078 6.93 13.38 13.87
12/24/2022 9:15:00 AM 0.53 32.954 0.078 6.95 14 13.89
12/24/2022 9:30:00 AM 0.53 32.954 0.078 6.92 13.47 13.91
12/24/2022 9:45:00 AM 0.53 32.954 0.078 6.93 13.48 13.92
12/24/2022 10:00:00 AM 0.57 33.026 0.078 6.96 13.06 13.93
12/24/2022 10:15:00 AM 0.6 33.08 0.078 6.97 12.91 13.94
12/24/2022 10:30:00 AM 0.61 33.098 0.078 6.92 12.86 13.95
12/24/2022 10:45:00 AM 0.62 33.116 0.078 6.98 12.65 13.95
12/24/2022 11:00:00 AM 0.64 33.152 0.078 6.98 12.3 13.95
12/24/2022 11:15:00 AM 0.67 33.206 0.078 6.99 12.49 13.96
12/24/2022 11:30:00 AM 0.71 33.278 0.078 6.99 12.11 13.96
12/24/2022 11:45:00 AM 0.75 33.35 0.078 6.94 12.02 13.96
12/24/2022 12:00:00 PM 0.78 33.404 0.078 6.98 12.01 13.96
12/24/2022 12:15:00 PM 0.83 33.494 0.078 7.01 12.33 13.96
12/24/2022 12:30:00 PM 0.85 33.53 0.078 7.03 11.78 13.96
12/24/2022 12:45:00 PM 0.87 33.566 0.078 7.02 11.91 13.95
12/24/2022 1:00:00 PM 0.92 33.656 0.078 7.01 11.62 13.94
12/24/2022 1:15:00 PM 0.95 33.71 0.078 7.03 11.59 13.94
12/24/2022 1:30:00 PM 0.98 33.764 0.078 7.01 11.63 13.93
12/24/2022 1:45:00 PM 1 33.8 0.078 6.98 11.62 13.92
12/24/2022 2:00:00 PM 1.01 33.818 0.078 7.04 11.54 13.91
12/24/2022 2:15:00 PM 1.03 33.854 0.078 7.04 11.55 13.9
12/24/2022 2:30:00 PM 1.04 33.872 0.078 7.04 11.51 13.89
12/24/2022 2:45:00 PM 1.05 33.89 0.078 7.04 11.33 13.88
12/24/2022 3:00:00 PM 1.06 33.908 0.078 7.04 11.33 13.88
12/24/2022 3:15:00 PM 1.06 33.908 0.078 7.04 12.23 13.87
12/24/2022 3:30:00 PM 1.04 33.872 0.078 7.04 11.4 13.86
12/24/2022 3:45:00 PM 1.04 33.872 0.078 7.03 11.58 13.85
12/24/2022 4:00:00 PM 1.02 33.836 0.078 7.03 11.49 13.84
12/24/2022 4:15:00 PM 1 33.8 0.078 6.96 11.27 13.84
12/24/2022 4:30:00 PM 0.98 33.764 0.078 7.02 11.31 13.82
12/24/2022 4:45:00 PM 0.95 33.71 0.078 7.02 11.5 13.81
12/24/2022 5:00:00 PM 0.92 33.656 0.078 7.01 11.73 13.81
12/24/2022 5:15:00 PM 0.88 33.584 0.078 6.96 11.21 13.81
12/24/2022 5:30:00 PM 0.84 33.512 0.078 7 11.55 13.8
12/24/2022 5:45:00 PM 0.82 33.476 0.078 6.99 11.67 13.8
12/24/2022 6:00:00 PM 0.79 33.422 0.079 6.99 11.27 13.81
12/24/2022 6:15:00 PM 0.77 33.386 0.079 6.94 11.96 13.81
12/24/2022 6:30:00 PM 0.74 33.332 0.078 6.98 11.67 13.81
12/24/2022 6:45:00 PM 0.72 33.296 0.079 6.91 11.78 13.81
12/24/2022 7:00:00 PM 0.7 33.26 0.079 6.96 11.44 13.82
12/24/2022 7:15:00 PM 0.68 33.224 0.079 6.97 11.81 13.82
12/24/2022 7:30:00 PM 0.66 33.188 0.078 6.97 11.86 13.83
12/24/2022 7:45:00 PM 0.64 33.152 0.078 6.89 11.72 13.83
12/24/2022 8:00:00 PM 0.62 33.116 0.079 6.94 11.55 13.84
12/24/2022 8:15:00 PM 0.6 33.08 0.078 6.96 11.52 13.85
12/24/2022 8:30:00 PM 0.58 33.044 0.079 6.9 11.48 13.86
12/24/2022 8:45:00 PM 0.57 33.026 0.079 6.94 11.42 13.86
12/24/2022 9:00:00 PM 0.55 32.99 0.079 6.96 11.92 13.87
12/24/2022 9:15:00 PM 0.54 32.972 0.079 6.9 11.2 13.88
12/24/2022 9:30:00 PM 0.52 32.936 0.079 6.96 11.69 13.9
12/24/2022 9:45:00 PM 0.51 32.918 0.079 6.93 11.18 13.9
12/24/2022 10:00:00 PM 0.5 32.9 0.079 6.95 11.06 13.91
12/24/2022 10:15:00 PM 0.5 32.9 0.079 6.95 11.01 13.91
12/24/2022 10:30:00 PM 0.48 32.864 0.079 6.95 11.3 13.92
12/24/2022 10:45:00 PM 0.47 32.846 0.079 6.91 10.7 13.93
12/24/2022 11:00:00 PM 0.45 32.81 0.079 6.96 10.91 13.94
12/24/2022 11:15:00 PM 0.42 32.756 0.079 6.89 10.67 13.94
12/24/2022 11:30:00 PM 0.4 32.72 0.079 6.93 10.74 13.95
12/24/2022 11:45:00 PM 0.39 32.702 0.079 6.93 10.82 13.97
12/25/2022 12:00:00 AM 0.37 32.666 0.079 6.94 10.38 13.97
12/25/2022 12:15:00 AM 0.35 32.63 0.079 6.96 10.65 13.99
12/25/2022 12:30:00 AM 0.34 32.612 0.079 6.9 10.55 13.99
12/25/2022 12:45:00 AM 0.33 32.594 0.079 6.95 10.47 13.99
12/25/2022 1:00:00 AM 0.32 32.576 0.079 6.93 10.84 13.99
12/25/2022 1:15:00 AM 0.32 32.576 0.079 6.97 10.49 14
12/25/2022 1:30:00 AM 0.33 32.594 0.079 6.96 10.41 13.99
12/25/2022 1:45:00 AM 0.33 32.594 0.08 6.91 10.22 14
12/25/2022 2:00:00 AM 0.33 32.594 0.08 6.95 10.46 13.99
12/25/2022 2:15:00 AM 0.33 32.594 0.08 6.97 10.58 13.99
12/25/2022 2:30:00 AM 0.34 32.612 0.079 6.95 10.48 14
12/25/2022 2:45:00 AM 0.35 32.63 0.08 6.95 10.39 13.99
12/25/2022 3:00:00 AM 0.36 32.648 0.08 6.95 10.24 13.99
12/25/2022 3:15:00 AM 0.36 32.648 0.08 6.95 10.5 13.99
12/25/2022 3:30:00 AM 0.37 32.666 0.08 6.95 10.51 13.99
12/25/2022 3:45:00 AM 0.37 32.666 0.079 6.96 10.13 13.98
12/25/2022 4:00:00 AM 0.38 32.684 0.079 6.97 10.38 13.98
12/25/2022 4:15:00 AM 0.4 32.72 0.079 6.97 10.19 13.98
12/25/2022 4:30:00 AM 0.41 32.738 0.08 6.97 10.21 13.97
12/25/2022 4:45:00 AM 0.42 32.756 0.08 6.97 10.31 13.96
12/25/2022 5:00:00 AM 0.43 32.774 0.079 6.97 10.2 13.96
12/25/2022 5:15:00 AM 0.44 32.792 0.08 6.97 10.39 13.95
12/25/2022 5:30:00 AM 0.44 32.792 0.079 7 10.21 13.95
12/25/2022 5:45:00 AM 0.46 32.828 0.08 6.94 10.41 13.94
12/25/2022 6:00:00 AM 0.46 32.828 0.08 6.97 10.31 13.94
12/25/2022 6:15:00 AM 0.45 32.81 0.08 6.98 10.25 13.94
12/25/2022 6:30:00 AM 0.45 32.81 0.08 6.97 10.34 13.94
12/25/2022 6:45:00 AM 0.44 32.792 0.08 6.98 10.59 13.94
12/25/2022 7:00:00 AM 0.43 32.774 0.08 6.98 11.09 13.94
12/25/2022 7:15:00 AM 0.42 32.756 0.08 6.97 10.11 13.95
12/25/2022 7:30:00 AM 0.41 32.738 0.08 6.97 10.12 13.95
12/25/2022 7:45:00 AM 0.4 32.72 0.08 6.98 10.14 13.96
12/25/2022 8:00:00 AM 0.4 32.72 0.08 6.96 10.05 13.97
12/25/2022 8:15:00 AM 0.39 32.702 0.08 6.97 10.1 13.99
12/25/2022 8:30:00 AM 0.38 32.684 0.08 6.98 10.2 14
12/25/2022 8:45:00 AM 0.39 32.702 0.08 7.01 9.99 14.02
12/25/2022 9:00:00 AM 0.41 32.738 0.08 6.95 9.98 14.04
12/25/2022 9:15:00 AM 0.41 32.738 0.08 6.99 10.37 14.05
12/25/2022 9:30:00 AM 0.43 32.774 0.08 6.98 10.02 14.07
12/25/2022 9:45:00 AM 0.45 32.81 0.08 6.99 10.16 14.08
12/25/2022 10:00:00 AM 0.48 32.864 0.08 7.02 9.94 14.1
12/25/2022 10:15:00 AM 0.52 32.936 0.08 6.96 9.92 14.11
12/25/2022 10:30:00 AM 0.56 33.008 0.08 7.02 10.43 14.12
12/25/2022 10:45:00 AM 0.64 33.152 0.08 6.97 10.1 14.12
12/25/2022 11:00:00 AM 0.69 33.242 0.08 7.04 10.06 14.12
12/25/2022 11:15:00 AM 0.75 33.35 0.08 6.96 10.08 14.12
12/25/2022 11:30:00 AM 0.79 33.422 0.08 7.05 10.22 14.12
12/25/2022 11:45:00 AM 0.84 33.512 0.08 6.99 10.12 14.12
12/25/2022 12:00:00 PM 0.88 33.584 0.08 7.03 10.06 14.11
12/25/2022 12:15:00 PM 0.92 33.656 0.08 7.03 9.82 14.1
12/25/2022 12:30:00 PM 0.99 33.782 0.08 7.04 10.05 14.1
12/25/2022 12:45:00 PM 1.04 33.872 0.08 7.04 9.87 14.09
12/25/2022 1:00:00 PM 1.08 33.944 0.08 7.07 9.94 14.08
12/25/2022 1:15:00 PM 1.12 34.016 0.08 7.03 9.81 14.07
12/25/2022 1:30:00 PM 1.13 34.034 0.08 7.05 9.94 14.06
12/25/2022 1:45:00 PM 1.17 34.106 0.08 7.05 10.01 14.05
12/25/2022 2:00:00 PM 1.19 34.142 0.08 7.09 9.79 14.04
12/25/2022 2:15:00 PM 1.22 34.196 0.08 7.01 10.17 14.03
12/25/2022 2:30:00 PM 1.23 34.214 0.079 7.06 9.88 14.01
12/25/2022 2:45:00 PM 1.25 34.25 0.08 7.09 10.4 14
12/25/2022 3:00:00 PM 1.26 34.268 0.08 7 10.07 13.98
12/25/2022 3:15:00 PM 1.27 34.286 0.08 7.06 10.13 13.97
12/25/2022 3:30:00 PM 1.28 34.304 0.08 7.05 9.95 13.96
12/25/2022 3:45:00 PM 1.29 34.322 0.08 7.05 10.04 13.96
12/25/2022 4:00:00 PM 1.3 34.34 0.08 7.06 10.2 13.94
12/25/2022 4:15:00 PM 1.29 34.322 0.08 7.04 10.76 13.92
12/25/2022 4:30:00 PM 1.27 34.286 0.08 7.06 10.28 13.9
12/25/2022 4:45:00 PM 1.25 34.25 0.08 7.03 10.17 13.88
12/25/2022 5:00:00 PM 1.23 34.214 0.08 7.03 10.24 13.86
12/25/2022 5:15:00 PM 1.21 34.178 0.08 7.02 10.26 13.86
12/25/2022 5:30:00 PM 1.19 34.142 0.08 7.02 10.12 13.84
12/25/2022 5:45:00 PM 1.16 34.088 0.08 7.04 10.3 13.83
12/25/2022 6:00:00 PM 1.14 34.052 0.08 6.97 10.14 13.83
12/25/2022 6:15:00 PM 1.12 34.016 0.08 7.03 10.33 13.82
12/25/2022 6:30:00 PM 1.1 33.98 0.08 6.95 10.35 13.82
12/25/2022 6:45:00 PM 1.08 33.944 0.08 7 10.25 13.81
12/25/2022 7:00:00 PM 1.07 33.926 0.08 7 10.33 13.82
12/25/2022 7:15:00 PM 1.05 33.89 0.08 7.02 10.45 13.81
12/25/2022 7:30:00 PM 1.03 33.854 0.08 6.94 10.75 13.82
12/25/2022 7:45:00 PM 1.01 33.818 0.08 6.99 10.62 13.82
12/25/2022 8:00:00 PM 0.98 33.764 0.08 7 10.62 13.83
12/25/2022 8:15:00 PM 0.96 33.728 0.08 6.98 10.59 13.83
12/25/2022 8:30:00 PM 0.93 33.674 0.08 6.99 11.03 13.84
12/25/2022 8:45:00 PM 0.91 33.638 0.081 6.94 10.94 13.86
12/25/2022 9:00:00 PM 0.88 33.584 0.081 6.98 10.86 13.87
12/25/2022 9:15:00 PM 0.85 33.53 0.081 6.95 10.78 13.88
12/25/2022 9:30:00 PM 0.83 33.494 0.081 6.95 10.76 13.89
12/25/2022 9:45:00 PM 0.8 33.44 0.081 6.95 10.9 13.89
12/25/2022 10:00:00 PM 0.78 33.404 0.081 6.96 10.9 13.91
12/25/2022 10:15:00 PM 0.76 33.368 0.081 6.93 10.89 13.91
12/25/2022 10:30:00 PM 0.73 33.314 0.081 6.97 11.01 13.92
12/25/2022 10:45:00 PM 0.71 33.278 0.081 6.94 11.04 13.93
12/25/2022 11:00:00 PM 0.68 33.224 0.081 6.95 11.01 13.94
12/25/2022 11:15:00 PM 0.66 33.188 0.081 6.94 10.72 13.96
12/25/2022 11:30:00 PM 0.63 33.134 0.081 6.97 10.83 13.97
12/25/2022 11:45:00 PM 0.61 33.098 0.081 6.89 10.91 13.98
12/26/2022 12:00:00 AM 0.58 33.044 0.081 6.95 10.87 13.99
12/26/2022 12:15:00 AM 0.55 32.99 0.081 6.95 11.08 14
12/26/2022 12:30:00 AM 0.53 32.954 0.081 6.92 10.95 14.01
12/26/2022 12:45:00 AM 0.5 32.9 0.081 6.97 11.02 14.02
12/26/2022 1:00:00 AM 0.48 32.864 0.081 6.89 10.72 14.03
12/26/2022 1:15:00 AM 0.46 32.828 0.081 6.94 11.12 14.04
12/26/2022 1:30:00 AM 0.43 32.774 0.081 6.94 10.92 14.05
12/26/2022 1:45:00 AM 0.4 32.72 0.081 6.97 11.03 14.07
12/26/2022 2:00:00 AM 0.37 32.666 0.081 6.89 10.88 14.08
12/26/2022 2:15:00 AM 0.33 32.594 0.081 6.97 11.56 14.09
12/26/2022 2:30:00 AM 0.29 32.522 0.081 6.9 10.91 14.11
12/26/2022 2:45:00 AM 0.26 32.468 0.081 6.94 10.83 14.12
12/26/2022 3:00:00 AM 0.23 32.414 0.081 6.95 10.63 14.14
12/26/2022 3:15:00 AM 0.21 32.378 0.081 6.92 10.83 14.17
12/26/2022 3:30:00 AM 0.19 32.342 0.082 6.97 10.96 14.18
12/26/2022 3:45:00 AM 0.17 32.306 0.081 6.91 10.61 14.18
12/26/2022 4:00:00 AM 0.16 32.288 0.082 6.95 10.78 14.2
12/26/2022 4:15:00 AM 0.15 32.27 0.082 6.95 10.52 14.2
12/26/2022 4:30:00 AM 0.13 32.234 0.082 6.95 10.66 14.22
12/26/2022 4:45:00 AM 0.13 32.234 0.082 6.96 10.73 14.22
12/26/2022 5:00:00 AM 0.11 32.198 0.082 6.95 10.82 14.24
12/26/2022 5:15:00 AM 0.11 32.198 0.082 6.97 10.73 14.24
12/26/2022 5:30:00 AM 0.1 32.18 0.082 6.97 10.57 14.25
12/26/2022 5:45:00 AM 0.09 32.162 0.082 6.97 10.63 14.26
12/26/2022 6:00:00 AM 0.07 32.126 0.082 6.98 10.49 14.27
12/26/2022 6:15:00 AM 0.06 32.108 0.082 6.98 10.46 14.27
12/26/2022 6:30:00 AM 0.04 32.072 0.082 6.98 10.68 14.28
12/26/2022 6:45:00 AM 0.03 32.054 0.082 7 10.68 14.29
12/26/2022 7:00:00 AM 0.01 32.018 0.082 6.94 10.49 14.3
12/26/2022 7:15:00 AM 0.01 32.018 0.082 6.98 10.58 14.31
12/26/2022 7:30:00 AM 0 32 0.082 6.98 10.57 14.31
12/26/2022 7:45:00 AM -0.01 31.982 0.082 7 10.44 14.34
12/26/2022 8:00:00 AM -0.02 31.964 0.082 6.93 10.26 14.35
12/26/2022 8:15:00 AM -0.02 31.964 0.082 7.01 10.31 14.37
12/26/2022 8:30:00 AM -0.03 31.946 0.082 6.96 10.43 14.39
12/26/2022 8:45:00 AM -0.03 31.946 0.082 7.03 10.45 14.41
12/26/2022 9:00:00 AM -0.03 31.946 0.082 6.96 10.37 14.43
12/26/2022 9:15:00 AM -0.03 31.946 0.082 7.01 10.4 14.46
12/26/2022 9:30:00 AM -0.01 31.982 0.082 7.02 10.18 14.47
12/26/2022 9:45:00 AM 0.02 32.036 0.082 7.02 10.18 14.49
12/26/2022 10:00:00 AM 0.05 32.09 0.082 7.03 10.2 14.51
12/26/2022 10:15:00 AM 0.07 32.126 0.082 7.04 10.05 14.52
12/26/2022 10:30:00 AM 0.11 32.198 0.082 7.05 10.09 14.53
12/26/2022 10:45:00 AM 0.13 32.234 0.082 7.05 10.25 14.55
12/26/2022 11:00:00 AM 0.17 32.306 0.082 7.08 10.27 14.55
12/26/2022 11:15:00 AM 0.22 32.396 0.082 7.02 9.94 14.55
12/26/2022 11:30:00 AM 0.27 32.486 0.082 7.09 10.23 14.55
12/26/2022 11:45:00 AM 0.31 32.558 0.082 7.11 10.04 14.55
12/26/2022 12:00:00 PM 0.35 32.63 0.082 7.09 9.95 14.54
12/26/2022 12:15:00 PM 0.4 32.72 0.082 7.09 9.88 14.53
12/26/2022 12:30:00 PM 0.46 32.828 0.082 7.1 9.87 14.51
12/26/2022 12:45:00 PM 0.53 32.954 0.082 7.12 9.67 14.49
12/26/2022 1:00:00 PM 0.59 33.062 0.082 7.06 9.72 14.47
12/26/2022 1:15:00 PM 0.65 33.17 0.082 7.12 9.76 14.45
12/26/2022 1:30:00 PM 0.7 33.26 0.082 7.14 9.84 14.43
12/26/2022 1:45:00 PM 0.75 33.35 0.082 7.08 9.79 14.4
12/26/2022 2:00:00 PM 0.79 33.422 0.082 7.12 9.71 14.38
12/26/2022 2:15:00 PM 0.82 33.476 0.082 7.13 9.83 14.36
12/26/2022 2:30:00 PM 0.85 33.53 0.082 7.11 9.67 14.34
12/26/2022 2:45:00 PM 0.86 33.548 0.082 7.12 9.74 14.32
12/26/2022 3:00:00 PM 0.87 33.566 0.082 7.12 9.7 14.3
12/26/2022 3:15:00 PM 0.88 33.584 0.082 7.12 9.66 14.29
12/26/2022 3:30:00 PM 0.89 33.602 0.082 7.15 9.62 14.27
12/26/2022 3:45:00 PM 0.91 33.638 0.082 7.1 9.81 14.25
12/26/2022 4:00:00 PM 0.92 33.656 0.082 7.11 9.57 14.24
12/26/2022 4:15:00 PM 0.92 33.656 0.082 7.1 9.76 14.22
12/26/2022 4:30:00 PM 0.91 33.638 0.082 7.1 9.87 14.2
12/26/2022 4:45:00 PM 0.91 33.638 0.082 7.09 9.89 14.18
12/26/2022 5:00:00 PM 0.89 33.602 0.082 7.11 9.78 14.16
12/26/2022 5:15:00 PM 0.87 33.566 0.082 7.07 9.73 14.14
12/26/2022 5:30:00 PM 0.85 33.53 0.083 7.06 9.88 14.12
12/26/2022 5:45:00 PM 0.83 33.494 0.082 7.07 9.76 14.11
12/26/2022 6:00:00 PM 0.81 33.458 0.083 7.04 9.73 14.1
12/26/2022 6:15:00 PM 0.8 33.44 0.083 7.06 10.09 14.09
12/26/2022 6:30:00 PM 0.78 33.404 0.083 7.04 9.96 14.09
12/26/2022 6:45:00 PM 0.76 33.368 0.083 7.04 10.11 14.09
12/26/2022 7:00:00 PM 0.74 33.332 0.083 7.06 9.9 14.08
12/26/2022 7:15:00 PM 0.72 33.296 0.083 7.07 9.85 14.08
12/26/2022 7:30:00 PM 0.7 33.26 0.083 7.02 9.91 14.08
12/26/2022 7:45:00 PM 0.69 33.242 0.083 7.04 9.89 14.08
12/26/2022 8:00:00 PM 0.68 33.224 0.083 7.04 10.28 14.08
12/26/2022 8:15:00 PM 0.68 33.224 0.083 7.07 9.92 14.07
12/26/2022 8:30:00 PM 0.67 33.206 0.083 7.02 9.95 14.07
12/26/2022 8:45:00 PM 0.66 33.188 0.083 7.04 9.81 14.07
12/26/2022 9:00:00 PM 0.66 33.188 0.083 7.04 9.97 14.07
12/26/2022 9:15:00 PM 0.66 33.188 0.083 7.04 10.04 14.07
12/26/2022 9:30:00 PM 0.67 33.206 0.083 7.03 9.86 14.07
12/26/2022 9:45:00 PM 0.67 33.206 0.083 7.03 9.88 14.07
12/26/2022 10:00:00 PM 0.68 33.224 0.083 7.05 9.95 14.06
12/26/2022 10:15:00 PM 0.68 33.224 0.083 7.03 9.97 14.07
12/26/2022 10:30:00 PM 0.68 33.224 0.083 7.04 10.05 14.07
12/26/2022 10:45:00 PM 0.69 33.242 0.083 7.06 10.27 14.06
12/26/2022 11:00:00 PM 0.69 33.242 0.083 7.01 10.53 14.06
12/26/2022 11:15:00 PM 0.69 33.242 0.083 7.06 9.88 14.06
12/26/2022 11:30:00 PM 0.7 33.26 0.083 7.03 9.99 14.06
12/26/2022 11:45:00 PM 0.7 33.26 0.083 7.06 10.19 14.06
12/27/2022 12:00:00 AM 0.7 33.26 0.083 7.03 10.19 14.06
12/27/2022 12:15:00 AM 0.7 33.26 0.083 7.03 10.33 14.06
12/27/2022 12:30:00 AM 0.7 33.26 0.083 7.06 10.29 14.07
12/27/2022 12:45:00 AM 0.7 33.26 0.083 7.01 10.12 14.06
12/27/2022 1:00:00 AM 0.7 33.26 0.083 7.04 10.12 14.06
12/27/2022 1:15:00 AM 0.7 33.26 0.083 7.04 10.23 14.06
12/27/2022 1:30:00 AM 0.7 33.26 0.083 7.06 9.94 14.06
12/27/2022 1:45:00 AM 0.7 33.26 0.083 7.04 10.16 14.06
12/27/2022 2:00:00 AM 0.7 33.26 0.083 7.03 10.44 14.06
12/27/2022 2:15:00 AM 0.7 33.26 0.083 7.06 10.06 14.06
12/27/2022 2:30:00 AM 0.7 33.26 0.083 7 10.27 14.06
12/27/2022 2:45:00 AM 0.71 33.278 0.083 7.05 10.35 14.06
12/27/2022 3:00:00 AM 0.71 33.278 0.084 7.04 10.06 14.06
12/27/2022 3:15:00 AM 0.71 33.278 0.084 7.04 10.16 14.06
12/27/2022 3:30:00 AM 0.71 33.278 0.084 7.05 10.23 14.06
12/27/2022 3:45:00 AM 0.71 33.278 0.083 7.04 10.23 14.06
12/27/2022 4:00:00 AM 0.71 33.278 0.084 7.04 10.09 14.06
12/27/2022 4:15:00 AM 0.71 33.278 0.083 7.04 10.14 14.06
12/27/2022 4:30:00 AM 0.7 33.26 0.084 7.04 10.31 14.06
12/27/2022 4:45:00 AM 0.68 33.224 0.084 7.04 10.22 14.06
12/27/2022 5:00:00 AM 0.68 33.224 0.083 7.04 10.54 14.06
12/27/2022 5:15:00 AM 0.68 33.224 0.083 7.04 10.36 14.06
12/27/2022 5:30:00 AM 0.68 33.224 0.084 7.04 10.34 14.07
12/27/2022 5:45:00 AM 0.68 33.224 0.084 7.03 10.23 14.07
12/27/2022 6:00:00 AM 0.67 33.206 0.084 7.05 10.38 14.07
12/27/2022 6:15:00 AM 0.67 33.206 0.084 7.05 10.16 14.08
12/27/2022 6:30:00 AM 0.66 33.188 0.084 7.06 10.35 14.08
12/27/2022 6:45:00 AM 0.66 33.188 0.084 7.02 10.27 14.08
12/27/2022 7:00:00 AM 0.66 33.188 0.084 7.04 10.3 14.08
12/27/2022 7:15:00 AM 0.67 33.206 0.084 7.06 10.24 14.08
12/27/2022 7:30:00 AM 0.67 33.206 0.084 7.02 10.41 14.09
12/27/2022 7:45:00 AM 0.67 33.206 0.084 7.04 10.32 14.09
12/27/2022 8:00:00 AM 0.67 33.206 0.084 7.06 10.19 14.1
12/27/2022 8:15:00 AM 0.68 33.224 0.084 7 10.1 14.11
12/27/2022 8:30:00 AM 0.69 33.242 0.084 7.04 10.1 14.12
12/27/2022 8:45:00 AM 0.7 33.26 0.084 7.05 10.14 14.13
12/27/2022 9:00:00 AM 0.71 33.278 0.084 7.08 10.11 14.16
12/27/2022 9:15:00 AM 0.72 33.296 0.084 7.05 10.15 14.17
12/27/2022 9:30:00 AM 0.75 33.35 0.084 7.09 10.17 14.2
12/27/2022 9:45:00 AM 0.77 33.386 0.084 7.1 9.9 14.22
12/27/2022 10:00:00 AM 0.8 33.44 0.084 7.06 9.98 14.24
12/27/2022 10:15:00 AM 0.84 33.512 0.084 7.1 9.95 14.26
12/27/2022 10:30:00 AM 0.88 33.584 0.084 7.09 10.03 14.27
12/27/2022 10:45:00 AM 0.92 33.656 0.084 7.1 10.15 14.28
12/27/2022 11:00:00 AM 0.97 33.746 0.084 7.11 10.06 14.29
12/27/2022 11:15:00 AM 1.03 33.854 0.084 7.12 10.02 14.29
12/27/2022 11:30:00 AM 1.07 33.926 0.084 7.15 9.92 14.29
12/27/2022 11:45:00 AM 1.12 34.016 0.084 7.12 9.97 14.28
12/27/2022 12:00:00 PM 1.17 34.106 0.084 7.16 9.8 14.26
12/27/2022 12:15:00 PM 1.22 34.196 0.083 7.12 9.85 14.26
12/27/2022 12:30:00 PM 1.27 34.286 0.083 7.18 9.89 14.25
12/27/2022 12:45:00 PM 1.32 34.376 0.083 7.13 9.79 14.22
12/27/2022 1:00:00 PM 1.35 34.43 0.084 7.19 9.91 14.21
12/27/2022 1:15:00 PM 1.38 34.484 0.083 7.17 9.8 14.19
12/27/2022 1:30:00 PM 1.42 34.556 0.083 7.19 9.78 14.18
12/27/2022 1:45:00 PM 1.46 34.628 0.083 7.15 9.92 14.15
12/27/2022 2:00:00 PM 1.5 34.7 0.083 7.2 9.83 14.13
12/27/2022 2:15:00 PM 1.53 34.754 0.083 7.16 9.69 14.12
12/27/2022 2:30:00 PM 1.54 34.772 0.083 7.17 9.81 14.1
12/27/2022 2:45:00 PM 1.56 34.808 0.083 7.17 9.68 14.07
12/27/2022 3:00:00 PM 1.58 34.844 0.083 7.17 9.8 14.06
12/27/2022 3:15:00 PM 1.6 34.88 0.083 7.17 9.72 14.04
12/27/2022 3:30:00 PM 1.61 34.898 0.083 7.2 9.71 14.02
12/27/2022 3:45:00 PM 1.63 34.934 0.083 7.16 9.85 14
12/27/2022 4:00:00 PM 1.65 34.97 0.083 7.18 9.76 13.97
12/27/2022 4:15:00 PM 1.66 34.988 0.084 7.18 9.64 13.95
12/27/2022 4:30:00 PM 1.66 34.988 0.084 7.14 9.74 13.91
12/27/2022 4:45:00 PM 1.67 35.006 0.083 7.18 9.71 13.89
12/27/2022 5:00:00 PM 1.67 35.006 0.084 7.1 9.69 13.86
12/27/2022 5:15:00 PM 1.67 35.006 0.084 7.14 9.74 13.83
12/27/2022 5:30:00 PM 1.67 35.006 0.084 7.13 9.82 13.81
12/27/2022 5:45:00 PM 1.67 35.006 0.084 7.13 9.89 13.79
12/27/2022 6:00:00 PM 1.67 35.006 0.084 7.13 9.87 13.77
12/27/2022 6:15:00 PM 1.67 35.006 0.084 7.12 9.87 13.76
12/27/2022 6:30:00 PM 1.67 35.006 0.084 7.12 9.82 13.74
12/27/2022 6:45:00 PM 1.67 35.006 0.084 7.13 9.75 13.73
12/27/2022 7:00:00 PM 1.66 34.988 0.084 7.08 9.93 13.72
12/27/2022 7:15:00 PM 1.66 34.988 0.084 7.13 9.83 13.72
12/27/2022 7:30:00 PM 1.66 34.988 0.084 7.1 9.92 13.7
12/27/2022 7:45:00 PM 1.65 34.97 0.084 7.13 10.06 13.7
12/27/2022 8:00:00 PM 1.65 34.97 0.084 7.07 10.15 13.7
12/27/2022 8:15:00 PM 1.65 34.97 0.084 7.11 10.1 13.69
12/27/2022 8:30:00 PM 1.64 34.952 0.084 7.12 10.64 13.69
12/27/2022 8:45:00 PM 1.64 34.952 0.084 7.05 10.2 13.69
12/27/2022 9:00:00 PM 1.64 34.952 0.084 7.1 10.56 13.69
12/27/2022 9:15:00 PM 1.63 34.934 0.084 7.08 10.34 13.68
12/27/2022 9:30:00 PM 1.63 34.934 0.084 7.09 10.22 13.68
12/27/2022 9:45:00 PM 1.63 34.934 0.084 7.11 10.31 13.69
12/27/2022 10:00:00 PM 1.63 34.934 0.084 7.04 10.07 13.69
12/27/2022 10:15:00 PM 1.63 34.934 0.084 7.1 10.14 13.68
12/27/2022 10:30:00 PM 1.63 34.934 0.084 7.1 10.35 13.69
12/27/2022 10:45:00 PM 1.63 34.934 0.084 7.09 10.43 13.68
12/27/2022 11:00:00 PM 1.62 34.916 0.084 7.07 10.11 13.68
12/27/2022 11:15:00 PM 1.62 34.916 0.084 7.09 10.33 13.68
12/27/2022 11:30:00 PM 1.62 34.916 0.084 7.06 10.4 13.68
12/27/2022 11:45:00 PM 1.62 34.916 0.084 7.07 10.28 13.68
12/28/2022 12:00:00 AM 1.62 34.916 0.085 7.07 10.33 13.68
12/28/2022 12:15:00 AM 1.62 34.916 0.085 7.07 10.25 13.67
12/28/2022 12:30:00 AM 1.62 34.916 0.085 7.08 10.34 13.68
12/28/2022 12:45:00 AM 1.62 34.916 0.085 7.09 10.25 13.68
12/28/2022 1:00:00 AM 1.62 34.916 0.085 7.07 10.21 13.68
12/28/2022 1:15:00 AM 1.61 34.898 0.085 7.07 10.29 13.68
12/28/2022 1:30:00 AM 1.61 34.898 0.085 7.07 10.22 13.68
12/28/2022 1:45:00 AM 1.61 34.898 0.085 7.1 10.63 13.68
12/28/2022 2:00:00 AM 1.61 34.898 0.085 7.04 10.3 13.69
12/28/2022 2:15:00 AM 1.61 34.898 0.085 7.08 10.21 13.68
12/28/2022 2:30:00 AM 1.61 34.898 0.085 7.08 10.17 13.68
12/28/2022 2:45:00 AM 1.61 34.898 0.085 7.08 10.35 13.68
12/28/2022 3:00:00 AM 1.61 34.898 0.085 7.08 10.29 13.68
12/28/2022 3:15:00 AM 1.61 34.898 0.085 7.07 10.29 13.68
12/28/2022 3:30:00 AM 1.61 34.898 0.085 7.07 10.17 13.68
12/28/2022 3:45:00 AM 1.61 34.898 0.085 7.07 10.52 13.67
12/28/2022 4:00:00 AM 1.61 34.898 0.085 7.07 10.3 13.68
12/28/2022 4:15:00 AM 1.61 34.898 0.085 7.09 10.41 13.67
12/28/2022 4:30:00 AM 1.6 34.88 0.085 7.07 10.43 13.68
12/28/2022 4:45:00 AM 1.59 34.862 0.085 7.09 10.39 13.68
12/28/2022 5:00:00 AM 1.58 34.844 0.085 7.07 10.83 13.68
12/28/2022 5:15:00 AM 1.57 34.826 0.085 7.09 10.54 13.68
12/28/2022 5:30:00 AM 1.56 34.808 0.085 7.07 10.54 13.68
12/28/2022 5:45:00 AM 1.55 34.79 0.085 7.07 10.59 13.68
12/28/2022 6:00:00 AM 1.55 34.79 0.085 7.08 10.52 13.69
12/28/2022 6:15:00 AM 1.54 34.772 0.085 7.07 10.43 13.69
12/28/2022 6:30:00 AM 1.54 34.772 0.085 7.07 10.54 13.69
12/28/2022 6:45:00 AM 1.53 34.754 0.085 7.09 10.69 13.69
12/28/2022 7:00:00 AM 1.52 34.736 0.085 7.08 10.59 13.7
12/28/2022 7:15:00 AM 1.51 34.718 0.085 7.05 10.53 13.7
12/28/2022 7:30:00 AM 1.5 34.7 0.085 7.07 10.54 13.71
12/28/2022 7:45:00 AM 1.49 34.682 0.085 7.07 10.38 13.71
12/28/2022 8:00:00 AM 1.48 34.664 0.085 7.09 10.28 13.73
12/28/2022 8:15:00 AM 1.47 34.646 0.085 7.06 10.34 13.75
12/28/2022 8:30:00 AM 1.46 34.628 0.085 7.07 10.38 13.77
12/28/2022 8:45:00 AM 1.45 34.61 0.085 7.1 10.37 13.79
12/28/2022 9:00:00 AM 1.46 34.628 0.085 7.07 10.36 13.82
12/28/2022 9:15:00 AM 1.47 34.646 0.085 7.1 9.46 13.84
12/28/2022 9:30:00 AM 1.49 34.682 0.085 7.09 10.31 13.86
12/28/2022 9:45:00 AM 1.52 34.736 0.085 7.12 11.15 13.89
12/28/2022 10:00:00 AM 1.56 34.808 0.085 7.13 11.75 13.92
12/28/2022 10:15:00 AM 1.59 34.862 0.085 7.08 11.99 13.94
12/28/2022 10:30:00 AM 1.65 34.97 0.085 7.15 11.96 13.95
12/28/2022 10:45:00 AM 1.7 35.06 0.085 7.1 11.79 13.97
12/28/2022 11:00:00 AM 1.77 35.186 0.085 7.16 12.33 13.98
12/28/2022 11:15:00 AM 1.84 35.312 0.085 7.12 11.95 13.99
12/28/2022 11:30:00 AM 1.93 35.474 0.085 7.16 12.28 14
12/28/2022 11:45:00 AM 2 35.6 0.085 7.16 12.36 14
12/28/2022 12:00:00 PM 2.11 35.798 0.085 7.17 11.96 13.99
12/28/2022 12:15:00 PM 2.21 35.978 0.085 7.19 11.85 13.98
12/28/2022 12:30:00 PM 2.28 36.104 0.084 7.2 12.21 13.96
12/28/2022 12:45:00 PM 2.35 36.23 0.084 7.21 12.09 13.92
12/28/2022 1:00:00 PM 2.41 36.338 0.084 7.23 12.17 13.9
12/28/2022 1:15:00 PM 2.48 36.464 0.084 7.18 12.1 13.86
12/28/2022 1:30:00 PM 2.55 36.59 0.084 7.25 12.17 13.82
12/28/2022 1:45:00 PM 2.61 36.698 0.084 7.23 11.64 13.78
12/28/2022 2:00:00 PM 2.66 36.788 0.084 7.26 12.18 13.74
12/28/2022 2:15:00 PM 2.73 36.914 0.084 7.2 12.21 13.71
12/28/2022 2:30:00 PM 2.78 37.004 0.084 7.24 12.27 13.68
12/28/2022 2:45:00 PM 2.84 37.112 0.084 7.26 12.49 13.65
12/28/2022 3:00:00 PM 2.87 37.166 0.084 7.21 12.33 13.63
12/28/2022 3:15:00 PM 2.89 37.202 0.084 7.23 12.44 13.6
12/28/2022 3:30:00 PM 2.92 37.256 0.084 7.25 12.41 13.57
12/28/2022 3:45:00 PM 2.93 37.274 0.084 7.22 12.36 13.54
12/28/2022 4:00:00 PM 2.93 37.274 0.084 7.23 12.25 13.51
12/28/2022 4:15:00 PM 2.94 37.292 0.084 7.25 12.28 13.47
12/28/2022 4:30:00 PM 2.94 37.292 0.084 7.2 12.37 13.45
12/28/2022 4:45:00 PM 2.95 37.31 0.084 7.22 12.66 13.41
12/28/2022 5:00:00 PM 2.94 37.292 0.084 7.24 12.63 13.39
12/28/2022 5:15:00 PM 2.93 37.274 0.084 7.17 12.46 13.36
12/28/2022 5:30:00 PM 2.91 37.238 0.085 7.22 12.65 13.33
12/28/2022 5:45:00 PM 2.89 37.202 0.085 7.2 12.7 13.31
12/28/2022 6:00:00 PM 2.86 37.148 0.085 7.2 12.58 13.3
12/28/2022 6:15:00 PM 2.83 37.094 0.085 7.15 12.71 13.29
12/28/2022 6:30:00 PM 2.79 37.022 0.085 7.18 12.74 13.29
12/28/2022 6:45:00 PM 2.75 36.95 0.085 7.15 12.95 13.28
12/28/2022 7:00:00 PM 2.71 36.878 0.085 7.15 12.82 13.28
12/28/2022 7:15:00 PM 2.67 36.806 0.085 7.16 12.68 13.28
12/28/2022 7:30:00 PM 2.63 36.734 0.085 7.13 12.75 13.29
12/28/2022 7:45:00 PM 2.59 36.662 0.085 7.13 12.83 13.3
12/28/2022 8:00:00 PM 2.55 36.59 0.085 7.15 13.28 13.31
12/28/2022 8:15:00 PM 2.51 36.518 0.085 7.14 13.04 13.32
12/28/2022 8:30:00 PM 2.47 36.446 0.085 7.1 13.1 13.33
12/28/2022 8:45:00 PM 2.43 36.374 0.085 7.13 13.27 13.34
12/28/2022 9:00:00 PM 2.38 36.284 0.085 7.1 13.15 13.36
12/28/2022 9:15:00 PM 2.35 36.23 0.085 7.13 13.42 13.37
12/28/2022 9:30:00 PM 2.31 36.158 0.085 7.09 13.15 13.39
12/28/2022 9:45:00 PM 2.27 36.086 0.085 7.09 12.99 13.41
12/28/2022 10:00:00 PM 2.24 36.032 0.085 7.11 13.21 13.42
12/28/2022 10:15:00 PM 2.2 35.96 0.085 7.08 13.18 13.44
12/28/2022 10:30:00 PM 2.16 35.888 0.085 7.1 13.5 13.45
12/28/2022 10:45:00 PM 2.13 35.834 0.085 7.1 13.3 13.46
12/28/2022 11:00:00 PM 2.1 35.78 0.085 7.09 13.19 13.48
12/28/2022 11:15:00 PM 2.07 35.726 0.085 7.07 13.83 13.5
12/28/2022 11:30:00 PM 2.04 35.672 0.085 7.1 13.87 13.51
12/28/2022 11:45:00 PM 2.01 35.618 0.085 7.05 14.84 13.52
12/29/2022 12:00:00 AM 1.99 35.582 0.085 7.07 14.55 13.53
12/29/2022 12:15:00 AM 1.96 35.528 0.085 7.09 10.88 13.55
12/29/2022 12:30:00 AM 1.93 35.474 0.085 7.04 9.49 13.55
12/29/2022 12:45:00 AM 1.9 35.42 0.086 7.09 9.59 13.56
12/29/2022 1:00:00 AM 1.87 35.366 0.086 7.09 9.79 13.57
12/29/2022 1:15:00 AM 1.84 35.312 0.086 7.02 9.9 13.58
12/29/2022 1:30:00 AM 1.81 35.258 0.086 7.07 9.8 13.59
12/29/2022 1:45:00 AM 1.78 35.204 0.086 7.05 10.46 13.6
12/29/2022 2:00:00 AM 1.75 35.15 0.086 7.07 15.44 13.61
12/29/2022 2:15:00 AM 1.72 35.096 0.086 7.06 10.52 13.61
12/29/2022 2:30:00 AM 1.69 35.042 0.086 7.04 10.69 13.63
12/29/2022 2:45:00 AM 1.67 35.006 0.086 7.04 10.56 13.63
12/29/2022 3:00:00 AM 1.64 34.952 0.086 7.05 11.04 13.64
12/29/2022 3:15:00 AM 1.6 34.88 0.086 7.04 9.39 13.65
12/29/2022 3:30:00 AM 1.57 34.826 0.086 7.04 9.69 13.65
12/29/2022 3:45:00 AM 1.54 34.772 0.086 7.07 9.23 13.67
12/29/2022 4:00:00 AM 1.51 34.718 0.086 7.01 9.26 13.67
12/29/2022 4:15:00 AM 1.48 34.664 0.086 7.04 9.14 13.69
12/29/2022 4:30:00 AM 1.44 34.592 0.086 7.04 9.03 13.7
12/29/2022 4:45:00 AM 1.41 34.538 0.086 7.04 9.41 13.71
12/29/2022 5:00:00 AM 1.38 34.484 0.086 7.04 9.18 13.72
12/29/2022 5:15:00 AM 1.34 34.412 0.086 7.04 9.13 13.73
12/29/2022 5:30:00 AM 1.31 34.358 0.086 7.06 9.19 13.75
12/29/2022 5:45:00 AM 1.27 34.286 0.086 7.03 9.14 13.77
12/29/2022 6:00:00 AM 1.24 34.232 0.086 7.06 9.34 13.78
12/29/2022 6:15:00 AM 1.21 34.178 0.086 7.06 9.15 13.79
12/29/2022 6:30:00 AM 1.17 34.106 0.086 7.06 9.26 13.81
12/29/2022 6:45:00 AM 1.14 34.052 0.086 7.04 9.29 13.83
12/29/2022 7:00:00 AM 1.11 33.998 0.086 7.06 8.99 13.84
12/29/2022 7:15:00 AM 1.07 33.926 0.086 7.06 9.34 13.87
12/29/2022 7:30:00 AM 1.04 33.872 0.086 7.01 9.19 13.88
12/29/2022 7:45:00 AM 1.01 33.818 0.086 7.05 9.26 13.9
12/29/2022 8:00:00 AM 0.98 33.764 0.086 7.05 9.04 13.93
12/29/2022 8:15:00 AM 0.96 33.728 0.086 7.07 9.05 13.97
12/29/2022 8:30:00 AM 0.94 33.692 0.086 7.03 8.96 14
12/29/2022 8:45:00 AM 0.92 33.656 0.086 7.08 8.95 14.03
12/29/2022 9:00:00 AM 0.93 33.674 0.086 7.07 9 14.07
12/29/2022 9:15:00 AM 0.94 33.692 0.087 7.1 9.1 14.1
12/29/2022 9:30:00 AM 0.96 33.728 0.086 7.05 9.08 14.12
12/29/2022 9:45:00 AM 0.99 33.782 0.087 7.09 9.06 14.14
12/29/2022 10:00:00 AM 1.03 33.854 0.087 7.12 9.11 14.17
12/29/2022 10:15:00 AM 1.09 33.962 0.087 7.14 8.99 14.18
12/29/2022 10:30:00 AM 1.15 34.07 0.087 7.16 9.01 14.2
12/29/2022 10:45:00 AM 1.22 34.196 0.087 7.17 9 14.2
12/29/2022 11:00:00 AM 1.3 34.34 0.087 7.19 8.83 14.2
12/29/2022 11:15:00 AM 1.39 34.502 0.087 7.17 8.98 14.19
12/29/2022 11:30:00 AM 1.47 34.646 0.087 7.21 9.01 14.19
12/29/2022 11:45:00 AM 1.56 34.808 0.086 7.18 8.87 14.18
12/29/2022 12:00:00 PM 1.65 34.97 0.086 7.22 8.84 14.18
12/29/2022 12:15:00 PM 1.73 35.114 0.086 7.2 8.79 14.17
12/29/2022 12:30:00 PM 1.82 35.276 0.086 7.24 8.88 14.17
12/29/2022 12:45:00 PM 1.89 35.402 0.086 7.24 8.77 14.16
12/29/2022 1:00:00 PM 1.96 35.528 0.086 7.22 8.72 14.15
12/29/2022 1:15:00 PM 2.03 35.654 0.086 7.22 8.61 14.12
12/29/2022 1:30:00 PM 2.1 35.78 0.086 7.23 8.71 14.09
12/29/2022 1:45:00 PM 2.17 35.906 0.086 7.24 8.72 14.05
12/29/2022 2:00:00 PM 2.25 36.05 0.086 7.24 8.72 14
12/29/2022 2:15:00 PM 2.32 36.176 0.086 7.25 8.68 13.95
12/29/2022 2:30:00 PM 2.4 36.32 0.086 7.25 8.69 13.9
12/29/2022 2:45:00 PM 2.47 36.446 0.086 7.25 8.62 13.85
12/29/2022 3:00:00 PM 2.53 36.554 0.086 7.27 8.77 13.8
12/29/2022 3:15:00 PM 2.58 36.644 0.086 7.26 8.8 13.76
12/29/2022 3:30:00 PM 2.63 36.734 0.086 7.27 8.69 13.72
12/29/2022 3:45:00 PM 2.66 36.788 0.086 7.23 8.88 13.68
12/29/2022 4:00:00 PM 2.68 36.824 0.086 7.26 8.81 13.64
12/29/2022 4:15:00 PM 2.71 36.878 0.086 7.21 8.98 13.6
12/29/2022 4:30:00 PM 2.73 36.914 0.086 7.26 8.89 13.56
12/29/2022 4:45:00 PM 2.75 36.95 0.086 7.2 8.94 13.52
12/29/2022 5:00:00 PM 2.76 36.968 0.086 7.25 8.88 13.48
12/29/2022 5:15:00 PM 2.77 36.986 0.086 7.24 8.83 13.44
12/29/2022 5:30:00 PM 2.77 36.986 0.086 7.19 8.85 13.42
12/29/2022 5:45:00 PM 2.77 36.986 0.086 7.2 8.8 13.39
12/29/2022 6:00:00 PM 2.75 36.95 0.087 7.22 8.98 13.37
12/29/2022 6:15:00 PM 2.73 36.914 0.087 7.21 9 13.35
12/29/2022 6:30:00 PM 2.71 36.878 0.087 7.16 8.96 13.34
12/29/2022 6:45:00 PM 2.68 36.824 0.087 7.18 8.88 13.33
12/29/2022 7:00:00 PM 2.66 36.788 0.087 7.19 8.94 13.32
12/29/2022 7:15:00 PM 2.63 36.734 0.087 7.15 8.9 13.32
12/29/2022 7:30:00 PM 2.6 36.68 0.087 7.18 9.08 13.31
12/29/2022 7:45:00 PM 2.56 36.608 0.087 7.17 9.14 13.32
12/29/2022 8:00:00 PM 2.53 36.554 0.087 7.14 8.97 13.32
12/29/2022 8:15:00 PM 2.52 36.536 0.087 7.17 9.04 13.33
12/29/2022 8:30:00 PM 2.51 36.518 0.087 7.13 8.98 13.33
12/29/2022 8:45:00 PM 2.5 36.5 0.087 7.14 9.02 13.35
12/29/2022 9:00:00 PM 2.49 36.482 0.087 7.13 9.17 13.35
12/29/2022 9:15:00 PM 2.48 36.464 0.087 7.13 9.15 13.35
12/29/2022 9:30:00 PM 2.48 36.464 0.087 7.13 9.25 13.36
12/29/2022 9:45:00 PM 2.48 36.464 0.087 7.14 9.25 13.35
12/29/2022 10:00:00 PM 2.48 36.464 0.087 7.1 9.21 13.36
12/29/2022 10:15:00 PM 2.48 36.464 0.087 7.14 9.07 13.35
12/29/2022 10:30:00 PM 2.49 36.482 0.087 7.1 9.13 13.36
12/29/2022 10:45:00 PM 2.51 36.518 0.087 7.14 9.12 13.35
12/29/2022 11:00:00 PM 2.52 36.536 0.087 7.1 9.25 13.34
12/29/2022 11:15:00 PM 2.54 36.572 0.087 7.14 9.27 13.34
12/29/2022 11:30:00 PM 2.56 36.608 0.087 7.1 9.23 13.33
12/29/2022 11:45:00 PM 2.58 36.644 0.087 7.11 9.3 13.32
12/30/2022 12:00:00 AM 2.59 36.662 0.087 7.12 9.37 13.31
12/30/2022 12:15:00 AM 2.62 36.716 0.087 7.13 9.35 13.31
12/30/2022 12:30:00 AM 2.64 36.752 0.087 7.1 9.31 13.3
12/30/2022 12:45:00 AM 2.66 36.788 0.087 7.13 9.41 13.29
12/30/2022 1:00:00 AM 2.67 36.806 0.087 7.13 9.29 13.29
12/30/2022 1:15:00 AM 2.69 36.842 0.087 7.1 9.31 13.28
12/30/2022 1:30:00 AM 2.71 36.878 0.087 7.11 9.46 13.27
12/30/2022 1:45:00 AM 2.73 36.914 0.087 7.13 9.6 13.27
12/30/2022 2:00:00 AM 2.73 36.914 0.087 7.09 9.54 13.26
12/30/2022 2:15:00 AM 2.73 36.914 0.087 7.1 9.67 13.25
12/30/2022 2:30:00 AM 2.73 36.914 0.087 7.13 9.55 13.25
12/30/2022 2:45:00 AM 2.74 36.932 0.087 7.14 9.47 13.25
12/30/2022 3:00:00 AM 2.74 36.932 0.087 7.08 9.48 13.24
12/30/2022 3:15:00 AM 2.74 36.932 0.087 7.14 9.35 13.24
12/30/2022 3:30:00 AM 2.74 36.932 0.087 7.12 9.4 13.24
12/30/2022 3:45:00 AM 2.75 36.95 0.087 7.13 9.38 13.24
12/30/2022 4:00:00 AM 2.76 36.968 0.087 7.1 9.42 13.23
12/30/2022 4:15:00 AM 2.77 36.986 0.087 7.12 9.66 13.23
12/30/2022 4:30:00 AM 2.79 37.022 0.087 7.12 9.65 13.22
12/30/2022 4:45:00 AM 2.8 37.04 0.087 7.1 9.66 13.22
12/30/2022 5:00:00 AM 2.82 37.076 0.087 7.11 9.61 13.22
12/30/2022 5:15:00 AM 2.83 37.094 0.087 7.12 9.68 13.21
12/30/2022 5:30:00 AM 2.84 37.112 0.087 7.11 9.7 13.2
12/30/2022 5:45:00 AM 2.85 37.13 0.087 7.11 9.73 13.21
12/30/2022 6:00:00 AM 2.86 37.148 0.087 7.13 9.61 13.2
12/30/2022 6:15:00 AM 2.88 37.184 0.087 7.13 9.51 13.2
12/30/2022 6:30:00 AM 2.89 37.202 0.087 7.09 9.58 13.2
12/30/2022 6:45:00 AM 2.91 37.238 0.087 7.13 9.49 13.19
12/30/2022 7:00:00 AM 2.92 37.256 0.087 7.11 9.79 13.19
12/30/2022 7:15:00 AM 2.94 37.292 0.087 7.11 10.23 13.19
12/30/2022 7:30:00 AM 2.95 37.31 0.087 7.13 9.73 13.18
12/30/2022 7:45:00 AM 2.97 37.346 0.087 7.09 9.83 13.19
12/30/2022 8:00:00 AM 2.98 37.364 0.087 7.12 9.85 13.2
12/30/2022 8:15:00 AM 3 37.4 0.087 7.13 9.8 13.21
12/30/2022 8:30:00 AM 3.03 37.454 0.087 7.11 9.69 13.24
12/30/2022 8:45:00 AM 3.05 37.49 0.087 7.14 9.81 13.25
12/30/2022 9:00:00 AM 3.08 37.544 0.087 7.12 9.69 13.28
12/30/2022 9:15:00 AM 3.11 37.598 0.087 7.15 9.66 13.31
12/30/2022 9:30:00 AM 3.16 37.688 0.087 7.17 9.62 13.34
12/30/2022 9:45:00 AM 3.2 37.76 0.087 7.13 9.59 13.36
12/30/2022 10:00:00 AM 3.24 37.832 0.087 7.16 9.47 13.38
12/30/2022 10:15:00 AM 3.28 37.904 0.087 7.17 9.54 13.39
12/30/2022 10:30:00 AM 3.32 37.976 0.087 7.18 9.45 13.4
12/30/2022 10:45:00 AM 3.36 38.048 0.087 7.2 9.26 13.41
12/30/2022 11:00:00 AM 3.41 38.138 0.087 7.21 9.44 13.42
12/30/2022 11:15:00 AM 3.49 38.282 0.087 7.18 9.42 13.41
12/30/2022 11:30:00 AM 3.57 38.426 0.087 7.22 9.41 13.42
12/30/2022 11:45:00 AM 3.63 38.534 0.086 7.22 9.47 13.41
12/30/2022 12:00:00 PM 3.71 38.678 0.086 7.23 9.44 13.4
12/30/2022 12:15:00 PM 3.8 38.84 0.086 7.26 9.38 13.39
12/30/2022 12:30:00 PM 3.88 38.984 0.086 7.22 9.34 13.38
12/30/2022 12:45:00 PM 3.95 39.11 0.086 7.28 9.44 13.36
12/30/2022 1:00:00 PM 4.05 39.29 0.086 7.28 9.42 13.36
12/30/2022 1:15:00 PM 4.12 39.416 0.086 7.27 9.36 13.35
12/30/2022 1:30:00 PM 4.19 39.542 0.086 7.28 9.39 13.34
12/30/2022 1:45:00 PM 4.27 39.686 0.086 7.3 9.37 13.34
12/30/2022 2:00:00 PM 4.35 39.83 0.086 7.31 9.38 13.34
12/30/2022 2:15:00 PM 4.42 39.956 0.086 7.31 9.34 13.32
12/30/2022 2:30:00 PM 4.47 40.046 0.086 7.33 9.47 13.3
12/30/2022 2:45:00 PM 4.51 40.118 0.086 7.33 9.4 13.27
12/30/2022 3:00:00 PM 4.56 40.208 0.086 7.34 9.52 13.24
12/30/2022 3:15:00 PM 4.6 40.28 0.086 7.32 9.51 13.21
12/30/2022 3:30:00 PM 4.63 40.334 0.086 7.34 9.42 13.18
12/30/2022 3:45:00 PM 4.65 40.37 0.086 7.32 9.57 13.14
12/30/2022 4:00:00 PM 4.65 40.37 0.086 7.33 9.66 13.09
12/30/2022 4:15:00 PM 4.65 40.37 0.086 7.33 9.78 13.04
12/30/2022 4:30:00 PM 4.66 40.388 0.086 7.32 9.92 12.99
12/30/2022 4:45:00 PM 4.67 40.406 0.086 7.28 10.11 12.95
12/30/2022 5:00:00 PM 4.67 40.406 0.086 7.28 9.87 12.9
12/30/2022 5:15:00 PM 4.67 40.406 0.086 7.28 9.99 12.87
12/30/2022 5:30:00 PM 4.66 40.388 0.087 7.26 9.9 12.83
12/30/2022 5:45:00 PM 4.64 40.352 0.087 7.27 10.02 12.8
12/30/2022 6:00:00 PM 4.62 40.316 0.087 7.27 10.07 12.77
12/30/2022 6:15:00 PM 4.58 40.244 0.087 7.23 10.15 12.75
12/30/2022 6:30:00 PM 4.55 40.19 0.087 7.23 10.42 12.73
12/30/2022 6:45:00 PM 4.52 40.136 0.087 7.22 10.25 12.71
12/30/2022 7:00:00 PM 4.48 40.064 0.087 7.24 10.33 12.69
12/30/2022 7:15:00 PM 4.45 40.01 0.087 7.23 10.38 12.69
12/30/2022 7:30:00 PM 4.41 39.938 0.087 7.19 10.6 12.68
12/30/2022 7:45:00 PM 4.37 39.866 0.087 7.22 10.47 12.67
12/30/2022 8:00:00 PM 4.37 39.866 0.087 7.22 10.47 12.67
12/30/2022 8:15:00 PM 4.3 39.74 0.087 7.21 10.55 12.66
12/30/2022 8:30:00 PM 4.26 39.668 0.087 7.15 10.73 12.67
12/30/2022 8:45:00 PM 4.21 39.578 0.087 7.2 10.72 12.67
12/30/2022 9:00:00 PM 4.17 39.506 0.087 7.14 10.75 12.67
12/30/2022 9:15:00 PM 4.13 39.434 0.087 7.2 10.85 12.68
12/30/2022 9:30:00 PM 4.08 39.344 0.087 7.14 10.66 12.68
12/30/2022 9:45:00 PM 4.04 39.272 0.087 7.16 10.91 12.69
12/30/2022 10:00:00 PM 3.99 39.182 0.087 7.18 11.05 12.7
12/30/2022 10:15:00 PM 3.95 39.11 0.086 7.15 10.74 12.71
12/30/2022 10:30:00 PM 3.9 39.02 0.086 7.17 10.74 12.72
12/30/2022 10:45:00 PM 3.86 38.948 0.086 7.13 10.92 12.74
12/30/2022 11:00:00 PM 3.82 38.876 0.086 7.15 11.03 12.75
12/30/2022 11:15:00 PM 3.78 38.804 0.086 7.14 10.83 12.76
12/30/2022 11:30:00 PM 3.75 38.75 0.086 7.15 11.15 12.78
12/30/2022 11:45:00 PM 3.7 38.66 0.086 7.16 11.25 12.79
12/31/2022 12:00:00 AM 3.66 38.588 0.086 7.11 10.97 12.81
12/31/2022 12:15:00 AM 3.63 38.534 0.086 7.16 10.82 12.83
12/31/2022 12:30:00 AM 3.6 38.48 0.086 7.15 10.96 12.84
12/31/2022 12:45:00 AM 3.56 38.408 0.087 7.15 11.05 12.85
12/31/2022 1:00:00 AM 3.53 38.354 0.087 7.11 11.16 12.87
12/31/2022 1:15:00 AM 3.5 38.3 0.087 7.14 10.94 12.89
12/31/2022 1:30:00 AM 3.48 38.264 0.087 7.13 11.19 12.9
12/31/2022 1:45:00 AM 3.45 38.21 0.087 7.14 11.38 12.91
12/31/2022 2:00:00 AM 3.43 38.174 0.087 7.14 11.36 12.92
12/31/2022 2:15:00 AM 3.4 38.12 0.087 7.15 11.31 12.93
12/31/2022 2:30:00 AM 3.38 38.084 0.087 7.13 11.42 12.95
12/31/2022 2:45:00 AM 3.36 38.048 0.087 7.11 11.54 12.96
12/31/2022 3:00:00 AM 3.34 38.012 0.087 7.13 11.49 12.96
12/31/2022 3:15:00 AM 3.32 37.976 0.087 7.13 11.6 12.97
12/31/2022 3:30:00 AM 3.3 37.94 0.087 7.15 11.46 12.99
12/31/2022 3:45:00 AM 3.29 37.922 0.087 7.1 11.44 12.99
12/31/2022 4:00:00 AM 3.28 37.904 0.087 7.12 11.48 12.99
12/31/2022 4:15:00 AM 3.27 37.886 0.087 7.13 11.49 13
12/31/2022 4:30:00 AM 3.27 37.886 0.087 7.12 11.48 13
12/31/2022 4:45:00 AM 3.27 37.886 0.087 7.11 11.4 13.01
12/31/2022 5:00:00 AM 3.26 37.868 0.087 7.14 11.3 13.01
12/31/2022 5:15:00 AM 3.27 37.886 0.087 7.1 11.33 13.01
12/31/2022 5:30:00 AM 3.27 37.886 0.087 7.12 11.39 13.01
12/31/2022 5:45:00 AM 3.27 37.886 0.087 7.11 11.48 13.02
12/31/2022 6:00:00 AM 3.27 37.886 0.087 7.14 11.29 13.01
12/31/2022 6:15:00 AM 3.28 37.904 0.087 7.11 11.14 13.02
12/31/2022 6:30:00 AM 3.28 37.904 0.087 7.14 11.24 13.01
12/31/2022 6:45:00 AM 3.29 37.922 0.087 7.14 11.35 13.01
12/31/2022 7:00:00 AM 3.29 37.922 0.087 7.09 11.18 13
12/31/2022 7:15:00 AM 3.29 37.922 0.087 7.14 11.23 13
12/31/2022 7:30:00 AM 3.3 37.94 0.087 7.09 11.34 13
12/31/2022 7:45:00 AM 3.3 37.94 0.087 7.14 11.13 12.99
12/31/2022 8:00:00 AM 3.31 37.958 0.087 7.13 10.95 13
12/31/2022 8:15:00 AM 3.32 37.976 0.087 7.14 11.03 13
12/31/2022 8:30:00 AM 3.34 38.012 0.087 7.13 10.89 13.01
12/31/2022 8:45:00 AM 3.35 38.03 0.087 7.13 11.11 13.03
12/31/2022 9:00:00 AM -99999.99 -179968 -99999.99 -99999.99 -99999.99 -99999.99
12/31/2022 9:15:00 AM -99999.99 -179968 -99999.99 -99999.99 -99999.99 -99999.99
12/31/2022 9:30:00 AM -99999.99 -179968 -99999.99 -99999.99 -99999.99 -99999.99
12/31/2022 9:45:00 AM -99999.99 -179968 -99999.99 -99999.99 -99999.99 -99999.99
12/31/2022 10:00:00 AM -99999.99 -179968 -99999.99 -99999.99 -99999.99 -99999.99
12/31/2022 10:15:00 AM -99999.99 -179968 -99999.99 -99999.99 -99999.99 -99999.99
12/31/2022 10:30:00 AM -99999.99 -179968 -99999.99 -99999.99 -99999.99 -99999.99
12/31/2022 10:45:00 AM -99999.99 -179968 -99999.99 -99999.99 -99999.99 -99999.99
12/31/2022 11:00:00 AM -99999.99 -179968 -99999.99 -99999.99 -99999.99 -99999.99
12/31/2022 11:15:00 AM -99999.99 -179968 -99999.99 -99999.99 -99999.99 -99999.99
12/31/2022 11:30:00 AM -99999.99 -179968 -99999.99 -99999.99 -99999.99 -99999.99
12/31/2022 11:45:00 AM -99999.99 -179968 -99999.99 -99999.99 -99999.99 -99999.99
12/31/2022 12:00:00 PM -99999.99 -179968 -99999.99 -99999.99 -99999.99 -99999.99
12/31/2022 12:15:00 PM -99999.99 -179968 -99999.99 -99999.99 -99999.99 -99999.99
12/31/2022 12:30:00 PM -99999.99 -179968 -99999.99 -99999.99 -99999.99 -99999.99
12/31/2022 12:45:00 PM -99999.99 -179968 -99999.99 -99999.99 -99999.99 -99999.99
12/31/2022 1:00:00 PM -99999.99 -179968 -99999.99 -99999.99 -99999.99 -99999.99
12/31/2022 1:15:00 PM -99999.99 -179968 -99999.99 -99999.99 -99999.99 -99999.99
12/31/2022 1:30:00 PM -99999.99 -179968 -99999.99 -99999.99 -99999.99 -99999.99
12/31/2022 1:45:00 PM -99999.99 -179968 -99999.99 -99999.99 -99999.99 -99999.99
12/31/2022 2:00:00 PM -99999.99 -179968 -99999.99 -99999.99 -99999.99 -99999.99
12/31/2022 2:15:00 PM -99999.99 -179968 -99999.99 -99999.99 -99999.99 -99999.99
12/31/2022 2:30:00 PM -99999.99 -179968 -99999.99 -99999.99 -99999.99 -99999.99
12/31/2022 2:45:00 PM -99999.99 -179968 -99999.99 -99999.99 -99999.99 -99999.99
12/31/2022 3:00:00 PM -99999.99 -179968 -99999.99 -99999.99 -99999.99 -99999.99
12/31/2022 3:15:00 PM -99999.99 -179968 -99999.99 -99999.99 -99999.99 -99999.99
12/31/2022 3:30:00 PM -99999.99 -179968 -99999.99 -99999.99 -99999.99 -99999.99
12/31/2022 3:45:00 PM -99999.99 -179968 -99999.99 -99999.99 -99999.99 -99999.99
12/31/2022 4:00:00 PM -99999.99 -179968 -99999.99 -99999.99 -99999.99 -99999.99
12/31/2022 4:15:00 PM -99999.99 -179968 -99999.99 -99999.99 -99999.99 -99999.99
12/31/2022 4:30:00 PM -99999.99 -179968 -99999.99 -99999.99 -99999.99 -99999.99
12/31/2022 4:45:00 PM -99999.99 -179968 -99999.99 -99999.99 -99999.99 -99999.99
12/31/2022 5:00:00 PM -99999.99 -179968 -99999.99 -99999.99 -99999.99 -99999.99
12/31/2022 5:15:00 PM -99999.99 -179968 -99999.99 -99999.99 -99999.99 -99999.99
12/31/2022 5:30:00 PM -99999.99 -179968 -99999.99 -99999.99 -99999.99 -99999.99
12/31/2022 5:45:00 PM -99999.99 -179968 -99999.99 -99999.99 -99999.99 -99999.99
12/31/2022 6:00:00 PM -99999.99 -179968 -99999.99 -99999.99 -99999.99 -99999.99
12/31/2022 6:15:00 PM -99999.99 -179968 -99999.99 -99999.99 -99999.99 -99999.99
12/31/2022 6:30:00 PM -99999.99 -179968 -99999.99 -99999.99 -99999.99 -99999.99
12/31/2022 6:45:00 PM -99999.99 -179968 -99999.99 -99999.99 -99999.99 -99999.99
12/31/2022 7:00:00 PM -99999.99 -179968 -99999.99 -99999.99 -99999.99 -99999.99
12/31/2022 7:15:00 PM -99999.99 -179968 -99999.99 -99999.99 -99999.99 -99999.99
12/31/2022 7:30:00 PM -99999.99 -179968 -99999.99 -99999.99 -99999.99 -99999.99
12/31/2022 7:45:00 PM -99999.99 -179968 -99999.99 -99999.99 -99999.99 -99999.99
12/31/2022 8:00:00 PM -99999.99 -179968 -99999.99 -99999.99 -99999.99 -99999.99
12/31/2022 8:15:00 PM -99999.99 -179968 -99999.99 -99999.99 -99999.99 -99999.99
12/31/2022 8:30:00 PM -99999.99 -179968 -99999.99 -99999.99 -99999.99 -99999.99
12/31/2022 8:45:00 PM -99999.99 -179968 -99999.99 -99999.99 -99999.99 -99999.99
12/31/2022 9:00:00 PM -99999.99 -179968 -99999.99 -99999.99 -99999.99 -99999.99
12/31/2022 9:15:00 PM -99999.99 -179968 -99999.99 -99999.99 -99999.99 -99999.99
12/31/2022 9:30:00 PM -99999.99 -179968 -99999.99 -99999.99 -99999.99 -99999.99
12/31/2022 9:45:00 PM -99999.99 -179968 -99999.99 -99999.99 -99999.99 -99999.99
12/31/2022 10:00:00 PM -99999.99 -179968 -99999.99 -99999.99 -99999.99 -99999.99
12/31/2022 10:15:00 PM -99999.99 -179968 -99999.99 -99999.99 -99999.99 -99999.99
12/31/2022 10:30:00 PM -99999.99 -179968 -99999.99 -99999.99 -99999.99 -99999.99
12/31/2022 10:45:00 PM -99999.99 -179968 -99999.99 -99999.99 -99999.99 -99999.99
12/31/2022 11:00:00 PM -99999.99 -179968 -99999.99 -99999.99 -99999.99 -99999.99
12/31/2022 11:15:00 PM -99999.99 -179968 -99999.99 -99999.99 -99999.99 -99999.99
12/31/2022 11:30:00 PM -99999.99 -179968 -99999.99 -99999.99 -99999.99 -99999.99
12/31/2022 11:45:00 PM -99999.99 -179968 -99999.99 -99999.99 -99999.99 -99999.99
1/1/2023 12:00:00 AM -99999.99 -179968 -99999.99 -99999.99 -99999.99 -99999.99
1/1/2023 12:15:00 AM -99999.99 -179968 -99999.99 -99999.99 -99999.99 -99999.99
1/1/2023 12:30:00 AM -99999.99 -179968 -99999.99 -99999.99 -99999.99 -99999.99
1/1/2023 12:45:00 AM -99999.99 -179968 -99999.99 -99999.99 -99999.99 -99999.99
1/1/2023 1:00:00 AM -99999.99 -179968 -99999.99 -99999.99 -99999.99 -99999.99
1/1/2023 1:15:00 AM -99999.99 -179968 -99999.99 -99999.99 -99999.99 -99999.99
1/1/2023 1:30:00 AM -99999.99 -179968 -99999.99 -99999.99 -99999.99 -99999.99
1/1/2023 1:45:00 AM -99999.99 -179968 -99999.99 -99999.99 -99999.99 -99999.99
1/1/2023 2:00:00 AM -99999.99 -179968 -99999.99 -99999.99 -99999.99 -99999.99
1/1/2023 2:15:00 AM -99999.99 -179968 -99999.99 -99999.99 -99999.99 -99999.99
1/1/2023 2:30:00 AM -99999.99 -179968 -99999.99 -99999.99 -99999.99 -99999.99
1/1/2023 2:45:00 AM -99999.99 -179968 -99999.99 -99999.99 -99999.99 -99999.99
1/1/2023 3:00:00 AM -99999.99 -179968 -99999.99 -99999.99 -99999.99 -99999.99
1/1/2023 3:15:00 AM -99999.99 -179968 -99999.99 -99999.99 -99999.99 -99999.99
1/1/2023 3:30:00 AM -99999.99 -179968 -99999.99 -99999.99 -99999.99 -99999.99
1/1/2023 3:45:00 AM -99999.99 -179968 -99999.99 -99999.99 -99999.99 -99999.99
1/1/2023 4:00:00 AM -99999.99 -179968 -99999.99 -99999.99 -99999.99 -99999.99
1/1/2023 4:15:00 AM -99999.99 -179968 -99999.99 -99999.99 -99999.99 -99999.99
1/1/2023 4:30:00 AM -99999.99 -179968 -99999.99 -99999.99 -99999.99 -99999.99
1/1/2023 4:45:00 AM -99999.99 -179968 -99999.99 -99999.99 -99999.99 -99999.99
1/1/2023 5:00:00 AM -99999.99 -179968 -99999.99 -99999.99 -99999.99 -99999.99
1/1/2023 5:15:00 AM -99999.99 -179968 -99999.99 -99999.99 -99999.99 -99999.99
1/1/2023 5:30:00 AM -99999.99 -179968 -99999.99 -99999.99 -99999.99 -99999.99
1/1/2023 5:45:00 AM -99999.99 -179968 -99999.99 -99999.99 -99999.99 -99999.99
1/1/2023 6:00:00 AM -99999.99 -179968 -99999.99 -99999.99 -99999.99 -99999.99
1/1/2023 6:15:00 AM -99999.99 -179968 -99999.99 -99999.99 -99999.99 -99999.99
1/1/2023 6:30:00 AM -99999.99 -179968 -99999.99 -99999.99 -99999.99 -99999.99
1/1/2023 6:45:00 AM -99999.99 -179968 -99999.99 -99999.99 -99999.99 -99999.99
1/1/2023 7:00:00 AM -99999.99 -179968 -99999.99 -99999.99 -99999.99 -99999.99
1/1/2023 7:15:00 AM -99999.99 -179968 -99999.99 -99999.99 -99999.99 -99999.99
1/1/2023 7:30:00 AM -99999.99 -179968 -99999.99 -99999.99 -99999.99 -99999.99
1/1/2023 7:45:00 AM -99999.99 -179968 -99999.99 -99999.99 -99999.99 -99999.99
1/1/2023 8:00:00 AM -99999.99 -179968 -99999.99 -99999.99 -99999.99 -99999.99
1/1/2023 8:15:00 AM -99999.99 -179968 -99999.99 -99999.99 -99999.99 -99999.99
1/1/2023 8:30:00 AM -99999.99 -179968 -99999.99 -99999.99 -99999.99 -99999.99
1/1/2023 8:45:00 AM -99999.99 -179968 -99999.99 -99999.99 -99999.99 -99999.99
1/1/2023 9:00:00 AM -99999.99 -179968 -99999.99 -99999.99 -99999.99 -99999.99
1/1/2023 9:15:00 AM -99999.99 -179968 -99999.99 -99999.99 -99999.99 -99999.99
1/1/2023 9:30:00 AM -99999.99 -179968 -99999.99 -99999.99 -99999.99 -99999.99
1/1/2023 9:45:00 AM -99999.99 -179968 -99999.99 -99999.99 -99999.99 -99999.99
1/1/2023 10:00:00 AM -99999.99 -179968 -99999.99 -99999.99 -99999.99 -99999.99
1/1/2023 10:15:00 AM -99999.99 -179968 -99999.99 -99999.99 -99999.99 -99999.99
1/1/2023 10:30:00 AM -99999.99 -179968 -99999.99 -99999.99 -99999.99 -99999.99
1/1/2023 10:45:00 AM -99999.99 -179968 -99999.99 -99999.99 -99999.99 -99999.99
1/1/2023 11:00:00 AM -99999.99 -179968 -99999.99 -99999.99 -99999.99 -99999.99
1/1/2023 11:15:00 AM -99999.99 -179968 -99999.99 -99999.99 -99999.99 -99999.99
1/1/2023 11:30:00 AM -99999.99 -179968 -99999.99 -99999.99 -99999.99 -99999.99
1/1/2023 11:45:00 AM -99999.99 -179968 -99999.99 -99999.99 -99999.99 -99999.99
1/1/2023 12:00:00 PM -99999.99 -179968 -99999.99 -99999.99 -99999.99 -99999.99
1/1/2023 12:15:00 PM -99999.99 -179968 -99999.99 -99999.99 -99999.99 -99999.99
1/1/2023 12:30:00 PM -99999.99 -179968 -99999.99 -99999.99 -99999.99 -99999.99
1/1/2023 12:45:00 PM -99999.99 -179968 -99999.99 -99999.99 -99999.99 -99999.99
1/1/2023 1:00:00 PM -99999.99 -179968 -99999.99 -99999.99 -99999.99 -99999.99
1/1/2023 1:15:00 PM -99999.99 -179968 -99999.99 -99999.99 -99999.99 -99999.99
1/1/2023 1:30:00 PM -99999.99 -179968 -99999.99 -99999.99 -99999.99 -99999.99
1/1/2023 1:45:00 PM -99999.99 -179968 -99999.99 -99999.99 -99999.99 -99999.99
1/1/2023 2:00:00 PM -99999.99 -179968 -99999.99 -99999.99 -99999.99 -99999.99
1/1/2023 2:15:00 PM -99999.99 -179968 -99999.99 -99999.99 -99999.99 -99999.99
1/1/2023 2:30:00 PM -99999.99 -179968 -99999.99 -99999.99 -99999.99 -99999.99
1/1/2023 2:45:00 PM -99999.99 -179968 -99999.99 -99999.99 -99999.99 -99999.99
1/1/2023 3:00:00 PM -99999.99 -179968 -99999.99 -99999.99 -99999.99 -99999.99
1/1/2023 3:15:00 PM -99999.99 -179968 -99999.99 -99999.99 -99999.99 -99999.99
1/1/2023 3:30:00 PM -99999.99 -179968 -99999.99 -99999.99 -99999.99 -99999.99
1/1/2023 3:45:00 PM -99999.99 -179968 -99999.99 -99999.99 -99999.99 -99999.99
1/1/2023 4:00:00 PM -99999.99 -179968 -99999.99 -99999.99 -99999.99 -99999.99
1/1/2023 4:15:00 PM -99999.99 -179968 -99999.99 -99999.99 -99999.99 -99999.99
1/1/2023 4:30:00 PM -99999.99 -179968 -99999.99 -99999.99 -99999.99 -99999.99
1/1/2023 4:45:00 PM -99999.99 -179968 -99999.99 -99999.99 -99999.99 -99999.99
1/1/2023 5:00:00 PM -99999.99 -179968 -99999.99 -99999.99 -99999.99 -99999.99
1/1/2023 5:15:00 PM -99999.99 -179968 -99999.99 -99999.99 -99999.99 -99999.99
1/1/2023 5:30:00 PM -99999.99 -179968 -99999.99 -99999.99 -99999.99 -99999.99
1/1/2023 5:45:00 PM -99999.99 -179968 -99999.99 -99999.99 -99999.99 -99999.99
1/1/2023 6:00:00 PM -99999.99 -179968 -99999.99 -99999.99 -99999.99 -99999.99
1/1/2023 6:15:00 PM -99999.99 -179968 -99999.99 -99999.99 -99999.99 -99999.99
1/1/2023 6:30:00 PM -99999.99 -179968 -99999.99 -99999.99 -99999.99 -99999.99
1/1/2023 6:45:00 PM -99999.99 -179968 -99999.99 -99999.99 -99999.99 -99999.99
1/1/2023 7:00:00 PM -99999.99 -179968 -99999.99 -99999.99 -99999.99 -99999.99
1/1/2023 7:15:00 PM -99999.99 -179968 -99999.99 -99999.99 -99999.99 -99999.99
1/1/2023 7:30:00 PM -99999.99 -179968 -99999.99 -99999.99 -99999.99 -99999.99
1/1/2023 7:45:00 PM -99999.99 -179968 -99999.99 -99999.99 -99999.99 -99999.99
1/1/2023 8:00:00 PM -99999.99 -179968 -99999.99 -99999.99 -99999.99 -99999.99
1/1/2023 8:15:00 PM -99999.99 -179968 -99999.99 -99999.99 -99999.99 -99999.99
1/1/2023 8:30:00 PM -99999.99 -179968 -99999.99 -99999.99 -99999.99 -99999.99
1/1/2023 8:45:00 PM -99999.99 -179968 -99999.99 -99999.99 -99999.99 -99999.99
1/1/2023 9:00:00 PM -99999.99 -179968 -99999.99 -99999.99 -99999.99 -99999.99
1/1/2023 9:15:00 PM -99999.99 -179968 -99999.99 -99999.99 -99999.99 -99999.99
1/1/2023 9:30:00 PM -99999.99 -179968 -99999.99 -99999.99 -99999.99 -99999.99
1/1/2023 9:45:00 PM -99999.99 -179968 -99999.99 -99999.99 -99999.99 -99999.99
1/1/2023 10:00:00 PM -99999.99 -179968 -99999.99 -99999.99 -99999.99 -99999.99
1/1/2023 10:15:00 PM -99999.99 -179968 -99999.99 -99999.99 -99999.99 -99999.99
1/1/2023 10:30:00 PM -99999.99 -179968 -99999.99 -99999.99 -99999.99 -99999.99
1/1/2023 10:45:00 PM -99999.99 -179968 -99999.99 -99999.99 -99999.99 -99999.99
1/1/2023 11:00:00 PM -99999.99 -179968 -99999.99 -99999.99 -99999.99 -99999.99
1/1/2023 11:15:00 PM -99999.99 -179968 -99999.99 -99999.99 -99999.99 -99999.99
1/1/2023 11:30:00 PM -99999.99 -179968 -99999.99 -99999.99 -99999.99 -99999.99
1/1/2023 11:45:00 PM -99999.99 -179968 -99999.99 -99999.99 -99999.99 -99999.99
1/2/2023 12:00:00 AM -99999.99 -179968 -99999.99 -99999.99 -99999.99 -99999.99
1/2/2023 12:15:00 AM -99999.99 -179968 -99999.99 -99999.99 -99999.99 -99999.99
1/2/2023 12:30:00 AM -99999.99 -179968 -99999.99 -99999.99 -99999.99 -99999.99
1/2/2023 12:45:00 AM -99999.99 -179968 -99999.99 -99999.99 -99999.99 -99999.99
1/2/2023 1:00:00 AM -99999.99 -179968 -99999.99 -99999.99 -99999.99 -99999.99
1/2/2023 1:15:00 AM -99999.99 -179968 -99999.99 -99999.99 -99999.99 -99999.99
1/2/2023 1:30:00 AM -99999.99 -179968 -99999.99 -99999.99 -99999.99 -99999.99
1/2/2023 1:45:00 AM -99999.99 -179968 -99999.99 -99999.99 -99999.99 -99999.99
1/2/2023 2:00:00 AM -99999.99 -179968 -99999.99 -99999.99 -99999.99 -99999.99
1/2/2023 2:15:00 AM -99999.99 -179968 -99999.99 -99999.99 -99999.99 -99999.99
1/2/2023 2:30:00 AM -99999.99 -179968 -99999.99 -99999.99 -99999.99 -99999.99
1/2/2023 2:45:00 AM -99999.99 -179968 -99999.99 -99999.99 -99999.99 -99999.99
1/2/2023 3:00:00 AM -99999.99 -179968 -99999.99 -99999.99 -99999.99 -99999.99
1/2/2023 3:15:00 AM -99999.99 -179968 -99999.99 -99999.99 -99999.99 -99999.99
1/2/2023 3:30:00 AM -99999.99 -179968 -99999.99 -99999.99 -99999.99 -99999.99
1/2/2023 3:45:00 AM -99999.99 -179968 -99999.99 -99999.99 -99999.99 -99999.99
1/2/2023 4:00:00 AM -99999.99 -179968 -99999.99 -99999.99 -99999.99 -99999.99
1/2/2023 4:15:00 AM -99999.99 -179968 -99999.99 -99999.99 -99999.99 -99999.99
1/2/2023 4:30:00 AM -99999.99 -179968 -99999.99 -99999.99 -99999.99 -99999.99
1/2/2023 4:45:00 AM -99999.99 -179968 -99999.99 -99999.99 -99999.99 -99999.99
1/2/2023 5:00:00 AM -99999.99 -179968 -99999.99 -99999.99 -99999.99 -99999.99
1/2/2023 5:15:00 AM -99999.99 -179968 -99999.99 -99999.99 -99999.99 -99999.99
1/2/2023 5:30:00 AM -99999.99 -179968 -99999.99 -99999.99 -99999.99 -99999.99
1/2/2023 5:45:00 AM -99999.99 -179968 -99999.99 -99999.99 -99999.99 -99999.99
1/2/2023 6:00:00 AM -99999.99 -179968 -99999.99 -99999.99 -99999.99 -99999.99
1/2/2023 6:15:00 AM -99999.99 -179968 -99999.99 -99999.99 -99999.99 -99999.99
1/2/2023 6:30:00 AM -99999.99 -179968 -99999.99 -99999.99 -99999.99 -99999.99
1/2/2023 6:45:00 AM -99999.99 -179968 -99999.99 -99999.99 -99999.99 -99999.99
1/2/2023 7:00:00 AM -99999.99 -179968 -99999.99 -99999.99 -99999.99 -99999.99
1/2/2023 7:15:00 AM -99999.99 -179968 -99999.99 -99999.99 -99999.99 -99999.99
1/2/2023 7:30:00 AM -99999.99 -179968 -99999.99 -99999.99 -99999.99 -99999.99
1/2/2023 7:45:00 AM -99999.99 -179968 -99999.99 -99999.99 -99999.99 -99999.99
1/2/2023 8:00:00 AM -99999.99 -179968 -99999.99 -99999.99 -99999.99 -99999.99
1/2/2023 8:15:00 AM -99999.99 -179968 -99999.99 -99999.99 -99999.99 -99999.99
1/2/2023 8:30:00 AM -99999.99 -179968 -99999.99 -99999.99 -99999.99 -99999.99
1/2/2023 8:45:00 AM -99999.99 -179968 -99999.99 -99999.99 -99999.99 -99999.99
1/2/2023 9:00:00 AM -99999.99 -179968 -99999.99 -99999.99 -99999.99 -99999.99
1/2/2023 9:15:00 AM -99999.99 -179968 -99999.99 -99999.99 -99999.99 -99999.99
1/2/2023 9:30:00 AM -99999.99 -179968 -99999.99 -99999.99 -99999.99 -99999.99
1/2/2023 9:45:00 AM -99999.99 -179968 -99999.99 -99999.99 -99999.99 -99999.99
1/2/2023 10:00:00 AM -99999.99 -179968 -99999.99 -99999.99 -99999.99 -99999.99
1/2/2023 10:15:00 AM -99999.99 -179968 -99999.99 -99999.99 -99999.99 -99999.99
1/2/2023 10:30:00 AM -99999.99 -179968 -99999.99 -99999.99 -99999.99 -99999.99
1/2/2023 10:45:00 AM -99999.99 -179968 -99999.99 -99999.99 -99999.99 -99999.99
1/2/2023 11:00:00 AM -99999.99 -179968 -99999.99 -99999.99 -99999.99 -99999.99
1/2/2023 11:15:00 AM -99999.99 -179968 -99999.99 -99999.99 -99999.99 -99999.99
1/2/2023 11:30:00 AM -99999.99 -179968 -99999.99 -99999.99 -99999.99 -99999.99
1/2/2023 11:45:00 AM -99999.99 -179968 -99999.99 -99999.99 -99999.99 -99999.99
1/2/2023 12:00:00 PM -99999.99 -179968 -99999.99 -99999.99 -99999.99 -99999.99
1/2/2023 12:15:00 PM -99999.99 -179968 -99999.99 -99999.99 -99999.99 -99999.99
1/2/2023 12:30:00 PM -99999.99 -179968 -99999.99 -99999.99 -99999.99 -99999.99
1/2/2023 12:45:00 PM -99999.99 -179968 -99999.99 -99999.99 -99999.99 -99999.99
1/2/2023 1:00:00 PM -99999.99 -179968 -99999.99 -99999.99 -99999.99 -99999.99
1/2/2023 1:15:00 PM -99999.99 -179968 -99999.99 -99999.99 -99999.99 -99999.99
1/2/2023 1:30:00 PM -99999.99 -179968 -99999.99 -99999.99 -99999.99 -99999.99
1/2/2023 1:45:00 PM -99999.99 -179968 -99999.99 -99999.99 -99999.99 -99999.99
1/2/2023 2:00:00 PM -99999.99 -179968 -99999.99 -99999.99 -99999.99 -99999.99
1/2/2023 2:15:00 PM -99999.99 -179968 -99999.99 -99999.99 -99999.99 -99999.99
1/2/2023 2:30:00 PM -99999.99 -179968 -99999.99 -99999.99 -99999.99 -99999.99
1/2/2023 2:45:00 PM -99999.99 -179968 -99999.99 -99999.99 -99999.99 -99999.99
1/2/2023 3:00:00 PM -99999.99 -179968 -99999.99 -99999.99 -99999.99 -99999.99
1/2/2023 3:15:00 PM -99999.99 -179968 -99999.99 -99999.99 -99999.99 -99999.99
1/2/2023 3:30:00 PM -99999.99 -179968 -99999.99 -99999.99 -99999.99 -99999.99
1/2/2023 3:45:00 PM -99999.99 -179968 -99999.99 -99999.99 -99999.99 -99999.99
1/2/2023 4:00:00 PM -99999.99 -179968 -99999.99 -99999.99 -99999.99 -99999.99
1/2/2023 4:15:00 PM -99999.99 -179968 -99999.99 -99999.99 -99999.99 -99999.99
1/2/2023 4:30:00 PM -99999.99 -179968 -99999.99 -99999.99 -99999.99 -99999.99
1/2/2023 4:45:00 PM -99999.99 -179968 -99999.99 -99999.99 -99999.99 -99999.99
1/2/2023 5:00:00 PM -99999.99 -179968 -99999.99 -99999.99 -99999.99 -99999.99
1/2/2023 5:15:00 PM -99999.99 -179968 -99999.99 -99999.99 -99999.99 -99999.99
1/2/2023 5:30:00 PM -99999.99 -179968 -99999.99 -99999.99 -99999.99 -99999.99
1/2/2023 5:45:00 PM -99999.99 -179968 -99999.99 -99999.99 -99999.99 -99999.99
1/2/2023 6:00:00 PM -99999.99 -179968 -99999.99 -99999.99 -99999.99 -99999.99
1/2/2023 6:15:00 PM -99999.99 -179968 -99999.99 -99999.99 -99999.99 -99999.99
1/2/2023 6:30:00 PM -99999.99 -179968 -99999.99 -99999.99 -99999.99 -99999.99
1/2/2023 6:45:00 PM -99999.99 -179968 -99999.99 -99999.99 -99999.99 -99999.99
1/2/2023 7:00:00 PM -99999.99 -179968 -99999.99 -99999.99 -99999.99 -99999.99
1/2/2023 7:15:00 PM -99999.99 -179968 -99999.99 -99999.99 -99999.99 -99999.99
1/2/2023 7:30:00 PM -99999.99 -179968 -99999.99 -99999.99 -99999.99 -99999.99
1/2/2023 7:45:00 PM -99999.99 -179968 -99999.99 -99999.99 -99999.99 -99999.99
1/2/2023 8:00:00 PM -99999.99 -179968 -99999.99 -99999.99 -99999.99 -99999.99
1/2/2023 8:15:00 PM -99999.99 -179968 -99999.99 -99999.99 -99999.99 -99999.99
1/2/2023 8:30:00 PM -99999.99 -179968 -99999.99 -99999.99 -99999.99 -99999.99
1/2/2023 8:45:00 PM -99999.99 -179968 -99999.99 -99999.99 -99999.99 -99999.99
1/2/2023 9:00:00 PM -99999.99 -179968 -99999.99 -99999.99 -99999.99 -99999.99
1/2/2023 9:15:00 PM -99999.99 -179968 -99999.99 -99999.99 -99999.99 -99999.99
1/2/2023 9:30:00 PM -99999.99 -179968 -99999.99 -99999.99 -99999.99 -99999.99
1/2/2023 9:45:00 PM -99999.99 -179968 -99999.99 -99999.99 -99999.99 -99999.99
1/2/2023 10:00:00 PM -99999.99 -179968 -99999.99 -99999.99 -99999.99 -99999.99
1/2/2023 10:15:00 PM -99999.99 -179968 -99999.99 -99999.99 -99999.99 -99999.99
1/2/2023 10:30:00 PM -99999.99 -179968 -99999.99 -99999.99 -99999.99 -99999.99
1/2/2023 10:45:00 PM -99999.99 -179968 -99999.99 -99999.99 -99999.99 -99999.99
1/2/2023 11:00:00 PM -99999.99 -179968 -99999.99 -99999.99 -99999.99 -99999.99
1/2/2023 11:15:00 PM -99999.99 -179968 -99999.99 -99999.99 -99999.99 -99999.99
1/2/2023 11:30:00 PM -99999.99 -179968 -99999.99 -99999.99 -99999.99 -99999.99
1/2/2023 11:45:00 PM -99999.99 -179968 -99999.99 -99999.99 -99999.99 -99999.99
1/3/2023 12:00:00 AM -99999.99 -179968 -99999.99 -99999.99 -99999.99 -99999.99
1/3/2023 12:15:00 AM -99999.99 -179968 -99999.99 -99999.99 -99999.99 -99999.99
1/3/2023 12:30:00 AM -99999.99 -179968 -99999.99 -99999.99 -99999.99 -99999.99
1/3/2023 12:45:00 AM -99999.99 -179968 -99999.99 -99999.99 -99999.99 -99999.99
1/3/2023 1:00:00 AM -99999.99 -179968 -99999.99 -99999.99 -99999.99 -99999.99
1/3/2023 1:15:00 AM -99999.99 -179968 -99999.99 -99999.99 -99999.99 -99999.99
1/3/2023 1:30:00 AM -99999.99 -179968 -99999.99 -99999.99 -99999.99 -99999.99
1/3/2023 1:45:00 AM -99999.99 -179968 -99999.99 -99999.99 -99999.99 -99999.99
1/3/2023 2:00:00 AM -99999.99 -179968 -99999.99 -99999.99 -99999.99 -99999.99
1/3/2023 2:15:00 AM -99999.99 -179968 -99999.99 -99999.99 -99999.99 -99999.99
1/3/2023 2:30:00 AM -99999.99 -179968 -99999.99 -99999.99 -99999.99 -99999.99
1/3/2023 2:45:00 AM -99999.99 -179968 -99999.99 -99999.99 -99999.99 -99999.99
1/3/2023 3:00:00 AM -99999.99 -179968 -99999.99 -99999.99 -99999.99 -99999.99
1/3/2023 3:15:00 AM -99999.99 -179968 -99999.99 -99999.99 -99999.99 -99999.99
1/3/2023 3:30:00 AM -99999.99 -179968 -99999.99 -99999.99 -99999.99 -99999.99
1/3/2023 3:45:00 AM -99999.99 -179968 -99999.99 -99999.99 -99999.99 -99999.99
1/3/2023 4:00:00 AM -99999.99 -179968 -99999.99 -99999.99 -99999.99 -99999.99
1/3/2023 4:15:00 AM -99999.99 -179968 -99999.99 -99999.99 -99999.99 -99999.99
1/3/2023 4:30:00 AM -99999.99 -179968 -99999.99 -99999.99 -99999.99 -99999.99
1/3/2023 4:45:00 AM -99999.99 -179968 -99999.99 -99999.99 -99999.99 -99999.99
1/3/2023 5:00:00 AM -99999.99 -179968 -99999.99 -99999.99 -99999.99 -99999.99
1/3/2023 5:15:00 AM -99999.99 -179968 -99999.99 -99999.99 -99999.99 -99999.99
1/3/2023 5:30:00 AM -99999.99 -179968 -99999.99 -99999.99 -99999.99 -99999.99
1/3/2023 5:45:00 AM -99999.99 -179968 -99999.99 -99999.99 -99999.99 -99999.99
1/3/2023 6:00:00 AM -99999.99 -179968 -99999.99 -99999.99 -99999.99 -99999.99
1/3/2023 6:15:00 AM -99999.99 -179968 -99999.99 -99999.99 -99999.99 -99999.99
1/3/2023 6:30:00 AM -99999.99 -179968 -99999.99 -99999.99 -99999.99 -99999.99
1/3/2023 6:45:00 AM -99999.99 -179968 -99999.99 -99999.99 -99999.99 -99999.99
1/3/2023 7:00:00 AM -99999.99 -179968 -99999.99 -99999.99 -99999.99 -99999.99
1/3/2023 7:15:00 AM -99999.99 -179968 -99999.99 -99999.99 -99999.99 -99999.99
1/3/2023 7:30:00 AM -99999.99 -179968 -99999.99 -99999.99 -99999.99 -99999.99
1/3/2023 7:45:00 AM -99999.99 -179968 -99999.99 -99999.99 -99999.99 -99999.99
1/3/2023 8:00:00 AM -99999.99 -179968 -99999.99 -99999.99 -99999.99 -99999.99
1/3/2023 8:15:00 AM -99999.99 -179968 -99999.99 -99999.99 -99999.99 -99999.99
1/3/2023 8:30:00 AM -99999.99 -179968 -99999.99 -99999.99 -99999.99 -99999.99
1/3/2023 8:45:00 AM -99999.99 -179968 -99999.99 -99999.99 -99999.99 -99999.99
1/3/2023 9:00:00 AM -99999.99 -179968 -99999.99 -99999.99 -99999.99 -99999.99
1/3/2023 9:15:00 AM -99999.99 -179968 -99999.99 -99999.99 -99999.99 -99999.99
1/3/2023 9:30:00 AM -99999.99 -179968 -99999.99 -99999.99 -99999.99 -99999.99
1/3/2023 9:45:00 AM -99999.99 -179968 -99999.99 -99999.99 -99999.99 -99999.99
1/3/2023 10:00:00 AM -99999.99 -179968 -99999.99 -99999.99 -99999.99 -99999.99
1/3/2023 10:15:00 AM -99999.99 -179968 -99999.99 -99999.99 -99999.99 -99999.99
1/3/2023 10:30:00 AM -99999.99 -179968 -99999.99 -99999.99 -99999.99 -99999.99
1/3/2023 10:45:00 AM -99999.99 -179968 -99999.99 -99999.99 -99999.99 -99999.99
1/3/2023 11:00:00 AM -99999.99 -179968 -99999.99 -99999.99 -99999.99 -99999.99
1/3/2023 11:15:00 AM -99999.99 -179968 -99999.99 -99999.99 -99999.99 -99999.99
1/3/2023 11:30:00 AM -99999.99 -179968 -99999.99 -99999.99 -99999.99 -99999.99
1/3/2023 11:45:00 AM -99999.99 -179968 -99999.99 -99999.99 -99999.99 -99999.99
1/3/2023 12:00:00 PM -99999.99 -179968 -99999.99 -99999.99 -99999.99 -99999.99
1/3/2023 12:15:00 PM -99999.99 -179968 -99999.99 -99999.99 -99999.99 -99999.99
1/3/2023 12:30:00 PM -99999.99 -179968 -99999.99 -99999.99 -99999.99 -99999.99
1/3/2023 12:45:00 PM -99999.99 -179968 -99999.99 -99999.99 -99999.99 -99999.99
1/3/2023 1:00:00 PM -99999.99 -179968 -99999.99 -99999.99 -99999.99 -99999.99
1/3/2023 1:15:00 PM -99999.99 -179968 -99999.99 -99999.99 -99999.99 -99999.99
1/3/2023 1:30:00 PM -99999.99 -179968 -99999.99 -99999.99 -99999.99 -99999.99
1/3/2023 1:45:00 PM -99999.99 -179968 -99999.99 -99999.99 -99999.99 -99999.99
1/3/2023 2:00:00 PM -99999.99 -179968 -99999.99 -99999.99 -99999.99 -99999.99
1/3/2023 2:15:00 PM -99999.99 -179968 -99999.99 -99999.99 -99999.99 -99999.99
1/3/2023 2:30:00 PM -99999.99 -179968 -99999.99 -99999.99 -99999.99 -99999.99
1/3/2023 2:45:00 PM -99999.99 -179968 -99999.99 -99999.99 -99999.99 -99999.99
1/3/2023 3:00:00 PM -99999.99 -179968 -99999.99 -99999.99 -99999.99 -99999.99
1/3/2023 3:15:00 PM -99999.99 -179968 -99999.99 -99999.99 -99999.99 -99999.99
1/3/2023 3:30:00 PM -99999.99 -179968 -99999.99 -99999.99 -99999.99 -99999.99
1/3/2023 3:45:00 PM -99999.99 -179968 -99999.99 -99999.99 -99999.99 -99999.99
1/3/2023 4:00:00 PM -99999.99 -179968 -99999.99 -99999.99 -99999.99 -99999.99
1/3/2023 4:15:00 PM -99999.99 -179968 -99999.99 -99999.99 -99999.99 -99999.99
1/3/2023 4:30:00 PM -99999.99 -179968 -99999.99 -99999.99 -99999.99 -99999.99
1/3/2023 4:45:00 PM -99999.99 -179968 -99999.99 -99999.99 -99999.99 -99999.99
1/3/2023 5:00:00 PM -99999.99 -179968 -99999.99 -99999.99 -99999.99 -99999.99
1/3/2023 5:15:00 PM -99999.99 -179968 -99999.99 -99999.99 -99999.99 -99999.99
1/3/2023 5:30:00 PM -99999.99 -179968 -99999.99 -99999.99 -99999.99 -99999.99
1/3/2023 5:45:00 PM -99999.99 -179968 -99999.99 -99999.99 -99999.99 -99999.99
1/3/2023 6:00:00 PM -99999.99 -179968 -99999.99 -99999.99 -99999.99 -99999.99
1/3/2023 6:15:00 PM -99999.99 -179968 -99999.99 -99999.99 -99999.99 -99999.99
1/3/2023 6:30:00 PM -99999.99 -179968 -99999.99 -99999.99 -99999.99 -99999.99
1/3/2023 6:45:00 PM -99999.99 -179968 -99999.99 -99999.99 -99999.99 -99999.99
1/3/2023 7:00:00 PM -99999.99 -179968 -99999.99 -99999.99 -99999.99 -99999.99
1/3/2023 7:15:00 PM -99999.99 -179968 -99999.99 -99999.99 -99999.99 -99999.99
1/3/2023 7:30:00 PM -99999.99 -179968 -99999.99 -99999.99 -99999.99 -99999.99
1/3/2023 7:45:00 PM -99999.99 -179968 -99999.99 -99999.99 -99999.99 -99999.99
1/3/2023 8:00:00 PM -99999.99 -179968 -99999.99 -99999.99 -99999.99 -99999.99
1/3/2023 8:15:00 PM -99999.99 -179968 -99999.99 -99999.99 -99999.99 -99999.99
1/3/2023 8:30:00 PM -99999.99 -179968 -99999.99 -99999.99 -99999.99 -99999.99
1/3/2023 8:45:00 PM -99999.99 -179968 -99999.99 -99999.99 -99999.99 -99999.99
1/3/2023 9:00:00 PM -99999.99 -179968 -99999.99 -99999.99 -99999.99 -99999.99
1/3/2023 9:15:00 PM -99999.99 -179968 -99999.99 -99999.99 -99999.99 -99999.99
1/3/2023 9:30:00 PM -99999.99 -179968 -99999.99 -99999.99 -99999.99 -99999.99
1/3/2023 9:45:00 PM -99999.99 -179968 -99999.99 -99999.99 -99999.99 -99999.99
1/3/2023 10:00:00 PM -99999.99 -179968 -99999.99 -99999.99 -99999.99 -99999.99
1/3/2023 10:15:00 PM -99999.99 -179968 -99999.99 -99999.99 -99999.99 -99999.99
1/3/2023 10:30:00 PM -99999.99 -179968 -99999.99 -99999.99 -99999.99 -99999.99
1/3/2023 10:45:00 PM -99999.99 -179968 -99999.99 -99999.99 -99999.99 -99999.99
1/3/2023 11:00:00 PM -99999.99 -179968 -99999.99 -99999.99 -99999.99 -99999.99
1/3/2023 11:15:00 PM -99999.99 -179968 -99999.99 -99999.99 -99999.99 -99999.99
1/3/2023 11:30:00 PM -99999.99 -179968 -99999.99 -99999.99 -99999.99 -99999.99
1/3/2023 11:45:00 PM -99999.99 -179968 -99999.99 -99999.99 -99999.99 -99999.99
1/4/2023 12:00:00 AM -99999.99 -179968 -99999.99 -99999.99 -99999.99 -99999.99
1/4/2023 12:15:00 AM -99999.99 -179968 -99999.99 -99999.99 -99999.99 -99999.99
1/4/2023 12:30:00 AM -99999.99 -179968 -99999.99 -99999.99 -99999.99 -99999.99
1/4/2023 12:45:00 AM -99999.99 -179968 -99999.99 -99999.99 -99999.99 -99999.99
1/4/2023 1:00:00 AM -99999.99 -179968 -99999.99 -99999.99 -99999.99 -99999.99
1/4/2023 1:15:00 AM -99999.99 -179968 -99999.99 -99999.99 -99999.99 -99999.99
1/4/2023 1:30:00 AM -99999.99 -179968 -99999.99 -99999.99 -99999.99 -99999.99
1/4/2023 1:45:00 AM -99999.99 -179968 -99999.99 -99999.99 -99999.99 -99999.99
1/4/2023 2:00:00 AM -99999.99 -179968 -99999.99 -99999.99 -99999.99 -99999.99
1/4/2023 2:15:00 AM -99999.99 -179968 -99999.99 -99999.99 -99999.99 -99999.99
1/4/2023 2:30:00 AM -99999.99 -179968 -99999.99 -99999.99 -99999.99 -99999.99
1/4/2023 2:45:00 AM -99999.99 -179968 -99999.99 -99999.99 -99999.99 -99999.99
1/4/2023 3:00:00 AM -99999.99 -179968 -99999.99 -99999.99 -99999.99 -99999.99
1/4/2023 3:15:00 AM -99999.99 -179968 -99999.99 -99999.99 -99999.99 -99999.99
1/4/2023 3:30:00 AM -99999.99 -179968 -99999.99 -99999.99 -99999.99 -99999.99
1/4/2023 3:45:00 AM -99999.99 -179968 -99999.99 -99999.99 -99999.99 -99999.99
1/4/2023 4:00:00 AM -99999.99 -179968 -99999.99 -99999.99 -99999.99 -99999.99
1/4/2023 4:15:00 AM -99999.99 -179968 -99999.99 -99999.99 -99999.99 -99999.99
1/4/2023 4:30:00 AM -99999.99 -179968 -99999.99 -99999.99 -99999.99 -99999.99
1/4/2023 4:45:00 AM -99999.99 -179968 -99999.99 -99999.99 -99999.99 -99999.99
1/4/2023 5:00:00 AM -99999.99 -179968 -99999.99 -99999.99 -99999.99 -99999.99
1/4/2023 5:15:00 AM -99999.99 -179968 -99999.99 -99999.99 -99999.99 -99999.99
1/4/2023 5:30:00 AM -99999.99 -179968 -99999.99 -99999.99 -99999.99 -99999.99
1/4/2023 5:45:00 AM -99999.99 -179968 -99999.99 -99999.99 -99999.99 -99999.99
1/4/2023 6:00:00 AM -99999.99 -179968 -99999.99 -99999.99 -99999.99 -99999.99
1/4/2023 6:15:00 AM -99999.99 -179968 -99999.99 -99999.99 -99999.99 -99999.99
1/4/2023 6:30:00 AM -99999.99 -179968 -99999.99 -99999.99 -99999.99 -99999.99
1/4/2023 6:45:00 AM -99999.99 -179968 -99999.99 -99999.99 -99999.99 -99999.99
1/4/2023 7:00:00 AM -99999.99 -179968 -99999.99 -99999.99 -99999.99 -99999.99
1/4/2023 7:15:00 AM -99999.99 -179968 -99999.99 -99999.99 -99999.99 -99999.99
1/4/2023 7:30:00 AM -99999.99 -179968 -99999.99 -99999.99 -99999.99 -99999.99
1/4/2023 7:45:00 AM -99999.99 -179968 -99999.99 -99999.99 -99999.99 -99999.99
1/4/2023 8:00:00 AM -99999.99 -179968 -99999.99 -99999.99 -99999.99 -99999.99
1/4/2023 8:15:00 AM -99999.99 -179968 -99999.99 -99999.99 -99999.99 -99999.99
1/4/2023 8:30:00 AM -99999.99 -179968 -99999.99 -99999.99 -99999.99 -99999.99
1/4/2023 8:45:00 AM -99999.99 -179968 -99999.99 -99999.99 -99999.99 -99999.99
1/4/2023 9:00:00 AM -99999.99 -179968 -99999.99 -99999.99 -99999.99 -99999.99
1/4/2023 9:15:00 AM -99999.99 -179968 -99999.99 -99999.99 -99999.99 -99999.99
1/4/2023 9:30:00 AM -99999.99 -179968 -99999.99 -99999.99 -99999.99 -99999.99
1/4/2023 9:45:00 AM -99999.99 -179968 -99999.99 -99999.99 -99999.99 -99999.99
1/4/2023 10:00:00 AM -99999.99 -179968 -99999.99 -99999.99 -99999.99 -99999.99
1/4/2023 10:15:00 AM -99999.99 -179968 -99999.99 -99999.99 -99999.99 -99999.99
1/4/2023 10:30:00 AM -99999.99 -179968 -99999.99 -99999.99 -99999.99 -99999.99
1/4/2023 10:45:00 AM -99999.99 -179968 -99999.99 -99999.99 -99999.99 -99999.99
1/4/2023 11:00:00 AM -99999.99 -179968 -99999.99 -99999.99 -99999.99 -99999.99
1/4/2023 11:15:00 AM -99999.99 -179968 -99999.99 -99999.99 -99999.99 -99999.99
1/4/2023 11:30:00 AM -99999.99 -179968 -99999.99 -99999.99 -99999.99 -99999.99
1/4/2023 11:45:00 AM -99999.99 -179968 -99999.99 -99999.99 -99999.99 -99999.99
1/4/2023 12:00:00 PM -99999.99 -179968 -99999.99 -99999.99 -99999.99 -99999.99
1/4/2023 12:15:00 PM -99999.99 -179968 -99999.99 -99999.99 -99999.99 -99999.99
1/4/2023 12:30:00 PM -99999.99 -179968 -99999.99 -99999.99 -99999.99 -99999.99
1/4/2023 12:45:00 PM -99999.99 -179968 -99999.99 -99999.99 -99999.99 -99999.99
1/4/2023 1:00:00 PM -99999.99 -179968 -99999.99 -99999.99 -99999.99 -99999.99
1/4/2023 1:15:00 PM -99999.99 -179968 -99999.99 -99999.99 -99999.99 -99999.99
1/4/2023 1:30:00 PM -99999.99 -179968 -99999.99 -99999.99 -99999.99 -99999.99
1/4/2023 1:45:00 PM -99999.99 -179968 -99999.99 -99999.99 -99999.99 -99999.99
1/4/2023 2:00:00 PM -99999.99 -179968 -99999.99 -99999.99 -99999.99 -99999.99
1/4/2023 2:15:00 PM -99999.99 -179968 -99999.99 -99999.99 -99999.99 -99999.99
1/4/2023 2:30:00 PM -99999.99 -179968 -99999.99 -99999.99 -99999.99 -99999.99
1/4/2023 2:45:00 PM -99999.99 -179968 -99999.99 -99999.99 -99999.99 -99999.99
1/4/2023 3:00:00 PM -99999.99 -179968 -99999.99 -99999.99 -99999.99 -99999.99
1/4/2023 3:15:00 PM -99999.99 -179968 -99999.99 -99999.99 -99999.99 -99999.99
1/4/2023 3:30:00 PM -99999.99 -179968 -99999.99 -99999.99 -99999.99 -99999.99
1/4/2023 3:45:00 PM -99999.99 -179968 -99999.99 -99999.99 -99999.99 -99999.99
1/4/2023 4:00:00 PM -99999.99 -179968 -99999.99 -99999.99 -99999.99 -99999.99
1/4/2023 4:15:00 PM -99999.99 -179968 -99999.99 -99999.99 -99999.99 -99999.99
1/4/2023 4:30:00 PM -99999.99 -179968 -99999.99 -99999.99 -99999.99 -99999.99
1/4/2023 4:45:00 PM -99999.99 -179968 -99999.99 -99999.99 -99999.99 -99999.99
1/4/2023 5:00:00 PM -99999.99 -179968 -99999.99 -99999.99 -99999.99 -99999.99
1/4/2023 5:15:00 PM -99999.99 -179968 -99999.99 -99999.99 -99999.99 -99999.99
1/4/2023 5:30:00 PM -99999.99 -179968 -99999.99 -99999.99 -99999.99 -99999.99
1/4/2023 5:45:00 PM -99999.99 -179968 -99999.99 -99999.99 -99999.99 -99999.99
1/4/2023 6:00:00 PM -99999.99 -179968 -99999.99 -99999.99 -99999.99 -99999.99
1/4/2023 6:15:00 PM -99999.99 -179968 -99999.99 -99999.99 -99999.99 -99999.99
1/4/2023 6:30:00 PM -99999.99 -179968 -99999.99 -99999.99 -99999.99 -99999.99
1/4/2023 6:45:00 PM -99999.99 -179968 -99999.99 -99999.99 -99999.99 -99999.99
1/4/2023 7:00:00 PM -99999.99 -179968 -99999.99 -99999.99 -99999.99 -99999.99
1/4/2023 7:15:00 PM -99999.99 -179968 -99999.99 -99999.99 -99999.99 -99999.99
1/4/2023 7:30:00 PM -99999.99 -179968 -99999.99 -99999.99 -99999.99 -99999.99
1/4/2023 7:45:00 PM -99999.99 -179968 -99999.99 -99999.99 -99999.99 -99999.99
1/4/2023 8:00:00 PM -99999.99 -179968 -99999.99 -99999.99 -99999.99 -99999.99
1/4/2023 8:15:00 PM -99999.99 -179968 -99999.99 -99999.99 -99999.99 -99999.99
1/4/2023 8:30:00 PM -99999.99 -179968 -99999.99 -99999.99 -99999.99 -99999.99
1/4/2023 8:45:00 PM -99999.99 -179968 -99999.99 -99999.99 -99999.99 -99999.99
1/4/2023 9:00:00 PM -99999.99 -179968 -99999.99 -99999.99 -99999.99 -99999.99
1/4/2023 9:15:00 PM -99999.99 -179968 -99999.99 -99999.99 -99999.99 -99999.99
1/4/2023 9:30:00 PM -99999.99 -179968 -99999.99 -99999.99 -99999.99 -99999.99
1/4/2023 9:45:00 PM -99999.99 -179968 -99999.99 -99999.99 -99999.99 -99999.99
1/4/2023 10:00:00 PM -99999.99 -179968 -99999.99 -99999.99 -99999.99 -99999.99
1/4/2023 10:15:00 PM -99999.99 -179968 -99999.99 -99999.99 -99999.99 -99999.99
1/4/2023 10:30:00 PM -99999.99 -179968 -99999.99 -99999.99 -99999.99 -99999.99
1/4/2023 10:45:00 PM -99999.99 -179968 -99999.99 -99999.99 -99999.99 -99999.99
1/4/2023 11:00:00 PM -99999.99 -179968 -99999.99 -99999.99 -99999.99 -99999.99
1/4/2023 11:15:00 PM -99999.99 -179968 -99999.99 -99999.99 -99999.99 -99999.99
1/4/2023 11:30:00 PM -99999.99 -179968 -99999.99 -99999.99 -99999.99 -99999.99
1/4/2023 11:45:00 PM -99999.99 -179968 -99999.99 -99999.99 -99999.99 -99999.99
1/5/2023 12:00:00 AM -99999.99 -179968 -99999.99 -99999.99 -99999.99 -99999.99
1/5/2023 12:15:00 AM -99999.99 -179968 -99999.99 -99999.99 -99999.99 -99999.99
1/5/2023 12:30:00 AM -99999.99 -179968 -99999.99 -99999.99 -99999.99 -99999.99
1/5/2023 12:45:00 AM -99999.99 -179968 -99999.99 -99999.99 -99999.99 -99999.99
1/5/2023 1:00:00 AM -99999.99 -179968 -99999.99 -99999.99 -99999.99 -99999.99
1/5/2023 1:15:00 AM -99999.99 -179968 -99999.99 -99999.99 -99999.99 -99999.99
1/5/2023 1:30:00 AM -99999.99 -179968 -99999.99 -99999.99 -99999.99 -99999.99
1/5/2023 1:45:00 AM -99999.99 -179968 -99999.99 -99999.99 -99999.99 -99999.99
1/5/2023 2:00:00 AM -99999.99 -179968 -99999.99 -99999.99 -99999.99 -99999.99
1/5/2023 2:15:00 AM -99999.99 -179968 -99999.99 -99999.99 -99999.99 -99999.99
1/5/2023 2:30:00 AM -99999.99 -179968 -99999.99 -99999.99 -99999.99 -99999.99
1/5/2023 2:45:00 AM -99999.99 -179968 -99999.99 -99999.99 -99999.99 -99999.99
1/5/2023 3:00:00 AM -99999.99 -179968 -99999.99 -99999.99 -99999.99 -99999.99
1/5/2023 3:15:00 AM -99999.99 -179968 -99999.99 -99999.99 -99999.99 -99999.99
1/5/2023 3:30:00 AM -99999.99 -179968 -99999.99 -99999.99 -99999.99 -99999.99
1/5/2023 3:45:00 AM -99999.99 -179968 -99999.99 -99999.99 -99999.99 -99999.99
1/5/2023 4:00:00 AM -99999.99 -179968 -99999.99 -99999.99 -99999.99 -99999.99
1/5/2023 4:15:00 AM -99999.99 -179968 -99999.99 -99999.99 -99999.99 -99999.99
1/5/2023 4:30:00 AM -99999.99 -179968 -99999.99 -99999.99 -99999.99 -99999.99
1/5/2023 4:45:00 AM -99999.99 -179968 -99999.99 -99999.99 -99999.99 -99999.99
1/5/2023 5:00:00 AM -99999.99 -179968 -99999.99 -99999.99 -99999.99 -99999.99
1/5/2023 5:15:00 AM -99999.99 -179968 -99999.99 -99999.99 -99999.99 -99999.99
1/5/2023 5:30:00 AM -99999.99 -179968 -99999.99 -99999.99 -99999.99 -99999.99
1/5/2023 5:45:00 AM -99999.99 -179968 -99999.99 -99999.99 -99999.99 -99999.99
1/5/2023 6:00:00 AM -99999.99 -179968 -99999.99 -99999.99 -99999.99 -99999.99
1/5/2023 6:15:00 AM -99999.99 -179968 -99999.99 -99999.99 -99999.99 -99999.99
1/5/2023 6:30:00 AM -99999.99 -179968 -99999.99 -99999.99 -99999.99 -99999.99
1/5/2023 6:45:00 AM -99999.99 -179968 -99999.99 -99999.99 -99999.99 -99999.99
1/5/2023 7:00:00 AM -99999.99 -179968 -99999.99 -99999.99 -99999.99 -99999.99
1/5/2023 7:15:00 AM -99999.99 -179968 -99999.99 -99999.99 -99999.99 -99999.99
1/5/2023 7:30:00 AM -99999.99 -179968 -99999.99 -99999.99 -99999.99 -99999.99
1/5/2023 7:45:00 AM -99999.99 -179968 -99999.99 -99999.99 -99999.99 -99999.99
1/5/2023 8:00:00 AM -99999.99 -179968 -99999.99 -99999.99 -99999.99 -99999.99
1/5/2023 8:15:00 AM -99999.99 -179968 -99999.99 -99999.99 -99999.99 -99999.99
1/5/2023 8:30:00 AM -99999.99 -179968 -99999.99 -99999.99 -99999.99 -99999.99
1/5/2023 8:45:00 AM -99999.99 -179968 -99999.99 -99999.99 -99999.99 -99999.99
1/5/2023 9:00:00 AM -99999.99 -179968 -99999.99 -99999.99 -99999.99 -99999.99
1/5/2023 9:15:00 AM -99999.99 -179968 -99999.99 -99999.99 -99999.99 -99999.99
1/5/2023 9:30:00 AM -99999.99 -179968 -99999.99 -99999.99 -99999.99 -99999.99
1/5/2023 9:45:00 AM -99999.99 -179968 -99999.99 -99999.99 -99999.99 -99999.99
1/5/2023 10:00:00 AM -99999.99 -179968 -99999.99 -99999.99 -99999.99 -99999.99
1/5/2023 10:15:00 AM -99999.99 -179968 -99999.99 -99999.99 -99999.99 -99999.99
1/5/2023 10:30:00 AM -99999.99 -179968 -99999.99 -99999.99 -99999.99 -99999.99
1/5/2023 10:45:00 AM -99999.99 -179968 -99999.99 -99999.99 -99999.99 -99999.99
1/5/2023 11:00:00 AM -99999.99 -179968 -99999.99 -99999.99 -99999.99 -99999.99
1/5/2023 11:15:00 AM -99999.99 -179968 -99999.99 -99999.99 -99999.99 -99999.99
1/5/2023 11:30:00 AM -99999.99 -179968 -99999.99 -99999.99 -99999.99 -99999.99
1/5/2023 11:45:00 AM -99999.99 -179968 -99999.99 -99999.99 -99999.99 -99999.99
1/5/2023 12:00:00 PM -99999.99 -179968 -99999.99 -99999.99 -99999.99 -99999.99
1/5/2023 12:15:00 PM -99999.99 -179968 -99999.99 -99999.99 -99999.99 -99999.99
1/5/2023 12:30:00 PM -99999.99 -179968 -99999.99 -99999.99 -99999.99 -99999.99
1/5/2023 12:45:00 PM -99999.99 -179968 -99999.99 -99999.99 -99999.99 -99999.99
1/5/2023 1:00:00 PM -99999.99 -179968 -99999.99 -99999.99 -99999.99 -99999.99
1/5/2023 1:15:00 PM -99999.99 -179968 -99999.99 -99999.99 -99999.99 -99999.99
1/5/2023 1:30:00 PM -99999.99 -179968 -99999.99 -99999.99 -99999.99 -99999.99
1/5/2023 1:45:00 PM -99999.99 -179968 -99999.99 -99999.99 -99999.99 -99999.99
1/5/2023 2:00:00 PM -99999.99 -179968 -99999.99 -99999.99 -99999.99 -99999.99
1/5/2023 2:15:00 PM -99999.99 -179968 -99999.99 -99999.99 -99999.99 -99999.99
1/5/2023 2:30:00 PM -99999.99 -179968 -99999.99 -99999.99 -99999.99 -99999.99
1/5/2023 2:45:00 PM -99999.99 -179968 -99999.99 -99999.99 -99999.99 -99999.99
1/5/2023 3:00:00 PM -99999.99 -179968 -99999.99 -99999.99 -99999.99 -99999.99
1/5/2023 3:15:00 PM -99999.99 -179968 -99999.99 -99999.99 -99999.99 -99999.99
1/5/2023 3:30:00 PM -99999.99 -179968 -99999.99 -99999.99 -99999.99 -99999.99
1/5/2023 3:45:00 PM -99999.99 -179968 -99999.99 -99999.99 -99999.99 -99999.99
1/5/2023 4:00:00 PM -99999.99 -179968 -99999.99 -99999.99 -99999.99 -99999.99
1/5/2023 4:15:00 PM -99999.99 -179968 -99999.99 -99999.99 -99999.99 -99999.99
1/5/2023 4:30:00 PM -99999.99 -179968 -99999.99 -99999.99 -99999.99 -99999.99
1/5/2023 4:45:00 PM -99999.99 -179968 -99999.99 -99999.99 -99999.99 -99999.99
1/5/2023 5:00:00 PM -99999.99 -179968 -99999.99 -99999.99 -99999.99 -99999.99
1/5/2023 5:15:00 PM -99999.99 -179968 -99999.99 -99999.99 -99999.99 -99999.99
1/5/2023 5:30:00 PM -99999.99 -179968 -99999.99 -99999.99 -99999.99 -99999.99
1/5/2023 5:45:00 PM -99999.99 -179968 -99999.99 -99999.99 -99999.99 -99999.99
1/5/2023 6:00:00 PM -99999.99 -179968 -99999.99 -99999.99 -99999.99 -99999.99
1/5/2023 6:15:00 PM -99999.99 -179968 -99999.99 -99999.99 -99999.99 -99999.99
1/5/2023 6:30:00 PM -99999.99 -179968 -99999.99 -99999.99 -99999.99 -99999.99
1/5/2023 6:45:00 PM -99999.99 -179968 -99999.99 -99999.99 -99999.99 -99999.99
1/5/2023 7:00:00 PM -99999.99 -179968 -99999.99 -99999.99 -99999.99 -99999.99
1/5/2023 7:15:00 PM -99999.99 -179968 -99999.99 -99999.99 -99999.99 -99999.99
1/5/2023 7:30:00 PM -99999.99 -179968 -99999.99 -99999.99 -99999.99 -99999.99
1/5/2023 7:45:00 PM -99999.99 -179968 -99999.99 -99999.99 -99999.99 -99999.99
1/5/2023 8:00:00 PM -99999.99 -179968 -99999.99 -99999.99 -99999.99 -99999.99
1/5/2023 8:15:00 PM -99999.99 -179968 -99999.99 -99999.99 -99999.99 -99999.99
1/5/2023 8:30:00 PM -99999.99 -179968 -99999.99 -99999.99 -99999.99 -99999.99
1/5/2023 8:45:00 PM -99999.99 -179968 -99999.99 -99999.99 -99999.99 -99999.99
1/5/2023 9:00:00 PM -99999.99 -179968 -99999.99 -99999.99 -99999.99 -99999.99
1/5/2023 9:15:00 PM -99999.99 -179968 -99999.99 -99999.99 -99999.99 -99999.99
1/5/2023 9:30:00 PM -99999.99 -179968 -99999.99 -99999.99 -99999.99 -99999.99
1/5/2023 9:45:00 PM -99999.99 -179968 -99999.99 -99999.99 -99999.99 -99999.99
1/5/2023 10:00:00 PM -99999.99 -179968 -99999.99 -99999.99 -99999.99 -99999.99
1/5/2023 10:15:00 PM -99999.99 -179968 -99999.99 -99999.99 -99999.99 -99999.99
1/5/2023 10:30:00 PM -99999.99 -179968 -99999.99 -99999.99 -99999.99 -99999.99
1/5/2023 10:45:00 PM -99999.99 -179968 -99999.99 -99999.99 -99999.99 -99999.99
1/5/2023 11:00:00 PM -99999.99 -179968 -99999.99 -99999.99 -99999.99 -99999.99
1/5/2023 11:15:00 PM -99999.99 -179968 -99999.99 -99999.99 -99999.99 -99999.99
1/5/2023 11:30:00 PM -99999.99 -179968 -99999.99 -99999.99 -99999.99 -99999.99
1/5/2023 11:45:00 PM -99999.99 -179968 -99999.99 -99999.99 -99999.99 -99999.99
1/6/2023 12:00:00 AM -99999.99 -179968 -99999.99 -99999.99 -99999.99 -99999.99
1/6/2023 12:15:00 AM -99999.99 -179968 -99999.99 -99999.99 -99999.99 -99999.99
1/6/2023 12:30:00 AM -99999.99 -179968 -99999.99 -99999.99 -99999.99 -99999.99
1/6/2023 12:45:00 AM -99999.99 -179968 -99999.99 -99999.99 -99999.99 -99999.99
1/6/2023 1:00:00 AM -99999.99 -179968 -99999.99 -99999.99 -99999.99 -99999.99
1/6/2023 1:15:00 AM -99999.99 -179968 -99999.99 -99999.99 -99999.99 -99999.99
1/6/2023 1:30:00 AM -99999.99 -179968 -99999.99 -99999.99 -99999.99 -99999.99
1/6/2023 1:45:00 AM -99999.99 -179968 -99999.99 -99999.99 -99999.99 -99999.99
1/6/2023 2:00:00 AM -99999.99 -179968 -99999.99 -99999.99 -99999.99 -99999.99
1/6/2023 2:15:00 AM -99999.99 -179968 -99999.99 -99999.99 -99999.99 -99999.99
1/6/2023 2:30:00 AM -99999.99 -179968 -99999.99 -99999.99 -99999.99 -99999.99
1/6/2023 2:45:00 AM -99999.99 -179968 -99999.99 -99999.99 -99999.99 -99999.99
1/6/2023 3:00:00 AM -99999.99 -179968 -99999.99 -99999.99 -99999.99 -99999.99
1/6/2023 3:15:00 AM -99999.99 -179968 -99999.99 -99999.99 -99999.99 -99999.99
1/6/2023 3:30:00 AM -99999.99 -179968 -99999.99 -99999.99 -99999.99 -99999.99
1/6/2023 3:45:00 AM -99999.99 -179968 -99999.99 -99999.99 -99999.99 -99999.99
1/6/2023 4:00:00 AM -99999.99 -179968 -99999.99 -99999.99 -99999.99 -99999.99
1/6/2023 4:15:00 AM -99999.99 -179968 -99999.99 -99999.99 -99999.99 -99999.99
1/6/2023 4:30:00 AM -99999.99 -179968 -99999.99 -99999.99 -99999.99 -99999.99
1/6/2023 4:45:00 AM -99999.99 -179968 -99999.99 -99999.99 -99999.99 -99999.99
1/6/2023 5:00:00 AM -99999.99 -179968 -99999.99 -99999.99 -99999.99 -99999.99
1/6/2023 5:15:00 AM -99999.99 -179968 -99999.99 -99999.99 -99999.99 -99999.99
1/6/2023 5:30:00 AM -99999.99 -179968 -99999.99 -99999.99 -99999.99 -99999.99
1/6/2023 5:45:00 AM -99999.99 -179968 -99999.99 -99999.99 -99999.99 -99999.99
1/6/2023 6:00:00 AM -99999.99 -179968 -99999.99 -99999.99 -99999.99 -99999.99
1/6/2023 6:15:00 AM -99999.99 -179968 -99999.99 -99999.99 -99999.99 -99999.99
1/6/2023 6:30:00 AM -99999.99 -179968 -99999.99 -99999.99 -99999.99 -99999.99
1/6/2023 6:45:00 AM -99999.99 -179968 -99999.99 -99999.99 -99999.99 -99999.99
1/6/2023 7:00:00 AM -99999.99 -179968 -99999.99 -99999.99 -99999.99 -99999.99
1/6/2023 7:15:00 AM -99999.99 -179968 -99999.99 -99999.99 -99999.99 -99999.99
1/6/2023 7:30:00 AM -99999.99 -179968 -99999.99 -99999.99 -99999.99 -99999.99
1/6/2023 7:45:00 AM -99999.99 -179968 -99999.99 -99999.99 -99999.99 -99999.99
1/6/2023 8:00:00 AM -99999.99 -179968 -99999.99 -99999.99 -99999.99 -99999.99
1/6/2023 8:15:00 AM -99999.99 -179968 -99999.99 -99999.99 -99999.99 -99999.99
1/6/2023 8:30:00 AM -99999.99 -179968 -99999.99 -99999.99 -99999.99 -99999.99
1/6/2023 8:45:00 AM -99999.99 -179968 -99999.99 -99999.99 -99999.99 -99999.99
1/6/2023 9:00:00 AM -99999.99 -179968 -99999.99 -99999.99 -99999.99 -99999.99
1/6/2023 9:15:00 AM -99999.99 -179968 -99999.99 -99999.99 -99999.99 -99999.99
1/6/2023 9:30:00 AM -99999.99 -179968 -99999.99 -99999.99 -99999.99 -99999.99
1/6/2023 9:45:00 AM -99999.99 -179968 -99999.99 -99999.99 -99999.99 -99999.99
1/6/2023 10:00:00 AM -99999.99 -179968 -99999.99 -99999.99 -99999.99 -99999.99
1/6/2023 10:15:00 AM -99999.99 -179968 -99999.99 -99999.99 -99999.99 -99999.99
1/6/2023 10:30:00 AM -99999.99 -179968 -99999.99 -99999.99 -99999.99 -99999.99
1/6/2023 10:45:00 AM -99999.99 -179968 -99999.99 -99999.99 -99999.99 -99999.99
1/6/2023 11:00:00 AM -99999.99 -179968 -99999.99 -99999.99 -99999.99 -99999.99
1/6/2023 11:15:00 AM -99999.99 -179968 -99999.99 -99999.99 -99999.99 -99999.99
1/6/2023 11:30:00 AM -99999.99 -179968 -99999.99 -99999.99 -99999.99 -99999.99
1/6/2023 11:45:00 AM -99999.99 -179968 -99999.99 -99999.99 -99999.99 -99999.99
1/6/2023 12:00:00 PM -99999.99 -179968 -99999.99 -99999.99 -99999.99 -99999.99
1/6/2023 12:15:00 PM -99999.99 -179968 -99999.99 -99999.99 -99999.99 -99999.99
1/6/2023 12:30:00 PM -99999.99 -179968 -99999.99 -99999.99 -99999.99 -99999.99
1/6/2023 12:45:00 PM -99999.99 -179968 -99999.99 -99999.99 -99999.99 -99999.99
1/6/2023 1:00:00 PM -99999.99 -179968 -99999.99 -99999.99 -99999.99 -99999.99
1/6/2023 1:15:00 PM -99999.99 -179968 -99999.99 -99999.99 -99999.99 -99999.99
1/6/2023 1:30:00 PM -99999.99 -179968 -99999.99 -99999.99 -99999.99 -99999.99
1/6/2023 1:45:00 PM -99999.99 -179968 -99999.99 -99999.99 -99999.99 -99999.99
1/6/2023 2:00:00 PM -99999.99 -179968 -99999.99 -99999.99 -99999.99 -99999.99
1/6/2023 2:15:00 PM -99999.99 -179968 -99999.99 -99999.99 -99999.99 -99999.99
1/6/2023 2:30:00 PM -99999.99 -179968 -99999.99 -99999.99 -99999.99 -99999.99
1/6/2023 2:45:00 PM -99999.99 -179968 -99999.99 -99999.99 -99999.99 -99999.99
1/6/2023 3:00:00 PM -99999.99 -179968 -99999.99 -99999.99 -99999.99 -99999.99
1/6/2023 3:15:00 PM -99999.99 -179968 -99999.99 -99999.99 -99999.99 -99999.99
1/6/2023 3:30:00 PM -99999.99 -179968 -99999.99 -99999.99 -99999.99 -99999.99
1/6/2023 3:45:00 PM -99999.99 -179968 -99999.99 -99999.99 -99999.99 -99999.99
1/6/2023 4:00:00 PM -99999.99 -179968 -99999.99 -99999.99 -99999.99 -99999.99
1/6/2023 4:15:00 PM -99999.99 -179968 -99999.99 -99999.99 -99999.99 -99999.99
1/6/2023 4:30:00 PM -99999.99 -179968 -99999.99 -99999.99 -99999.99 -99999.99
1/6/2023 4:45:00 PM -99999.99 -179968 -99999.99 -99999.99 -99999.99 -99999.99
1/6/2023 5:00:00 PM -99999.99 -179968 -99999.99 -99999.99 -99999.99 -99999.99
1/6/2023 5:15:00 PM -99999.99 -179968 -99999.99 -99999.99 -99999.99 -99999.99
1/6/2023 5:30:00 PM -99999.99 -179968 -99999.99 -99999.99 -99999.99 -99999.99
1/6/2023 5:45:00 PM -99999.99 -179968 -99999.99 -99999.99 -99999.99 -99999.99
1/6/2023 6:00:00 PM -99999.99 -179968 -99999.99 -99999.99 -99999.99 -99999.99
1/6/2023 6:15:00 PM -99999.99 -179968 -99999.99 -99999.99 -99999.99 -99999.99
1/6/2023 6:30:00 PM -99999.99 -179968 -99999.99 -99999.99 -99999.99 -99999.99
1/6/2023 6:45:00 PM -99999.99 -179968 -99999.99 -99999.99 -99999.99 -99999.99
1/6/2023 7:00:00 PM -99999.99 -179968 -99999.99 -99999.99 -99999.99 -99999.99
1/6/2023 7:15:00 PM -99999.99 -179968 -99999.99 -99999.99 -99999.99 -99999.99
1/6/2023 7:30:00 PM -99999.99 -179968 -99999.99 -99999.99 -99999.99 -99999.99
1/6/2023 7:45:00 PM -99999.99 -179968 -99999.99 -99999.99 -99999.99 -99999.99
1/6/2023 8:00:00 PM -99999.99 -179968 -99999.99 -99999.99 -99999.99 -99999.99
1/6/2023 8:15:00 PM -99999.99 -179968 -99999.99 -99999.99 -99999.99 -99999.99
1/6/2023 8:30:00 PM -99999.99 -179968 -99999.99 -99999.99 -99999.99 -99999.99
1/6/2023 8:45:00 PM -99999.99 -179968 -99999.99 -99999.99 -99999.99 -99999.99
1/6/2023 9:00:00 PM -99999.99 -179968 -99999.99 -99999.99 -99999.99 -99999.99
1/6/2023 9:15:00 PM -99999.99 -179968 -99999.99 -99999.99 -99999.99 -99999.99
1/6/2023 9:30:00 PM -99999.99 -179968 -99999.99 -99999.99 -99999.99 -99999.99
1/6/2023 9:45:00 PM -99999.99 -179968 -99999.99 -99999.99 -99999.99 -99999.99
1/6/2023 10:00:00 PM -99999.99 -179968 -99999.99 -99999.99 -99999.99 -99999.99
1/6/2023 10:15:00 PM -99999.99 -179968 -99999.99 -99999.99 -99999.99 -99999.99
1/6/2023 10:30:00 PM -99999.99 -179968 -99999.99 -99999.99 -99999.99 -99999.99
1/6/2023 10:45:00 PM -99999.99 -179968 -99999.99 -99999.99 -99999.99 -99999.99
1/6/2023 11:00:00 PM -99999.99 -179968 -99999.99 -99999.99 -99999.99 -99999.99
1/6/2023 11:15:00 PM -99999.99 -179968 -99999.99 -99999.99 -99999.99 -99999.99
1/6/2023 11:30:00 PM -99999.99 -179968 -99999.99 -99999.99 -99999.99 -99999.99
1/6/2023 11:45:00 PM -99999.99 -179968 -99999.99 -99999.99 -99999.99 -99999.99
1/7/2023 12:00:00 AM -99999.99 -179968 -99999.99 -99999.99 -99999.99 -99999.99
1/7/2023 12:15:00 AM -99999.99 -179968 -99999.99 -99999.99 -99999.99 -99999.99
1/7/2023 12:30:00 AM -99999.99 -179968 -99999.99 -99999.99 -99999.99 -99999.99
1/7/2023 12:45:00 AM -99999.99 -179968 -99999.99 -99999.99 -99999.99 -99999.99
1/7/2023 1:00:00 AM -99999.99 -179968 -99999.99 -99999.99 -99999.99 -99999.99
1/7/2023 1:15:00 AM -99999.99 -179968 -99999.99 -99999.99 -99999.99 -99999.99
1/7/2023 1:30:00 AM -99999.99 -179968 -99999.99 -99999.99 -99999.99 -99999.99
1/7/2023 1:45:00 AM -99999.99 -179968 -99999.99 -99999.99 -99999.99 -99999.99
1/7/2023 2:00:00 AM -99999.99 -179968 -99999.99 -99999.99 -99999.99 -99999.99
1/7/2023 2:15:00 AM -99999.99 -179968 -99999.99 -99999.99 -99999.99 -99999.99
1/7/2023 2:30:00 AM -99999.99 -179968 -99999.99 -99999.99 -99999.99 -99999.99
1/7/2023 2:45:00 AM -99999.99 -179968 -99999.99 -99999.99 -99999.99 -99999.99
1/7/2023 3:00:00 AM -99999.99 -179968 -99999.99 -99999.99 -99999.99 -99999.99
1/7/2023 3:15:00 AM -99999.99 -179968 -99999.99 -99999.99 -99999.99 -99999.99
1/7/2023 3:30:00 AM -99999.99 -179968 -99999.99 -99999.99 -99999.99 -99999.99
1/7/2023 3:45:00 AM -99999.99 -179968 -99999.99 -99999.99 -99999.99 -99999.99
1/7/2023 4:00:00 AM -99999.99 -179968 -99999.99 -99999.99 -99999.99 -99999.99
1/7/2023 4:15:00 AM -99999.99 -179968 -99999.99 -99999.99 -99999.99 -99999.99
1/7/2023 4:30:00 AM -99999.99 -179968 -99999.99 -99999.99 -99999.99 -99999.99
1/7/2023 4:45:00 AM -99999.99 -179968 -99999.99 -99999.99 -99999.99 -99999.99
1/7/2023 5:00:00 AM -99999.99 -179968 -99999.99 -99999.99 -99999.99 -99999.99
1/7/2023 5:15:00 AM -99999.99 -179968 -99999.99 -99999.99 -99999.99 -99999.99
1/7/2023 5:30:00 AM -99999.99 -179968 -99999.99 -99999.99 -99999.99 -99999.99
1/7/2023 5:45:00 AM -99999.99 -179968 -99999.99 -99999.99 -99999.99 -99999.99
1/7/2023 6:00:00 AM -99999.99 -179968 -99999.99 -99999.99 -99999.99 -99999.99
1/7/2023 6:15:00 AM -99999.99 -179968 -99999.99 -99999.99 -99999.99 -99999.99
1/7/2023 6:30:00 AM -99999.99 -179968 -99999.99 -99999.99 -99999.99 -99999.99
1/7/2023 6:45:00 AM -99999.99 -179968 -99999.99 -99999.99 -99999.99 -99999.99
1/7/2023 7:00:00 AM -99999.99 -179968 -99999.99 -99999.99 -99999.99 -99999.99
1/7/2023 7:15:00 AM -99999.99 -179968 -99999.99 -99999.99 -99999.99 -99999.99
1/7/2023 7:30:00 AM -99999.99 -179968 -99999.99 -99999.99 -99999.99 -99999.99
1/7/2023 7:45:00 AM -99999.99 -179968 -99999.99 -99999.99 -99999.99 -99999.99
1/7/2023 8:00:00 AM -99999.99 -179968 -99999.99 -99999.99 -99999.99 -99999.99
1/7/2023 8:15:00 AM -99999.99 -179968 -99999.99 -99999.99 -99999.99 -99999.99
1/7/2023 8:30:00 AM -99999.99 -179968 -99999.99 -99999.99 -99999.99 -99999.99
1/7/2023 8:45:00 AM -99999.99 -179968 -99999.99 -99999.99 -99999.99 -99999.99
1/7/2023 9:00:00 AM -99999.99 -179968 -99999.99 -99999.99 -99999.99 -99999.99
1/7/2023 9:15:00 AM -99999.99 -179968 -99999.99 -99999.99 -99999.99 -99999.99
1/7/2023 9:30:00 AM -99999.99 -179968 -99999.99 -99999.99 -99999.99 -99999.99
1/7/2023 9:45:00 AM -99999.99 -179968 -99999.99 -99999.99 -99999.99 -99999.99
1/7/2023 10:00:00 AM -99999.99 -179968 -99999.99 -99999.99 -99999.99 -99999.99
1/7/2023 10:15:00 AM -99999.99 -179968 -99999.99 -99999.99 -99999.99 -99999.99
1/7/2023 10:30:00 AM -99999.99 -179968 -99999.99 -99999.99 -99999.99 -99999.99
1/7/2023 10:45:00 AM -99999.99 -179968 -99999.99 -99999.99 -99999.99 -99999.99
1/7/2023 11:00:00 AM -99999.99 -179968 -99999.99 -99999.99 -99999.99 -99999.99
1/7/2023 11:15:00 AM -99999.99 -179968 -99999.99 -99999.99 -99999.99 -99999.99
1/7/2023 11:30:00 AM -99999.99 -179968 -99999.99 -99999.99 -99999.99 -99999.99
1/7/2023 11:45:00 AM -99999.99 -179968 -99999.99 -99999.99 -99999.99 -99999.99
1/7/2023 12:00:00 PM -99999.99 -179968 -99999.99 -99999.99 -99999.99 -99999.99
1/7/2023 12:15:00 PM -99999.99 -179968 -99999.99 -99999.99 -99999.99 -99999.99
1/7/2023 12:30:00 PM -99999.99 -179968 -99999.99 -99999.99 -99999.99 -99999.99
1/7/2023 12:45:00 PM -99999.99 -179968 -99999.99 -99999.99 -99999.99 -99999.99
1/7/2023 1:00:00 PM -99999.99 -179968 -99999.99 -99999.99 -99999.99 -99999.99
1/7/2023 1:15:00 PM -99999.99 -179968 -99999.99 -99999.99 -99999.99 -99999.99
1/7/2023 1:30:00 PM -99999.99 -179968 -99999.99 -99999.99 -99999.99 -99999.99
1/7/2023 1:45:00 PM -99999.99 -179968 -99999.99 -99999.99 -99999.99 -99999.99
1/7/2023 2:00:00 PM -99999.99 -179968 -99999.99 -99999.99 -99999.99 -99999.99
1/7/2023 2:15:00 PM -99999.99 -179968 -99999.99 -99999.99 -99999.99 -99999.99
1/7/2023 2:30:00 PM -99999.99 -179968 -99999.99 -99999.99 -99999.99 -99999.99
1/7/2023 2:45:00 PM -99999.99 -179968 -99999.99 -99999.99 -99999.99 -99999.99
1/7/2023 3:00:00 PM -99999.99 -179968 -99999.99 -99999.99 -99999.99 -99999.99
1/7/2023 3:15:00 PM -99999.99 -179968 -99999.99 -99999.99 -99999.99 -99999.99
1/7/2023 3:30:00 PM -99999.99 -179968 -99999.99 -99999.99 -99999.99 -99999.99
1/7/2023 3:45:00 PM -99999.99 -179968 -99999.99 -99999.99 -99999.99 -99999.99
1/7/2023 4:00:00 PM -99999.99 -179968 -99999.99 -99999.99 -99999.99 -99999.99
1/7/2023 4:15:00 PM -99999.99 -179968 -99999.99 -99999.99 -99999.99 -99999.99
1/7/2023 4:30:00 PM -99999.99 -179968 -99999.99 -99999.99 -99999.99 -99999.99
1/7/2023 4:45:00 PM -99999.99 -179968 -99999.99 -99999.99 -99999.99 -99999.99
1/7/2023 5:00:00 PM -99999.99 -179968 -99999.99 -99999.99 -99999.99 -99999.99
1/7/2023 5:15:00 PM -99999.99 -179968 -99999.99 -99999.99 -99999.99 -99999.99
1/7/2023 5:30:00 PM -99999.99 -179968 -99999.99 -99999.99 -99999.99 -99999.99
1/7/2023 5:45:00 PM -99999.99 -179968 -99999.99 -99999.99 -99999.99 -99999.99
1/7/2023 6:00:00 PM -99999.99 -179968 -99999.99 -99999.99 -99999.99 -99999.99
1/7/2023 6:15:00 PM -99999.99 -179968 -99999.99 -99999.99 -99999.99 -99999.99
1/7/2023 6:30:00 PM -99999.99 -179968 -99999.99 -99999.99 -99999.99 -99999.99
1/7/2023 6:45:00 PM -99999.99 -179968 -99999.99 -99999.99 -99999.99 -99999.99
1/7/2023 7:00:00 PM -99999.99 -179968 -99999.99 -99999.99 -99999.99 -99999.99
1/7/2023 7:15:00 PM -99999.99 -179968 -99999.99 -99999.99 -99999.99 -99999.99
1/7/2023 7:30:00 PM -99999.99 -179968 -99999.99 -99999.99 -99999.99 -99999.99
1/7/2023 7:45:00 PM -99999.99 -179968 -99999.99 -99999.99 -99999.99 -99999.99
1/7/2023 8:00:00 PM -99999.99 -179968 -99999.99 -99999.99 -99999.99 -99999.99
1/7/2023 8:15:00 PM -99999.99 -179968 -99999.99 -99999.99 -99999.99 -99999.99
1/7/2023 8:30:00 PM -99999.99 -179968 -99999.99 -99999.99 -99999.99 -99999.99
1/7/2023 8:45:00 PM -99999.99 -179968 -99999.99 -99999.99 -99999.99 -99999.99
1/7/2023 9:00:00 PM -99999.99 -179968 -99999.99 -99999.99 -99999.99 -99999.99
1/7/2023 9:15:00 PM -99999.99 -179968 -99999.99 -99999.99 -99999.99 -99999.99
1/7/2023 9:30:00 PM -99999.99 -179968 -99999.99 -99999.99 -99999.99 -99999.99
1/7/2023 9:45:00 PM -99999.99 -179968 -99999.99 -99999.99 -99999.99 -99999.99
1/7/2023 10:00:00 PM -99999.99 -179968 -99999.99 -99999.99 -99999.99 -99999.99
1/7/2023 10:15:00 PM -99999.99 -179968 -99999.99 -99999.99 -99999.99 -99999.99
1/7/2023 10:30:00 PM -99999.99 -179968 -99999.99 -99999.99 -99999.99 -99999.99
1/7/2023 10:45:00 PM -99999.99 -179968 -99999.99 -99999.99 -99999.99 -99999.99
1/7/2023 11:00:00 PM -99999.99 -179968 -99999.99 -99999.99 -99999.99 -99999.99
1/7/2023 11:15:00 PM -99999.99 -179968 -99999.99 -99999.99 -99999.99 -99999.99
1/7/2023 11:30:00 PM -99999.99 -179968 -99999.99 -99999.99 -99999.99 -99999.99
1/7/2023 11:45:00 PM -99999.99 -179968 -99999.99 -99999.99 -99999.99 -99999.99
1/8/2023 12:00:00 AM -99999.99 -179968 -99999.99 -99999.99 -99999.99 -99999.99
1/8/2023 12:15:00 AM -99999.99 -179968 -99999.99 -99999.99 -99999.99 -99999.99
1/8/2023 12:30:00 AM -99999.99 -179968 -99999.99 -99999.99 -99999.99 -99999.99
1/8/2023 12:45:00 AM -99999.99 -179968 -99999.99 -99999.99 -99999.99 -99999.99
1/8/2023 1:00:00 AM -99999.99 -179968 -99999.99 -99999.99 -99999.99 -99999.99
1/8/2023 1:15:00 AM -99999.99 -179968 -99999.99 -99999.99 -99999.99 -99999.99
1/8/2023 1:30:00 AM -99999.99 -179968 -99999.99 -99999.99 -99999.99 -99999.99
1/8/2023 1:45:00 AM -99999.99 -179968 -99999.99 -99999.99 -99999.99 -99999.99
1/8/2023 2:00:00 AM -99999.99 -179968 -99999.99 -99999.99 -99999.99 -99999.99
1/8/2023 2:15:00 AM -99999.99 -179968 -99999.99 -99999.99 -99999.99 -99999.99
1/8/2023 2:30:00 AM -99999.99 -179968 -99999.99 -99999.99 -99999.99 -99999.99
1/8/2023 2:45:00 AM -99999.99 -179968 -99999.99 -99999.99 -99999.99 -99999.99
1/8/2023 3:00:00 AM -99999.99 -179968 -99999.99 -99999.99 -99999.99 -99999.99
1/8/2023 3:15:00 AM -99999.99 -179968 -99999.99 -99999.99 -99999.99 -99999.99
1/8/2023 3:30:00 AM -99999.99 -179968 -99999.99 -99999.99 -99999.99 -99999.99
1/8/2023 3:45:00 AM -99999.99 -179968 -99999.99 -99999.99 -99999.99 -99999.99
1/8/2023 4:00:00 AM -99999.99 -179968 -99999.99 -99999.99 -99999.99 -99999.99
1/8/2023 4:15:00 AM -99999.99 -179968 -99999.99 -99999.99 -99999.99 -99999.99
1/8/2023 4:30:00 AM -99999.99 -179968 -99999.99 -99999.99 -99999.99 -99999.99
1/8/2023 4:45:00 AM -99999.99 -179968 -99999.99 -99999.99 -99999.99 -99999.99
1/8/2023 5:00:00 AM -99999.99 -179968 -99999.99 -99999.99 -99999.99 -99999.99
1/8/2023 5:15:00 AM -99999.99 -179968 -99999.99 -99999.99 -99999.99 -99999.99
1/8/2023 5:30:00 AM -99999.99 -179968 -99999.99 -99999.99 -99999.99 -99999.99
1/8/2023 5:45:00 AM -99999.99 -179968 -99999.99 -99999.99 -99999.99 -99999.99
1/8/2023 6:00:00 AM -99999.99 -179968 -99999.99 -99999.99 -99999.99 -99999.99
1/8/2023 6:15:00 AM -99999.99 -179968 -99999.99 -99999.99 -99999.99 -99999.99
1/8/2023 6:30:00 AM -99999.99 -179968 -99999.99 -99999.99 -99999.99 -99999.99
1/8/2023 6:45:00 AM -99999.99 -179968 -99999.99 -99999.99 -99999.99 -99999.99
1/8/2023 7:00:00 AM -99999.99 -179968 -99999.99 -99999.99 -99999.99 -99999.99
1/8/2023 7:15:00 AM -99999.99 -179968 -99999.99 -99999.99 -99999.99 -99999.99
1/8/2023 7:30:00 AM -99999.99 -179968 -99999.99 -99999.99 -99999.99 -99999.99
1/8/2023 7:45:00 AM -99999.99 -179968 -99999.99 -99999.99 -99999.99 -99999.99
1/8/2023 8:00:00 AM -99999.99 -179968 -99999.99 -99999.99 -99999.99 -99999.99
1/8/2023 8:15:00 AM -99999.99 -179968 -99999.99 -99999.99 -99999.99 -99999.99
1/8/2023 8:30:00 AM -99999.99 -179968 -99999.99 -99999.99 -99999.99 -99999.99
1/8/2023 8:45:00 AM -99999.99 -179968 -99999.99 -99999.99 -99999.99 -99999.99
1/8/2023 9:00:00 AM -99999.99 -179968 -99999.99 -99999.99 -99999.99 -99999.99
1/8/2023 9:15:00 AM -99999.99 -179968 -99999.99 -99999.99 -99999.99 -99999.99
1/8/2023 9:30:00 AM -99999.99 -179968 -99999.99 -99999.99 -99999.99 -99999.99
1/8/2023 9:45:00 AM -99999.99 -179968 -99999.99 -99999.99 -99999.99 -99999.99
1/8/2023 10:00:00 AM -99999.99 -179968 -99999.99 -99999.99 -99999.99 -99999.99
1/8/2023 10:15:00 AM -99999.99 -179968 -99999.99 -99999.99 -99999.99 -99999.99
1/8/2023 10:30:00 AM -99999.99 -179968 -99999.99 -99999.99 -99999.99 -99999.99
1/8/2023 10:45:00 AM -99999.99 -179968 -99999.99 -99999.99 -99999.99 -99999.99
1/8/2023 11:00:00 AM -99999.99 -179968 -99999.99 -99999.99 -99999.99 -99999.99
1/8/2023 11:15:00 AM -99999.99 -179968 -99999.99 -99999.99 -99999.99 -99999.99
1/8/2023 11:30:00 AM -99999.99 -179968 -99999.99 -99999.99 -99999.99 -99999.99
1/8/2023 11:45:00 AM -99999.99 -179968 -99999.99 -99999.99 -99999.99 -99999.99
1/8/2023 12:00:00 PM -99999.99 -179968 -99999.99 -99999.99 -99999.99 -99999.99
1/8/2023 12:15:00 PM -99999.99 -179968 -99999.99 -99999.99 -99999.99 -99999.99
1/8/2023 12:30:00 PM -99999.99 -179968 -99999.99 -99999.99 -99999.99 -99999.99
1/8/2023 12:45:00 PM -99999.99 -179968 -99999.99 -99999.99 -99999.99 -99999.99
1/8/2023 1:00:00 PM -99999.99 -179968 -99999.99 -99999.99 -99999.99 -99999.99
1/8/2023 1:15:00 PM -99999.99 -179968 -99999.99 -99999.99 -99999.99 -99999.99
1/8/2023 1:30:00 PM -99999.99 -179968 -99999.99 -99999.99 -99999.99 -99999.99
1/8/2023 1:45:00 PM -99999.99 -179968 -99999.99 -99999.99 -99999.99 -99999.99
1/8/2023 2:00:00 PM -99999.99 -179968 -99999.99 -99999.99 -99999.99 -99999.99
1/8/2023 2:15:00 PM -99999.99 -179968 -99999.99 -99999.99 -99999.99 -99999.99
1/8/2023 2:30:00 PM -99999.99 -179968 -99999.99 -99999.99 -99999.99 -99999.99
1/8/2023 2:45:00 PM -99999.99 -179968 -99999.99 -99999.99 -99999.99 -99999.99
1/8/2023 3:00:00 PM -99999.99 -179968 -99999.99 -99999.99 -99999.99 -99999.99
1/8/2023 3:15:00 PM -99999.99 -179968 -99999.99 -99999.99 -99999.99 -99999.99
1/8/2023 3:30:00 PM -99999.99 -179968 -99999.99 -99999.99 -99999.99 -99999.99
1/8/2023 3:45:00 PM -99999.99 -179968 -99999.99 -99999.99 -99999.99 -99999.99
1/8/2023 4:00:00 PM -99999.99 -179968 -99999.99 -99999.99 -99999.99 -99999.99
1/8/2023 4:15:00 PM -99999.99 -179968 -99999.99 -99999.99 -99999.99 -99999.99
1/8/2023 4:30:00 PM -99999.99 -179968 -99999.99 -99999.99 -99999.99 -99999.99
1/8/2023 4:45:00 PM -99999.99 -179968 -99999.99 -99999.99 -99999.99 -99999.99
1/8/2023 5:00:00 PM -99999.99 -179968 -99999.99 -99999.99 -99999.99 -99999.99
1/8/2023 5:15:00 PM -99999.99 -179968 -99999.99 -99999.99 -99999.99 -99999.99
1/8/2023 5:30:00 PM -99999.99 -179968 -99999.99 -99999.99 -99999.99 -99999.99
1/8/2023 5:45:00 PM -99999.99 -179968 -99999.99 -99999.99 -99999.99 -99999.99
1/8/2023 6:00:00 PM -99999.99 -179968 -99999.99 -99999.99 -99999.99 -99999.99
1/8/2023 6:15:00 PM -99999.99 -179968 -99999.99 -99999.99 -99999.99 -99999.99
1/8/2023 6:30:00 PM -99999.99 -179968 -99999.99 -99999.99 -99999.99 -99999.99
1/8/2023 6:45:00 PM -99999.99 -179968 -99999.99 -99999.99 -99999.99 -99999.99
1/8/2023 7:00:00 PM -99999.99 -179968 -99999.99 -99999.99 -99999.99 -99999.99
1/8/2023 7:15:00 PM -99999.99 -179968 -99999.99 -99999.99 -99999.99 -99999.99
1/8/2023 7:30:00 PM -99999.99 -179968 -99999.99 -99999.99 -99999.99 -99999.99
1/8/2023 7:45:00 PM -99999.99 -179968 -99999.99 -99999.99 -99999.99 -99999.99
1/8/2023 8:00:00 PM -99999.99 -179968 -99999.99 -99999.99 -99999.99 -99999.99
1/8/2023 8:15:00 PM -99999.99 -179968 -99999.99 -99999.99 -99999.99 -99999.99
1/8/2023 8:30:00 PM -99999.99 -179968 -99999.99 -99999.99 -99999.99 -99999.99
1/8/2023 8:45:00 PM -99999.99 -179968 -99999.99 -99999.99 -99999.99 -99999.99
1/8/2023 9:00:00 PM -99999.99 -179968 -99999.99 -99999.99 -99999.99 -99999.99
1/8/2023 9:15:00 PM -99999.99 -179968 -99999.99 -99999.99 -99999.99 -99999.99
1/8/2023 9:30:00 PM -99999.99 -179968 -99999.99 -99999.99 -99999.99 -99999.99
1/8/2023 9:45:00 PM -99999.99 -179968 -99999.99 -99999.99 -99999.99 -99999.99
1/8/2023 10:00:00 PM -99999.99 -179968 -99999.99 -99999.99 -99999.99 -99999.99
1/8/2023 10:15:00 PM -99999.99 -179968 -99999.99 -99999.99 -99999.99 -99999.99
1/8/2023 10:30:00 PM -99999.99 -179968 -99999.99 -99999.99 -99999.99 -99999.99
1/8/2023 10:45:00 PM -99999.99 -179968 -99999.99 -99999.99 -99999.99 -99999.99
1/8/2023 11:00:00 PM -99999.99 -179968 -99999.99 -99999.99 -99999.99 -99999.99
1/8/2023 11:15:00 PM -99999.99 -179968 -99999.99 -99999.99 -99999.99 -99999.99
1/8/2023 11:30:00 PM -99999.99 -179968 -99999.99 -99999.99 -99999.99 -99999.99
1/8/2023 11:45:00 PM -99999.99 -179968 -99999.99 -99999.99 -99999.99 -99999.99
1/9/2023 12:00:00 AM -99999.99 -179968 -99999.99 -99999.99 -99999.99 -99999.99
1/9/2023 12:15:00 AM -99999.99 -179968 -99999.99 -99999.99 -99999.99 -99999.99
1/9/2023 12:30:00 AM -99999.99 -179968 -99999.99 -99999.99 -99999.99 -99999.99
1/9/2023 12:45:00 AM -99999.99 -179968 -99999.99 -99999.99 -99999.99 -99999.99
1/9/2023 1:00:00 AM -99999.99 -179968 -99999.99 -99999.99 -99999.99 -99999.99
1/9/2023 1:15:00 AM -99999.99 -179968 -99999.99 -99999.99 -99999.99 -99999.99
1/9/2023 1:30:00 AM -99999.99 -179968 -99999.99 -99999.99 -99999.99 -99999.99
1/9/2023 1:45:00 AM -99999.99 -179968 -99999.99 -99999.99 -99999.99 -99999.99
1/9/2023 2:00:00 AM -99999.99 -179968 -99999.99 -99999.99 -99999.99 -99999.99
1/9/2023 2:15:00 AM -99999.99 -179968 -99999.99 -99999.99 -99999.99 -99999.99
1/9/2023 2:30:00 AM -99999.99 -179968 -99999.99 -99999.99 -99999.99 -99999.99
1/9/2023 2:45:00 AM -99999.99 -179968 -99999.99 -99999.99 -99999.99 -99999.99
1/9/2023 3:00:00 AM -99999.99 -179968 -99999.99 -99999.99 -99999.99 -99999.99
1/9/2023 3:15:00 AM -99999.99 -179968 -99999.99 -99999.99 -99999.99 -99999.99
1/9/2023 3:30:00 AM -99999.99 -179968 -99999.99 -99999.99 -99999.99 -99999.99
1/9/2023 3:45:00 AM -99999.99 -179968 -99999.99 -99999.99 -99999.99 -99999.99
1/9/2023 4:00:00 AM -99999.99 -179968 -99999.99 -99999.99 -99999.99 -99999.99
1/9/2023 4:15:00 AM -99999.99 -179968 -99999.99 -99999.99 -99999.99 -99999.99
1/9/2023 4:30:00 AM -99999.99 -179968 -99999.99 -99999.99 -99999.99 -99999.99
1/9/2023 4:45:00 AM -99999.99 -179968 -99999.99 -99999.99 -99999.99 -99999.99
1/9/2023 5:00:00 AM -99999.99 -179968 -99999.99 -99999.99 -99999.99 -99999.99
1/9/2023 5:15:00 AM -99999.99 -179968 -99999.99 -99999.99 -99999.99 -99999.99
1/9/2023 5:30:00 AM -99999.99 -179968 -99999.99 -99999.99 -99999.99 -99999.99
1/9/2023 5:45:00 AM -99999.99 -179968 -99999.99 -99999.99 -99999.99 -99999.99
1/9/2023 6:00:00 AM -99999.99 -179968 -99999.99 -99999.99 -99999.99 -99999.99
1/9/2023 6:15:00 AM -99999.99 -179968 -99999.99 -99999.99 -99999.99 -99999.99
1/9/2023 6:30:00 AM -99999.99 -179968 -99999.99 -99999.99 -99999.99 -99999.99
1/9/2023 6:45:00 AM -99999.99 -179968 -99999.99 -99999.99 -99999.99 -99999.99
1/9/2023 7:00:00 AM -99999.99 -179968 -99999.99 -99999.99 -99999.99 -99999.99
1/9/2023 7:15:00 AM -99999.99 -179968 -99999.99 -99999.99 -99999.99 -99999.99
1/9/2023 7:30:00 AM -99999.99 -179968 -99999.99 -99999.99 -99999.99 -99999.99
1/9/2023 7:45:00 AM -99999.99 -179968 -99999.99 -99999.99 -99999.99 -99999.99
1/9/2023 8:00:00 AM -99999.99 -179968 -99999.99 -99999.99 -99999.99 -99999.99
1/9/2023 8:15:00 AM -99999.99 -179968 -99999.99 -99999.99 -99999.99 -99999.99
1/9/2023 8:30:00 AM -99999.99 -179968 -99999.99 -99999.99 -99999.99 -99999.99
1/9/2023 8:45:00 AM -99999.99 -179968 -99999.99 -99999.99 -99999.99 -99999.99
1/9/2023 9:00:00 AM -99999.99 -179968 -99999.99 -99999.99 -99999.99 -99999.99
1/9/2023 9:15:00 AM -99999.99 -179968 -99999.99 -99999.99 -99999.99 -99999.99
1/9/2023 9:30:00 AM -99999.99 -179968 -99999.99 -99999.99 -99999.99 -99999.99
1/9/2023 9:45:00 AM -99999.99 -179968 -99999.99 -99999.99 -99999.99 -99999.99
1/9/2023 10:00:00 AM -99999.99 -179968 -99999.99 -99999.99 -99999.99 -99999.99
1/9/2023 10:15:00 AM -99999.99 -179968 -99999.99 -99999.99 -99999.99 -99999.99
1/9/2023 10:30:00 AM -99999.99 -179968 -99999.99 -99999.99 -99999.99 -99999.99
1/9/2023 10:45:00 AM -99999.99 -179968 -99999.99 -99999.99 -99999.99 -99999.99
1/9/2023 11:00:00 AM -99999.99 -179968 -99999.99 -99999.99 -99999.99 -99999.99
1/9/2023 11:15:00 AM -99999.99 -179968 -99999.99 -99999.99 -99999.99 -99999.99
1/9/2023 11:30:00 AM -99999.99 -179968 -99999.99 -99999.99 -99999.99 -99999.99
1/9/2023 11:45:00 AM -99999.99 -179968 -99999.99 -99999.99 -99999.99 -99999.99
1/9/2023 12:00:00 PM -99999.99 -179968 -99999.99 -99999.99 -99999.99 -99999.99
1/9/2023 12:15:00 PM -99999.99 -179968 -99999.99 -99999.99 -99999.99 -99999.99
1/9/2023 12:30:00 PM -99999.99 -179968 -99999.99 -99999.99 -99999.99 -99999.99
1/9/2023 12:45:00 PM -99999.99 -179968 -99999.99 -99999.99 -99999.99 -99999.99
1/9/2023 1:00:00 PM -99999.99 -179968 -99999.99 -99999.99 -99999.99 -99999.99
1/9/2023 1:15:00 PM -99999.99 -179968 -99999.99 -99999.99 -99999.99 -99999.99
1/9/2023 1:30:00 PM -99999.99 -179968 -99999.99 -99999.99 -99999.99 -99999.99
1/9/2023 1:45:00 PM -99999.99 -179968 -99999.99 -99999.99 -99999.99 -99999.99
1/9/2023 2:00:00 PM -99999.99 -179968 -99999.99 -99999.99 -99999.99 -99999.99
1/9/2023 2:15:00 PM -99999.99 -179968 -99999.99 -99999.99 -99999.99 -99999.99
1/9/2023 2:30:00 PM -99999.99 -179968 -99999.99 -99999.99 -99999.99 -99999.99
1/9/2023 2:45:00 PM -99999.99 -179968 -99999.99 -99999.99 -99999.99 -99999.99
1/9/2023 3:00:00 PM -99999.99 -179968 -99999.99 -99999.99 -99999.99 -99999.99
1/9/2023 3:15:00 PM -99999.99 -179968 -99999.99 -99999.99 -99999.99 -99999.99
1/9/2023 3:30:00 PM -99999.99 -179968 -99999.99 -99999.99 -99999.99 -99999.99
1/9/2023 3:45:00 PM -99999.99 -179968 -99999.99 -99999.99 -99999.99 -99999.99
1/9/2023 4:00:00 PM -99999.99 -179968 -99999.99 -99999.99 -99999.99 -99999.99
1/9/2023 4:15:00 PM -99999.99 -179968 -99999.99 -99999.99 -99999.99 -99999.99
1/9/2023 4:30:00 PM -99999.99 -179968 -99999.99 -99999.99 -99999.99 -99999.99
1/9/2023 4:45:00 PM -99999.99 -179968 -99999.99 -99999.99 -99999.99 -99999.99
1/9/2023 5:00:00 PM -99999.99 -179968 -99999.99 -99999.99 -99999.99 -99999.99
1/9/2023 5:15:00 PM -99999.99 -179968 -99999.99 -99999.99 -99999.99 -99999.99
1/9/2023 5:30:00 PM -99999.99 -179968 -99999.99 -99999.99 -99999.99 -99999.99
1/9/2023 5:45:00 PM -99999.99 -179968 -99999.99 -99999.99 -99999.99 -99999.99
1/9/2023 6:00:00 PM -99999.99 -179968 -99999.99 -99999.99 -99999.99 -99999.99
1/9/2023 6:15:00 PM -99999.99 -179968 -99999.99 -99999.99 -99999.99 -99999.99
1/9/2023 6:30:00 PM -99999.99 -179968 -99999.99 -99999.99 -99999.99 -99999.99
1/9/2023 6:45:00 PM -99999.99 -179968 -99999.99 -99999.99 -99999.99 -99999.99
1/9/2023 7:00:00 PM -99999.99 -179968 -99999.99 -99999.99 -99999.99 -99999.99
1/9/2023 7:15:00 PM -99999.99 -179968 -99999.99 -99999.99 -99999.99 -99999.99
1/9/2023 7:30:00 PM -99999.99 -179968 -99999.99 -99999.99 -99999.99 -99999.99
1/9/2023 7:45:00 PM -99999.99 -179968 -99999.99 -99999.99 -99999.99 -99999.99
1/9/2023 8:00:00 PM -99999.99 -179968 -99999.99 -99999.99 -99999.99 -99999.99
1/9/2023 8:15:00 PM -99999.99 -179968 -99999.99 -99999.99 -99999.99 -99999.99
1/9/2023 8:30:00 PM -99999.99 -179968 -99999.99 -99999.99 -99999.99 -99999.99
1/9/2023 8:45:00 PM -99999.99 -179968 -99999.99 -99999.99 -99999.99 -99999.99
1/9/2023 9:00:00 PM -99999.99 -179968 -99999.99 -99999.99 -99999.99 -99999.99
1/9/2023 9:15:00 PM -99999.99 -179968 -99999.99 -99999.99 -99999.99 -99999.99
1/9/2023 9:30:00 PM -99999.99 -179968 -99999.99 -99999.99 -99999.99 -99999.99
1/9/2023 9:45:00 PM -99999.99 -179968 -99999.99 -99999.99 -99999.99 -99999.99
1/9/2023 10:00:00 PM -99999.99 -179968 -99999.99 -99999.99 -99999.99 -99999.99
1/9/2023 10:15:00 PM -99999.99 -179968 -99999.99 -99999.99 -99999.99 -99999.99
1/9/2023 10:30:00 PM -99999.99 -179968 -99999.99 -99999.99 -99999.99 -99999.99
1/9/2023 10:45:00 PM -99999.99 -179968 -99999.99 -99999.99 -99999.99 -99999.99
1/9/2023 11:00:00 PM -99999.99 -179968 -99999.99 -99999.99 -99999.99 -99999.99
1/9/2023 11:15:00 PM -99999.99 -179968 -99999.99 -99999.99 -99999.99 -99999.99
1/9/2023 11:30:00 PM -99999.99 -179968 -99999.99 -99999.99 -99999.99 -99999.99
1/9/2023 11:45:00 PM -99999.99 -179968 -99999.99 -99999.99 -99999.99 -99999.99
1/10/2023 12:00:00 AM -99999.99 -179968 -99999.99 -99999.99 -99999.99 -99999.99
1/10/2023 12:15:00 AM -99999.99 -179968 -99999.99 -99999.99 -99999.99 -99999.99
1/10/2023 12:30:00 AM -99999.99 -179968 -99999.99 -99999.99 -99999.99 -99999.99
1/10/2023 12:45:00 AM -99999.99 -179968 -99999.99 -99999.99 -99999.99 -99999.99
1/10/2023 1:00:00 AM -99999.99 -179968 -99999.99 -99999.99 -99999.99 -99999.99
1/10/2023 1:15:00 AM -99999.99 -179968 -99999.99 -99999.99 -99999.99 -99999.99
1/10/2023 1:30:00 AM -99999.99 -179968 -99999.99 -99999.99 -99999.99 -99999.99
1/10/2023 1:45:00 AM -99999.99 -179968 -99999.99 -99999.99 -99999.99 -99999.99
1/10/2023 2:00:00 AM -99999.99 -179968 -99999.99 -99999.99 -99999.99 -99999.99
1/10/2023 2:15:00 AM -99999.99 -179968 -99999.99 -99999.99 -99999.99 -99999.99
1/10/2023 2:30:00 AM -99999.99 -179968 -99999.99 -99999.99 -99999.99 -99999.99
1/10/2023 2:45:00 AM -99999.99 -179968 -99999.99 -99999.99 -99999.99 -99999.99
1/10/2023 3:00:00 AM -99999.99 -179968 -99999.99 -99999.99 -99999.99 -99999.99
1/10/2023 3:15:00 AM -99999.99 -179968 -99999.99 -99999.99 -99999.99 -99999.99
1/10/2023 3:30:00 AM -99999.99 -179968 -99999.99 -99999.99 -99999.99 -99999.99
1/10/2023 3:45:00 AM -99999.99 -179968 -99999.99 -99999.99 -99999.99 -99999.99
1/10/2023 4:00:00 AM -99999.99 -179968 -99999.99 -99999.99 -99999.99 -99999.99
1/10/2023 4:15:00 AM -99999.99 -179968 -99999.99 -99999.99 -99999.99 -99999.99
1/10/2023 4:30:00 AM -99999.99 -179968 -99999.99 -99999.99 -99999.99 -99999.99
1/10/2023 4:45:00 AM -99999.99 -179968 -99999.99 -99999.99 -99999.99 -99999.99
1/10/2023 5:00:00 AM -99999.99 -179968 -99999.99 -99999.99 -99999.99 -99999.99
1/10/2023 5:15:00 AM -99999.99 -179968 -99999.99 -99999.99 -99999.99 -99999.99
1/10/2023 5:30:00 AM -99999.99 -179968 -99999.99 -99999.99 -99999.99 -99999.99
1/10/2023 5:45:00 AM -99999.99 -179968 -99999.99 -99999.99 -99999.99 -99999.99
1/10/2023 6:00:00 AM -99999.99 -179968 -99999.99 -99999.99 -99999.99 -99999.99
1/10/2023 6:15:00 AM -99999.99 -179968 -99999.99 -99999.99 -99999.99 -99999.99
1/10/2023 6:30:00 AM -99999.99 -179968 -99999.99 -99999.99 -99999.99 -99999.99
1/10/2023 6:45:00 AM -99999.99 -179968 -99999.99 -99999.99 -99999.99 -99999.99
1/10/2023 7:00:00 AM -99999.99 -179968 -99999.99 -99999.99 -99999.99 -99999.99
1/10/2023 7:15:00 AM -99999.99 -179968 -99999.99 -99999.99 -99999.99 -99999.99
1/10/2023 7:30:00 AM -99999.99 -179968 -99999.99 -99999.99 -99999.99 -99999.99
1/10/2023 7:45:00 AM -99999.99 -179968 -99999.99 -99999.99 -99999.99 -99999.99
1/10/2023 8:00:00 AM -99999.99 -179968 -99999.99 -99999.99 -99999.99 -99999.99
1/10/2023 8:15:00 AM -99999.99 -179968 -99999.99 -99999.99 -99999.99 -99999.99
1/10/2023 8:30:00 AM -99999.99 -179968 -99999.99 -99999.99 -99999.99 -99999.99
1/10/2023 8:45:00 AM -99999.99 -179968 -99999.99 -99999.99 -99999.99 -99999.99
1/10/2023 9:00:00 AM -99999.99 -179968 -99999.99 -99999.99 -99999.99 -99999.99
1/10/2023 9:15:00 AM -99999.99 -179968 -99999.99 -99999.99 -99999.99 -99999.99
1/10/2023 9:30:00 AM -99999.99 -179968 -99999.99 -99999.99 -99999.99 -99999.99
1/10/2023 9:45:00 AM -99999.99 -179968 -99999.99 -99999.99 -99999.99 -99999.99
1/10/2023 10:00:00 AM -99999.99 -179968 -99999.99 -99999.99 -99999.99 -99999.99
1/10/2023 10:15:00 AM -99999.99 -179968 -99999.99 -99999.99 -99999.99 -99999.99
1/10/2023 10:30:00 AM -99999.99 -179968 -99999.99 -99999.99 -99999.99 -99999.99
1/10/2023 10:45:00 AM -99999.99 -179968 -99999.99 -99999.99 -99999.99 -99999.99
1/10/2023 11:00:00 AM -99999.99 -179968 -99999.99 -99999.99 -99999.99 -99999.99
1/10/2023 11:15:00 AM -99999.99 -179968 -99999.99 -99999.99 -99999.99 -99999.99
1/10/2023 11:30:00 AM -99999.99 -179968 -99999.99 -99999.99 -99999.99 -99999.99
1/10/2023 11:45:00 AM -99999.99 -179968 -99999.99 -99999.99 -99999.99 -99999.99
1/10/2023 12:00:00 PM -99999.99 -179968 -99999.99 -99999.99 -99999.99 -99999.99
1/10/2023 12:15:00 PM -99999.99 -179968 -99999.99 -99999.99 -99999.99 -99999.99
1/10/2023 12:30:00 PM -99999.99 -179968 -99999.99 -99999.99 -99999.99 -99999.99
1/10/2023 12:45:00 PM -99999.99 -179968 -99999.99 -99999.99 -99999.99 -99999.99
1/10/2023 1:00:00 PM -99999.99 -179968 -99999.99 -99999.99 -99999.99 -99999.99
1/10/2023 1:15:00 PM -99999.99 -179968 -99999.99 -99999.99 -99999.99 -99999.99
1/10/2023 1:30:00 PM -99999.99 -179968 -99999.99 -99999.99 -99999.99 -99999.99
1/10/2023 1:45:00 PM -99999.99 -179968 -99999.99 -99999.99 -99999.99 -99999.99
1/10/2023 2:00:00 PM -99999.99 -179968 -99999.99 -99999.99 -99999.99 -99999.99
1/10/2023 2:15:00 PM -99999.99 -179968 -99999.99 -99999.99 -99999.99 -99999.99
1/10/2023 2:30:00 PM -99999.99 -179968 -99999.99 -99999.99 -99999.99 -99999.99
1/10/2023 2:45:00 PM -99999.99 -179968 -99999.99 -99999.99 -99999.99 -99999.99
1/10/2023 3:00:00 PM -99999.99 -179968 -99999.99 -99999.99 -99999.99 -99999.99
1/10/2023 3:15:00 PM -99999.99 -179968 -99999.99 -99999.99 -99999.99 -99999.99
1/10/2023 3:30:00 PM -99999.99 -179968 -99999.99 -99999.99 -99999.99 -99999.99
1/10/2023 3:45:00 PM -99999.99 -179968 -99999.99 -99999.99 -99999.99 -99999.99
1/10/2023 4:00:00 PM -99999.99 -179968 -99999.99 -99999.99 -99999.99 -99999.99
1/10/2023 4:15:00 PM -99999.99 -179968 -99999.99 -99999.99 -99999.99 -99999.99
1/10/2023 4:30:00 PM -99999.99 -179968 -99999.99 -99999.99 -99999.99 -99999.99
1/10/2023 4:45:00 PM -99999.99 -179968 -99999.99 -99999.99 -99999.99 -99999.99
1/10/2023 5:00:00 PM -99999.99 -179968 -99999.99 -99999.99 -99999.99 -99999.99
1/10/2023 5:15:00 PM -99999.99 -179968 -99999.99 -99999.99 -99999.99 -99999.99
1/10/2023 5:30:00 PM -99999.99 -179968 -99999.99 -99999.99 -99999.99 -99999.99
1/10/2023 5:45:00 PM -99999.99 -179968 -99999.99 -99999.99 -99999.99 -99999.99
1/10/2023 6:00:00 PM -99999.99 -179968 -99999.99 -99999.99 -99999.99 -99999.99
1/10/2023 6:15:00 PM -99999.99 -179968 -99999.99 -99999.99 -99999.99 -99999.99
1/10/2023 6:30:00 PM -99999.99 -179968 -99999.99 -99999.99 -99999.99 -99999.99
1/10/2023 6:45:00 PM -99999.99 -179968 -99999.99 -99999.99 -99999.99 -99999.99
1/10/2023 7:00:00 PM -99999.99 -179968 -99999.99 -99999.99 -99999.99 -99999.99
1/10/2023 7:15:00 PM -99999.99 -179968 -99999.99 -99999.99 -99999.99 -99999.99
1/10/2023 7:30:00 PM -99999.99 -179968 -99999.99 -99999.99 -99999.99 -99999.99
1/10/2023 7:45:00 PM -99999.99 -179968 -99999.99 -99999.99 -99999.99 -99999.99
1/10/2023 8:00:00 PM -99999.99 -179968 -99999.99 -99999.99 -99999.99 -99999.99
1/10/2023 8:15:00 PM -99999.99 -179968 -99999.99 -99999.99 -99999.99 -99999.99
1/10/2023 8:30:00 PM -99999.99 -179968 -99999.99 -99999.99 -99999.99 -99999.99
1/10/2023 8:45:00 PM -99999.99 -179968 -99999.99 -99999.99 -99999.99 -99999.99
1/10/2023 9:00:00 PM -99999.99 -179968 -99999.99 -99999.99 -99999.99 -99999.99
1/10/2023 9:15:00 PM -99999.99 -179968 -99999.99 -99999.99 -99999.99 -99999.99
1/10/2023 9:30:00 PM -99999.99 -179968 -99999.99 -99999.99 -99999.99 -99999.99
1/10/2023 9:45:00 PM -99999.99 -179968 -99999.99 -99999.99 -99999.99 -99999.99
1/10/2023 10:00:00 PM -99999.99 -179968 -99999.99 -99999.99 -99999.99 -99999.99
1/10/2023 10:15:00 PM -99999.99 -179968 -99999.99 -99999.99 -99999.99 -99999.99
1/10/2023 10:30:00 PM -99999.99 -179968 -99999.99 -99999.99 -99999.99 -99999.99
1/10/2023 10:45:00 PM -99999.99 -179968 -99999.99 -99999.99 -99999.99 -99999.99
1/10/2023 11:00:00 PM -99999.99 -179968 -99999.99 -99999.99 -99999.99 -99999.99
1/10/2023 11:15:00 PM -99999.99 -179968 -99999.99 -99999.99 -99999.99 -99999.99
1/10/2023 11:30:00 PM -99999.99 -179968 -99999.99 -99999.99 -99999.99 -99999.99
1/10/2023 11:45:00 PM -99999.99 -179968 -99999.99 -99999.99 -99999.99 -99999.99
1/11/2023 12:00:00 AM -99999.99 -179968 -99999.99 -99999.99 -99999.99 -99999.99
1/11/2023 12:15:00 AM -99999.99 -179968 -99999.99 -99999.99 -99999.99 -99999.99
1/11/2023 12:30:00 AM -99999.99 -179968 -99999.99 -99999.99 -99999.99 -99999.99
1/11/2023 12:45:00 AM -99999.99 -179968 -99999.99 -99999.99 -99999.99 -99999.99
1/11/2023 1:00:00 AM -99999.99 -179968 -99999.99 -99999.99 -99999.99 -99999.99
1/11/2023 1:15:00 AM -99999.99 -179968 -99999.99 -99999.99 -99999.99 -99999.99
1/11/2023 1:30:00 AM -99999.99 -179968 -99999.99 -99999.99 -99999.99 -99999.99
1/11/2023 1:45:00 AM -99999.99 -179968 -99999.99 -99999.99 -99999.99 -99999.99
1/11/2023 2:00:00 AM -99999.99 -179968 -99999.99 -99999.99 -99999.99 -99999.99
1/11/2023 2:15:00 AM -99999.99 -179968 -99999.99 -99999.99 -99999.99 -99999.99
1/11/2023 2:30:00 AM -99999.99 -179968 -99999.99 -99999.99 -99999.99 -99999.99
1/11/2023 2:45:00 AM -99999.99 -179968 -99999.99 -99999.99 -99999.99 -99999.99
1/11/2023 3:00:00 AM -99999.99 -179968 -99999.99 -99999.99 -99999.99 -99999.99
1/11/2023 3:15:00 AM -99999.99 -179968 -99999.99 -99999.99 -99999.99 -99999.99
1/11/2023 3:30:00 AM -99999.99 -179968 -99999.99 -99999.99 -99999.99 -99999.99
1/11/2023 3:45:00 AM -99999.99 -179968 -99999.99 -99999.99 -99999.99 -99999.99
1/11/2023 4:00:00 AM -99999.99 -179968 -99999.99 -99999.99 -99999.99 -99999.99
1/11/2023 4:15:00 AM -99999.99 -179968 -99999.99 -99999.99 -99999.99 -99999.99
1/11/2023 4:30:00 AM -99999.99 -179968 -99999.99 -99999.99 -99999.99 -99999.99
1/11/2023 4:45:00 AM -99999.99 -179968 -99999.99 -99999.99 -99999.99 -99999.99
1/11/2023 5:00:00 AM -99999.99 -179968 -99999.99 -99999.99 -99999.99 -99999.99
1/11/2023 5:15:00 AM -99999.99 -179968 -99999.99 -99999.99 -99999.99 -99999.99
1/11/2023 5:30:00 AM -99999.99 -179968 -99999.99 -99999.99 -99999.99 -99999.99
1/11/2023 5:45:00 AM -99999.99 -179968 -99999.99 -99999.99 -99999.99 -99999.99
1/11/2023 6:00:00 AM -99999.99 -179968 -99999.99 -99999.99 -99999.99 -99999.99
1/11/2023 6:15:00 AM -99999.99 -179968 -99999.99 -99999.99 -99999.99 -99999.99
1/11/2023 6:30:00 AM -99999.99 -179968 -99999.99 -99999.99 -99999.99 -99999.99
1/11/2023 6:45:00 AM -99999.99 -179968 -99999.99 -99999.99 -99999.99 -99999.99
1/11/2023 7:00:00 AM -99999.99 -179968 -99999.99 -99999.99 -99999.99 -99999.99
1/11/2023 7:15:00 AM -99999.99 -179968 -99999.99 -99999.99 -99999.99 -99999.99
1/11/2023 7:30:00 AM -99999.99 -179968 -99999.99 -99999.99 -99999.99 -99999.99
1/11/2023 7:45:00 AM -99999.99 -179968 -99999.99 -99999.99 -99999.99 -99999.99
1/11/2023 8:00:00 AM -99999.99 -179968 -99999.99 -99999.99 -99999.99 -99999.99
1/11/2023 8:15:00 AM -99999.99 -179968 -99999.99 -99999.99 -99999.99 -99999.99
1/11/2023 8:30:00 AM -99999.99 -179968 -99999.99 -99999.99 -99999.99 -99999.99
1/11/2023 8:45:00 AM -99999.99 -179968 -99999.99 -99999.99 -99999.99 -99999.99
1/11/2023 9:00:00 AM -99999.99 -179968 -99999.99 -99999.99 -99999.99 -99999.99
1/11/2023 9:15:00 AM -99999.99 -179968 -99999.99 -99999.99 -99999.99 -99999.99
1/11/2023 9:30:00 AM -99999.99 -179968 -99999.99 -99999.99 -99999.99 -99999.99
1/11/2023 9:45:00 AM -99999.99 -179968 -99999.99 -99999.99 -99999.99 -99999.99
1/11/2023 10:00:00 AM -99999.99 -179968 -99999.99 -99999.99 -99999.99 -99999.99
1/11/2023 10:15:00 AM -99999.99 -179968 -99999.99 -99999.99 -99999.99 -99999.99
1/11/2023 10:30:00 AM -99999.99 -179968 -99999.99 -99999.99 -99999.99 -99999.99
1/11/2023 10:45:00 AM -99999.99 -179968 -99999.99 -99999.99 -99999.99 -99999.99
1/11/2023 11:00:00 AM -99999.99 -179968 -99999.99 -99999.99 -99999.99 -99999.99
1/11/2023 11:15:00 AM -99999.99 -179968 -99999.99 -99999.99 -99999.99 -99999.99
1/11/2023 11:30:00 AM -99999.99 -179968 -99999.99 -99999.99 -99999.99 -99999.99
1/11/2023 11:45:00 AM -99999.99 -179968 -99999.99 -99999.99 -99999.99 -99999.99
1/11/2023 12:00:00 PM -99999.99 -179968 -99999.99 -99999.99 -99999.99 -99999.99
1/11/2023 12:15:00 PM -99999.99 -179968 -99999.99 -99999.99 -99999.99 -99999.99
1/11/2023 12:30:00 PM -99999.99 -179968 -99999.99 -99999.99 -99999.99 -99999.99
1/11/2023 12:45:00 PM -99999.99 -179968 -99999.99 -99999.99 -99999.99 -99999.99
1/11/2023 1:00:00 PM -99999.99 -179968 -99999.99 -99999.99 -99999.99 -99999.99
1/11/2023 1:15:00 PM -99999.99 -179968 -99999.99 -99999.99 -99999.99 -99999.99
1/11/2023 1:30:00 PM -99999.99 -179968 -99999.99 -99999.99 -99999.99 -99999.99
1/11/2023 1:45:00 PM -99999.99 -179968 -99999.99 -99999.99 -99999.99 -99999.99
1/11/2023 2:00:00 PM -99999.99 -179968 -99999.99 -99999.99 -99999.99 -99999.99
1/11/2023 2:15:00 PM -99999.99 -179968 -99999.99 -99999.99 -99999.99 -99999.99
1/11/2023 2:30:00 PM -99999.99 -179968 -99999.99 -99999.99 -99999.99 -99999.99
1/11/2023 2:45:00 PM -99999.99 -179968 -99999.99 -99999.99 -99999.99 -99999.99
1/11/2023 3:00:00 PM -99999.99 -179968 -99999.99 -99999.99 -99999.99 -99999.99
1/11/2023 3:15:00 PM -99999.99 -179968 -99999.99 -99999.99 -99999.99 -99999.99
1/11/2023 3:30:00 PM -99999.99 -179968 -99999.99 -99999.99 -99999.99 -99999.99
1/11/2023 3:45:00 PM -99999.99 -179968 -99999.99 -99999.99 -99999.99 -99999.99
1/11/2023 4:00:00 PM -99999.99 -179968 -99999.99 -99999.99 -99999.99 -99999.99
1/11/2023 4:15:00 PM -99999.99 -179968 -99999.99 -99999.99 -99999.99 -99999.99
1/11/2023 4:30:00 PM -99999.99 -179968 -99999.99 -99999.99 -99999.99 -99999.99
1/11/2023 4:45:00 PM -99999.99 -179968 -99999.99 -99999.99 -99999.99 -99999.99
1/11/2023 5:00:00 PM -99999.99 -179968 -99999.99 -99999.99 -99999.99 -99999.99
1/11/2023 5:15:00 PM -99999.99 -179968 -99999.99 -99999.99 -99999.99 -99999.99
1/11/2023 5:30:00 PM -99999.99 -179968 -99999.99 -99999.99 -99999.99 -99999.99
1/11/2023 5:45:00 PM -99999.99 -179968 -99999.99 -99999.99 -99999.99 -99999.99
1/11/2023 6:00:00 PM -99999.99 -179968 -99999.99 -99999.99 -99999.99 -99999.99
1/11/2023 6:15:00 PM -99999.99 -179968 -99999.99 -99999.99 -99999.99 -99999.99
1/11/2023 6:30:00 PM -99999.99 -179968 -99999.99 -99999.99 -99999.99 -99999.99
1/11/2023 6:45:00 PM -99999.99 -179968 -99999.99 -99999.99 -99999.99 -99999.99
1/11/2023 7:00:00 PM -99999.99 -179968 -99999.99 -99999.99 -99999.99 -99999.99
1/11/2023 7:15:00 PM -99999.99 -179968 -99999.99 -99999.99 -99999.99 -99999.99
1/11/2023 7:30:00 PM -99999.99 -179968 -99999.99 -99999.99 -99999.99 -99999.99
1/11/2023 7:45:00 PM -99999.99 -179968 -99999.99 -99999.99 -99999.99 -99999.99
1/11/2023 8:00:00 PM -99999.99 -179968 -99999.99 -99999.99 -99999.99 -99999.99
1/11/2023 8:15:00 PM -99999.99 -179968 -99999.99 -99999.99 -99999.99 -99999.99
1/11/2023 8:30:00 PM -99999.99 -179968 -99999.99 -99999.99 -99999.99 -99999.99
1/11/2023 8:45:00 PM -99999.99 -179968 -99999.99 -99999.99 -99999.99 -99999.99
1/11/2023 9:00:00 PM -99999.99 -179968 -99999.99 -99999.99 -99999.99 -99999.99
1/11/2023 9:15:00 PM -99999.99 -179968 -99999.99 -99999.99 -99999.99 -99999.99
1/11/2023 9:30:00 PM -99999.99 -179968 -99999.99 -99999.99 -99999.99 -99999.99
1/11/2023 9:45:00 PM -99999.99 -179968 -99999.99 -99999.99 -99999.99 -99999.99
1/11/2023 10:00:00 PM -99999.99 -179968 -99999.99 -99999.99 -99999.99 -99999.99
1/11/2023 10:15:00 PM -99999.99 -179968 -99999.99 -99999.99 -99999.99 -99999.99
1/11/2023 10:30:00 PM -99999.99 -179968 -99999.99 -99999.99 -99999.99 -99999.99
1/11/2023 10:45:00 PM -99999.99 -179968 -99999.99 -99999.99 -99999.99 -99999.99
1/11/2023 11:00:00 PM -99999.99 -179968 -99999.99 -99999.99 -99999.99 -99999.99
1/11/2023 11:15:00 PM -99999.99 -179968 -99999.99 -99999.99 -99999.99 -99999.99
1/11/2023 11:30:00 PM -99999.99 -179968 -99999.99 -99999.99 -99999.99 -99999.99
1/11/2023 11:45:00 PM -99999.99 -179968 -99999.99 -99999.99 -99999.99 -99999.99
1/12/2023 12:00:00 AM -99999.99 -179968 -99999.99 -99999.99 -99999.99 -99999.99
1/12/2023 12:15:00 AM -99999.99 -179968 -99999.99 -99999.99 -99999.99 -99999.99
1/12/2023 12:30:00 AM -99999.99 -179968 -99999.99 -99999.99 -99999.99 -99999.99
1/12/2023 12:45:00 AM -99999.99 -179968 -99999.99 -99999.99 -99999.99 -99999.99
1/12/2023 1:00:00 AM -99999.99 -179968 -99999.99 -99999.99 -99999.99 -99999.99
1/12/2023 1:15:00 AM -99999.99 -179968 -99999.99 -99999.99 -99999.99 -99999.99
1/12/2023 1:30:00 AM -99999.99 -179968 -99999.99 -99999.99 -99999.99 -99999.99
1/12/2023 1:45:00 AM -99999.99 -179968 -99999.99 -99999.99 -99999.99 -99999.99
1/12/2023 2:00:00 AM -99999.99 -179968 -99999.99 -99999.99 -99999.99 -99999.99
1/12/2023 2:15:00 AM -99999.99 -179968 -99999.99 -99999.99 -99999.99 -99999.99
1/12/2023 2:30:00 AM -99999.99 -179968 -99999.99 -99999.99 -99999.99 -99999.99
1/12/2023 2:45:00 AM -99999.99 -179968 -99999.99 -99999.99 -99999.99 -99999.99
1/12/2023 3:00:00 AM -99999.99 -179968 -99999.99 -99999.99 -99999.99 -99999.99
1/12/2023 3:15:00 AM -99999.99 -179968 -99999.99 -99999.99 -99999.99 -99999.99
1/12/2023 3:30:00 AM -99999.99 -179968 -99999.99 -99999.99 -99999.99 -99999.99
1/12/2023 3:45:00 AM -99999.99 -179968 -99999.99 -99999.99 -99999.99 -99999.99
1/12/2023 4:00:00 AM -99999.99 -179968 -99999.99 -99999.99 -99999.99 -99999.99
1/12/2023 4:15:00 AM -99999.99 -179968 -99999.99 -99999.99 -99999.99 -99999.99
1/12/2023 4:30:00 AM -99999.99 -179968 -99999.99 -99999.99 -99999.99 -99999.99
1/12/2023 4:45:00 AM -99999.99 -179968 -99999.99 -99999.99 -99999.99 -99999.99
1/12/2023 5:00:00 AM -99999.99 -179968 -99999.99 -99999.99 -99999.99 -99999.99
1/12/2023 5:15:00 AM -99999.99 -179968 -99999.99 -99999.99 -99999.99 -99999.99
1/12/2023 5:30:00 AM -99999.99 -179968 -99999.99 -99999.99 -99999.99 -99999.99
1/12/2023 5:45:00 AM -99999.99 -179968 -99999.99 -99999.99 -99999.99 -99999.99
1/12/2023 6:00:00 AM -99999.99 -179968 -99999.99 -99999.99 -99999.99 -99999.99
1/12/2023 6:15:00 AM -99999.99 -179968 -99999.99 -99999.99 -99999.99 -99999.99
1/12/2023 6:30:00 AM -99999.99 -179968 -99999.99 -99999.99 -99999.99 -99999.99
1/12/2023 6:45:00 AM -99999.99 -179968 -99999.99 -99999.99 -99999.99 -99999.99
1/12/2023 7:00:00 AM -99999.99 -179968 -99999.99 -99999.99 -99999.99 -99999.99
1/12/2023 7:15:00 AM -99999.99 -179968 -99999.99 -99999.99 -99999.99 -99999.99
1/12/2023 7:30:00 AM -99999.99 -179968 -99999.99 -99999.99 -99999.99 -99999.99
1/12/2023 7:45:00 AM -99999.99 -179968 -99999.99 -99999.99 -99999.99 -99999.99
1/12/2023 8:00:00 AM -99999.99 -179968 -99999.99 -99999.99 -99999.99 -99999.99
1/12/2023 8:15:00 AM -99999.99 -179968 -99999.99 -99999.99 -99999.99 -99999.99
1/12/2023 8:30:00 AM -99999.99 -179968 -99999.99 -99999.99 -99999.99 -99999.99
1/12/2023 8:45:00 AM -99999.99 -179968 -99999.99 -99999.99 -99999.99 -99999.99
1/12/2023 9:00:00 AM -99999.99 -179968 -99999.99 -99999.99 -99999.99 -99999.99
1/12/2023 9:15:00 AM -99999.99 -179968 -99999.99 -99999.99 -99999.99 -99999.99
1/12/2023 9:30:00 AM -99999.99 -179968 -99999.99 -99999.99 -99999.99 -99999.99
1/12/2023 9:45:00 AM -99999.99 -179968 -99999.99 -99999.99 -99999.99 -99999.99
1/12/2023 10:00:00 AM -99999.99 -179968 -99999.99 -99999.99 -99999.99 -99999.99
1/12/2023 10:15:00 AM -99999.99 -179968 -99999.99 -99999.99 -99999.99 -99999.99
1/12/2023 10:30:00 AM -99999.99 -179968 -99999.99 -99999.99 -99999.99 -99999.99
1/12/2023 10:45:00 AM -99999.99 -179968 -99999.99 -99999.99 -99999.99 -99999.99
1/12/2023 11:00:00 AM -99999.99 -179968 -99999.99 -99999.99 -99999.99 -99999.99
1/12/2023 11:15:00 AM -99999.99 -179968 -99999.99 -99999.99 -99999.99 -99999.99
1/12/2023 11:30:00 AM -99999.99 -179968 -99999.99 -99999.99 -99999.99 -99999.99
1/12/2023 11:45:00 AM -99999.99 -179968 -99999.99 -99999.99 -99999.99 -99999.99
1/12/2023 12:00:00 PM -99999.99 -179968 -99999.99 -99999.99 -99999.99 -99999.99
1/12/2023 12:15:00 PM -99999.99 -179968 -99999.99 -99999.99 -99999.99 -99999.99
1/12/2023 12:30:00 PM -99999.99 -179968 -99999.99 -99999.99 -99999.99 -99999.99
1/12/2023 12:45:00 PM -99999.99 -179968 -99999.99 -99999.99 -99999.99 -99999.99
1/12/2023 1:00:00 PM -99999.99 -179968 -99999.99 -99999.99 -99999.99 -99999.99
1/12/2023 1:15:00 PM -99999.99 -179968 -99999.99 -99999.99 -99999.99 -99999.99
1/12/2023 1:30:00 PM -99999.99 -179968 -99999.99 -99999.99 -99999.99 -99999.99
1/12/2023 1:45:00 PM -99999.99 -179968 -99999.99 -99999.99 -99999.99 -99999.99
1/12/2023 2:00:00 PM -99999.99 -179968 -99999.99 -99999.99 -99999.99 -99999.99
1/12/2023 2:15:00 PM -99999.99 -179968 -99999.99 -99999.99 -99999.99 -99999.99
1/12/2023 2:30:00 PM 4.11 39.398 0.087 7.32 2.54 13.26
1/12/2023 2:45:00 PM 4.13 39.434 0.087 7.34 2.57 13.23
1/12/2023 3:00:00 PM 4.15 39.47 0.087 7.34 2.58 13.18
1/12/2023 3:15:00 PM 4.17 39.506 0.087 7.35 2.59 13.13
1/12/2023 3:30:00 PM 4.2 39.56 0.087 7.34 2.83 13.06
1/12/2023 3:45:00 PM 4.22 39.596 0.087 7.31 2.74 13.02
1/12/2023 4:00:00 PM 4.24 39.632 0.087 7.34 2.93 12.96
1/12/2023 4:15:00 PM 4.26 39.668 0.087 7.3 2.92 12.92
1/12/2023 4:30:00 PM 4.28 39.704 0.086 7.3 2.98 12.88
1/12/2023 4:45:00 PM 4.3 39.74 0.086 7.3 3.45 12.83
1/12/2023 5:00:00 PM 4.32 39.776 0.086 7.29 3.51 12.77
1/12/2023 5:15:00 PM 4.34 39.812 0.086 7.24 3.58 12.73
1/12/2023 5:30:00 PM 4.36 39.848 0.087 7.27 3.55 12.68
1/12/2023 5:45:00 PM 4.38 39.884 0.087 7.26 4.1 12.64
1/12/2023 6:00:00 PM 4.4 39.92 0.087 7.27 5.32 12.61
1/12/2023 6:15:00 PM 4.43 39.974 0.088 7.25 7.34 12.57
1/12/2023 6:30:00 PM 4.45 40.01 0.089 7.21 8.48 12.54
1/12/2023 6:45:00 PM 4.47 40.046 0.089 7.26 8.44 12.52
1/12/2023 7:00:00 PM 4.5 40.1 0.089 7.19 8.58 12.49
1/12/2023 7:15:00 PM 4.52 40.136 0.09 7.25 10.43 12.47
1/12/2023 7:30:00 PM 4.54 40.172 0.091 7.19 13.21 12.45
1/12/2023 7:45:00 PM 4.57 40.226 0.092 7.26 13.87 12.43
1/12/2023 8:00:00 PM 4.59 40.262 0.093 7.23 15.9 12.41
1/12/2023 8:15:00 PM 4.6 40.28 0.094 7.24 18.19 12.39
1/12/2023 8:30:00 PM 4.62 40.316 0.095 7.26 18.23 12.38
1/12/2023 8:45:00 PM 4.64 40.352 0.096 7.24 18.67 12.36
1/12/2023 9:00:00 PM 4.66 40.388 0.096 7.26 18.53 12.35
1/12/2023 9:15:00 PM 4.68 40.424 0.095 7.25 17.95 12.33
1/12/2023 9:30:00 PM 4.7 40.46 0.095 7.18 16.63 12.32
1/12/2023 9:45:00 PM 4.71 40.478 0.094 7.25 14.41 12.32
1/12/2023 10:00:00 PM 4.73 40.514 0.094 7.18 14.78 12.3
1/12/2023 10:15:00 PM 4.75 40.55 0.093 7.24 13.9 12.29
1/12/2023 10:30:00 PM 4.77 40.586 0.093 7.18 13.96 12.28
1/12/2023 10:45:00 PM 4.8 40.64 0.093 7.24 14.65 12.27
1/12/2023 11:00:00 PM 4.82 40.676 0.094 7.24 13.84 12.26
1/12/2023 11:15:00 PM 4.84 40.712 0.094 7.25 13.12 12.24
1/12/2023 11:30:00 PM 4.87 40.766 0.094 7.22 14.62 12.23
1/12/2023 11:45:00 PM 4.89 40.802 0.093 7.24 12.67 12.22
1/13/2023 12:00:00 AM 4.91 40.838 0.093 7.23 12.28 12.21
1/13/2023 12:15:00 AM 4.94 40.892 0.093 7.24 11.75 12.21
1/13/2023 12:30:00 AM 4.96 40.928 0.093 7.16 12.55 12.19
1/13/2023 12:45:00 AM 4.98 40.964 0.093 7.2 14.15 12.18
1/13/2023 1:00:00 AM 5 41 0.093 7.24 12.89 12.17
1/13/2023 1:15:00 AM 5.02 41.036 0.093 7.15 13.15 12.16
1/13/2023 1:30:00 AM 5.05 41.09 0.092 7.23 13.18 12.15
1/13/2023 1:45:00 AM 5.07 41.126 0.092 7.21 12.8 12.14
1/13/2023 2:00:00 AM 5.08 41.144 0.092 7.22 13.77 12.12
1/13/2023 2:15:00 AM 5.1 41.18 0.092 7.18 11.22 12.12
1/13/2023 2:30:00 AM 5.12 41.216 0.093 7.22 12.75 12.11
1/13/2023 2:45:00 AM 5.14 41.252 0.093 7.15 13.74 12.09
1/13/2023 3:00:00 AM 5.16 41.288 0.094 7.23 13.51 12.09
1/13/2023 3:15:00 AM 5.18 41.324 0.094 7.21 15.45 12.08
1/13/2023 3:30:00 AM 5.19 41.342 0.095 7.23 17.15 12.07
1/13/2023 3:45:00 AM 5.21 41.378 0.096 7.14 18.81 12.06
1/13/2023 4:00:00 AM 5.23 41.414 0.096 7.23 21.61 12.06
1/13/2023 4:15:00 AM 5.25 41.45 0.097 7.22 23.8 12.05
1/13/2023 4:30:00 AM 5.27 41.486 0.097 7.23 24.65 12.04
1/13/2023 4:45:00 AM 5.29 41.522 0.098 7.16 24.55 12.04
1/13/2023 5:00:00 AM 5.31 41.558 0.097 7.23 25.04 12.03
1/13/2023 5:15:00 AM 5.33 41.594 0.097 7.15 23.01 12.03
1/13/2023 5:30:00 AM 5.35 41.63 0.096 7.21 24.51 12.02
1/13/2023 5:45:00 AM 5.37 41.666 0.095 7.16 23.31 12.02
1/13/2023 6:00:00 AM 5.39 41.702 0.095 7.21 21.14 12.01
1/13/2023 6:15:00 AM 5.41 41.738 0.094 7.13 20.79 12.01
1/13/2023 6:30:00 AM 5.43 41.774 0.094 7.2 19.37 12.01
1/13/2023 6:45:00 AM 5.45 41.81 0.093 7.17 19.56 12
1/13/2023 7:00:00 AM 5.47 41.846 0.093 7.18 20.15 11.99
1/13/2023 7:15:00 AM 5.48 41.864 0.092 7.18 18.07 11.98
1/13/2023 7:30:00 AM 5.5 41.9 0.092 7.15 19.24 11.99
1/13/2023 7:45:00 AM 5.51 41.918 0.091 7.18 20 11.98
1/13/2023 8:00:00 AM 5.53 41.954 0.09 7.18 19.45 11.98
1/13/2023 8:15:00 AM 5.53 41.954 0.09 7.2 20.66 11.98
1/13/2023 8:30:00 AM 5.53 41.954 0.089 7.17 20.13 11.99
1/13/2023 8:45:00 AM 5.52 41.936 0.089 7.2 20.04 12
1/13/2023 9:00:00 AM 5.52 41.936 0.089 7.11 20.94 12.01
1/13/2023 9:15:00 AM 5.51 41.918 0.088 7.16 21.12 12.02
1/13/2023 9:30:00 AM 5.51 41.918 0.088 7.2 21.68 12.04
1/13/2023 9:45:00 AM 5.52 41.936 0.088 7.15 22.47 12.07
1/13/2023 10:00:00 AM 5.53 41.954 0.088 7.2 22.8 12.09
1/13/2023 10:15:00 AM 5.55 41.99 0.087 7.21 22.16 12.12
1/13/2023 10:30:00 AM 5.56 42.008 0.087 7.21 20.81 12.16
1/13/2023 10:45:00 AM 5.59 42.062 0.086 7.17 21.04 12.2
1/13/2023 11:00:00 AM 5.61 42.098 0.086 7.2 19.69 12.23
1/13/2023 11:15:00 AM 5.64 42.152 0.086 7.25 20.67 12.27
1/13/2023 11:30:00 AM 5.65 42.17 0.085 7.2 19.71 12.29
1/13/2023 11:45:00 AM 5.68 42.224 0.085 7.26 20.52 12.32
1/13/2023 12:00:00 PM 5.73 42.314 0.085 7.21 19.37 12.36
1/13/2023 12:15:00 PM 5.74 42.332 0.085 7.25 19.09 12.37
1/13/2023 12:30:00 PM 5.75 42.35 0.084 7.28 19.03 12.38
1/13/2023 12:45:00 PM 5.75 42.35 0.084 7.22 17.91 12.4
1/13/2023 1:00:00 PM 5.75 42.35 0.084 7.25 17.58 12.42
1/13/2023 1:15:00 PM 5.73 42.314 0.083 7.26 17.22 12.43
1/13/2023 1:30:00 PM 5.71 42.278 0.083 7.29 15.02 12.44
1/13/2023 1:45:00 PM 5.69 42.242 0.083 7.24 16.13 12.43
1/13/2023 2:00:00 PM 5.66 42.188 0.083 7.29 13.97 12.42
1/13/2023 2:15:00 PM 5.62 42.116 0.083 7.22 12.52 12.42
1/13/2023 2:30:00 PM 5.59 42.062 0.083 7.29 12.82 12.42
1/13/2023 2:45:00 PM 5.56 42.008 0.083 7.21 13.03 12.42
1/13/2023 3:00:00 PM 5.51 41.918 0.083 7.27 11.71 12.4
1/13/2023 3:15:00 PM 5.48 41.864 0.083 7.26 10.79 12.4
1/13/2023 3:30:00 PM 5.44 41.792 0.083 7.23 10.07 12.38
1/13/2023 3:45:00 PM 5.4 41.72 0.083 7.21 10.06 12.37
1/13/2023 4:00:00 PM 5.35 41.63 0.083 7.21 10.06 12.36
1/13/2023 4:15:00 PM 5.3 41.54 0.083 7.2 9.08 12.36
1/13/2023 4:30:00 PM 5.25 41.45 0.083 7.19 9.13 12.35
1/13/2023 4:45:00 PM 5.2 41.36 0.083 7.19 9.38 12.34
1/13/2023 5:00:00 PM 5.15 41.27 0.083 7.18 8.16 12.33
1/13/2023 5:15:00 PM 5.1 41.18 0.083 7.16 8.37 12.33
1/13/2023 5:30:00 PM 5.06 41.108 0.083 7.19 8.67 12.32
1/13/2023 5:45:00 PM 5.01 41.018 0.083 7.15 7.77 12.31
1/13/2023 6:00:00 PM 4.96 40.928 0.084 7.19 8.15 12.32
1/13/2023 6:15:00 PM 4.91 40.838 0.084 7.11 8.16 12.32
1/13/2023 6:30:00 PM 4.86 40.748 0.084 7.17 8.06 12.32
1/13/2023 6:45:00 PM 4.81 40.658 0.084 7.15 7.71 12.34
1/13/2023 7:00:00 PM 4.76 40.568 0.084 7.15 7.45 12.34
1/13/2023 7:15:00 PM 4.72 40.496 0.084 7.12 7.8 12.35
1/13/2023 7:30:00 PM 4.68 40.424 0.085 7.13 7.22 12.36
1/13/2023 7:45:00 PM 4.64 40.352 0.085 7.12 7.17 12.37
1/13/2023 8:00:00 PM 4.6 40.28 0.085 7.14 7.09 12.39
1/13/2023 8:15:00 PM 4.56 40.208 0.085 7.09 6.91 12.4
1/13/2023 8:30:00 PM 4.51 40.118 0.085 7.14 7.46 12.41
1/13/2023 8:45:00 PM 4.47 40.046 0.085 7.06 6.53 12.43
1/13/2023 9:00:00 PM 4.42 39.956 0.085 7.14 6.81 12.45
1/13/2023 9:15:00 PM 4.37 39.866 0.085 7.07 7.17 12.46
1/13/2023 9:30:00 PM 4.32 39.776 0.085 7.09 6.96 12.48
1/13/2023 9:45:00 PM 4.28 39.704 0.085 7.09 8.79 12.49
1/13/2023 10:00:00 PM 4.23 39.614 0.086 7.13 6.65 12.52
1/13/2023 10:15:00 PM 4.18 39.524 0.086 7.04 6.45 12.53
1/13/2023 10:30:00 PM 4.14 39.452 0.086 7.1 6.65 12.54
1/13/2023 10:45:00 PM 4.1 39.38 0.086 7.08 6.39 12.56
1/13/2023 11:00:00 PM 4.06 39.308 0.086 7.11 6.62 12.58
1/13/2023 11:15:00 PM 4.02 39.236 0.086 7.12 6.22 12.59
1/13/2023 11:30:00 PM 3.98 39.164 0.086 7.04 5.99 12.6
1/13/2023 11:45:00 PM 3.93 39.074 0.086 7.07 6.21 12.62
1/14/2023 12:00:00 AM 3.89 39.002 0.086 7.08 6.46 12.63
1/14/2023 12:15:00 AM 3.84 38.912 0.086 7.08 6.56 12.65
1/14/2023 12:30:00 AM 3.81 38.858 0.086 7.07 6.19 12.67
1/14/2023 12:45:00 AM 3.77 38.786 0.086 7.06 5.84 12.68
1/14/2023 1:00:00 AM 3.73 38.714 0.086 7.09 6.36 12.69
1/14/2023 1:15:00 AM 3.7 38.66 0.086 7.04 5.95 12.7
1/14/2023 1:30:00 AM 3.67 38.606 0.086 7.07 5.92 12.71
1/14/2023 1:45:00 AM 3.63 38.534 0.086 7.05 1196 12.73
1/14/2023 2:00:00 AM 3.6 38.48 0.087 7.08 6.15 12.74
1/14/2023 2:15:00 AM 3.56 38.408 0.086 7.01 5.63 12.76
1/14/2023 2:30:00 AM 3.52 38.336 0.086 7.05 5.7 12.78
1/14/2023 2:45:00 AM 3.47 38.246 0.087 7.08 5.56 12.79
1/14/2023 3:00:00 AM 3.43 38.174 0.087 7.01 5.3 12.8
1/14/2023 3:15:00 AM 3.39 38.102 0.087 7.03 5.7 12.82
1/14/2023 3:30:00 AM 3.35 38.03 0.087 7.05 5.48 12.83
1/14/2023 3:45:00 AM 3.32 37.976 0.087 7.06 5.37 12.85
1/14/2023 4:00:00 AM 3.29 37.922 0.087 7.07 5.59 12.86
1/14/2023 4:15:00 AM 3.26 37.868 0.087 7.06 5.28 12.88
1/14/2023 4:30:00 AM 3.23 37.814 0.086 7.01 5.45 12.89
1/14/2023 4:45:00 AM 3.2 37.76 0.086 7.04 5.18 12.9
1/14/2023 5:00:00 AM 3.17 37.706 0.086 7.05 5.11 12.91
1/14/2023 5:15:00 AM 3.13 37.634 0.086 7.07 5.65 12.93
1/14/2023 5:30:00 AM 3.1 37.58 0.086 7.01 5.3 12.94
1/14/2023 5:45:00 AM 3.06 37.508 0.086 7.04 5.2 12.95
1/14/2023 6:00:00 AM 3.04 37.472 0.086 7.04 5.11 12.97
1/14/2023 6:15:00 AM 3 37.4 0.087 7.08 5.5 12.98
1/14/2023 6:30:00 AM 2.97 37.346 0.086 7 4.89 12.99
1/14/2023 6:45:00 AM 2.95 37.31 0.086 7.04 4.9 13.01
1/14/2023 7:00:00 AM 2.91 37.238 0.086 7.04 5.08 13.02
1/14/2023 7:15:00 AM 2.88 37.184 0.087 7.08 5.16 13.03
1/14/2023 7:30:00 AM 2.84 37.112 0.087 7.06 4.99 13.04
1/14/2023 7:45:00 AM 2.81 37.058 0.087 7.08 4.96 13.06
1/14/2023 8:00:00 AM 2.78 37.004 0.087 7.01 4.95 13.08
1/14/2023 8:15:00 AM 2.76 36.968 0.086 7.05 4.88 13.1
1/14/2023 8:30:00 AM 2.73 36.914 0.087 7.09 4.57 13.13
1/14/2023 8:45:00 AM 2.72 36.896 0.086 7.02 4.75 13.17
1/14/2023 9:00:00 AM 2.7 36.86 0.086 7.1 4.81 13.21
1/14/2023 9:15:00 AM 2.69 36.842 0.086 7.07 4.44 13.26
1/14/2023 9:30:00 AM 2.68 36.824 0.086 7.08 4.74 13.31
1/14/2023 9:45:00 AM 2.68 36.824 0.086 7.14 4.74 13.36
1/14/2023 10:00:00 AM 2.68 36.824 0.086 7.08 4.48 13.41
1/14/2023 10:15:00 AM 2.67 36.806 0.086 7.16 4.38 13.47
1/14/2023 10:30:00 AM 2.67 36.806 0.086 7.12 4.38 13.52
1/14/2023 10:45:00 AM 2.66 36.788 0.086 7.15 4.04 13.57
1/14/2023 11:00:00 AM 2.67 36.806 0.086 7.17 4.12 13.61
1/14/2023 11:15:00 AM 2.67 36.806 0.086 7.21 3.8 13.65
1/14/2023 11:30:00 AM 2.67 36.806 0.086 7.19 4.04 13.7
1/14/2023 11:45:00 AM 2.68 36.824 0.086 7.25 3.69 13.73
1/14/2023 12:00:00 PM 2.68 36.824 0.086 7.26 3.81 13.76
1/14/2023 12:15:00 PM 2.69 36.842 0.085 7.28 3.99 13.79
1/14/2023 12:30:00 PM 2.69 36.842 0.085 7.28 3.72 13.81
1/14/2023 12:45:00 PM 2.7 36.86 0.085 7.3 3.85 13.83
1/14/2023 1:00:00 PM 2.71 36.878 0.085 7.29 3.84 13.84
1/14/2023 1:15:00 PM 2.73 36.914 0.085 7.28 3.81 13.86
1/14/2023 1:30:00 PM 2.73 36.914 0.085 7.29 3.73 13.86
1/14/2023 1:45:00 PM 2.75 36.95 0.085 7.32 3.64 13.87
1/14/2023 2:00:00 PM 2.75 36.95 0.085 7.34 3.5 13.87
1/14/2023 2:15:00 PM 2.76 36.968 0.085 7.27 3.67 13.87
1/14/2023 2:30:00 PM 2.77 36.986 0.085 7.36 3.74 13.87
1/14/2023 2:45:00 PM 2.79 37.022 0.085 7.28 3.79 13.87
1/14/2023 3:00:00 PM 2.78 37.004 0.085 7.32 3.73 13.87
1/14/2023 3:15:00 PM 2.78 37.004 0.085 7.36 3.82 13.86
1/14/2023 3:30:00 PM 2.76 36.968 0.085 7.31 3.65 13.87
1/14/2023 3:45:00 PM 2.75 36.95 0.084 7.36 3.66 13.84
1/14/2023 4:00:00 PM 2.73 36.914 0.085 7.33 3.65 13.82
1/14/2023 4:15:00 PM 2.7 36.86 0.085 7.35 3.6 13.79
1/14/2023 4:30:00 PM 2.68 36.824 0.085 7.32 3.56 13.75
1/14/2023 4:45:00 PM 2.65 36.77 0.084 7.26 3.64 13.71
1/14/2023 5:00:00 PM 2.61 36.698 0.084 7.3 3.62 13.66
1/14/2023 5:15:00 PM 2.56 36.608 0.084 7.27 3.79 13.62
1/14/2023 5:30:00 PM 2.52 36.536 0.084 7.26 3.97 13.58
1/14/2023 5:45:00 PM 2.49 36.482 0.085 7.25 3.8 13.54
1/14/2023 6:00:00 PM 2.46 36.428 0.085 7.14 3.83 13.5
1/14/2023 6:15:00 PM 2.44 36.392 0.085 7.22 3.76 13.47
1/14/2023 6:30:00 PM 2.41 36.338 0.085 7.13 3.76 13.45
1/14/2023 6:45:00 PM 2.38 36.284 0.085 7.19 3.94 13.42
1/14/2023 7:00:00 PM 2.35 36.23 0.085 7.11 4.93 13.41
1/14/2023 7:15:00 PM 2.32 36.176 0.085 7.14 3.81 13.39
1/14/2023 7:30:00 PM 2.29 36.122 0.085 7.16 3.83 13.39
1/14/2023 7:45:00 PM 2.26 36.068 0.085 7.1 4.02 13.38
1/14/2023 8:00:00 PM 2.23 36.014 0.085 7.11 3.98 13.39
1/14/2023 8:15:00 PM 2.2 35.96 0.085 7.1 3.91 13.39
1/14/2023 8:30:00 PM 2.17 35.906 0.085 7.14 3.8 13.4
1/14/2023 8:45:00 PM 2.14 35.852 0.085 7.04 3.8 13.41
1/14/2023 9:00:00 PM 2.1 35.78 0.085 7.1 3.87 13.41
1/14/2023 9:15:00 PM 2.07 35.726 0.085 7.05 3.9 13.42
1/14/2023 9:30:00 PM 2.03 35.654 0.085 7.07 3.93 13.43
1/14/2023 9:45:00 PM 2 35.6 0.085 7.06 3.88 13.44
1/14/2023 10:00:00 PM 1.97 35.546 0.085 7.1 3.99 13.45
1/14/2023 10:15:00 PM 1.94 35.492 0.085 7.02 3.95 13.46
1/14/2023 10:30:00 PM 1.92 35.456 0.085 7.05 3.88 13.47
1/14/2023 10:45:00 PM 1.9 35.42 0.085 7.05 3.75 13.47
1/14/2023 11:00:00 PM 1.88 35.384 0.085 7.05 4.06 13.48
1/14/2023 11:15:00 PM 1.85 35.33 0.085 7.07 4.11 13.49
1/14/2023 11:30:00 PM 1.83 35.294 0.085 7.04 3.78 13.5
1/14/2023 11:45:00 PM 1.82 35.276 0.085 7.05 4.11 13.5
1/15/2023 12:00:00 AM 1.8 35.24 0.085 7.05 4.04 13.52
1/15/2023 12:15:00 AM 1.78 35.204 0.085 7.08 4.03 13.52
1/15/2023 12:30:00 AM 1.76 35.168 0.085 7.01 4.02 13.53
1/15/2023 12:45:00 AM 1.74 35.132 0.085 7.07 3.83 13.54
1/15/2023 1:00:00 AM 1.72 35.096 0.085 7.03 3.91 13.56
1/15/2023 1:15:00 AM 1.71 35.078 0.085 7.06 4.05 13.57
1/15/2023 1:30:00 AM 1.71 35.078 0.085 7.05 3.8 13.57
1/15/2023 1:45:00 AM 1.7 35.06 0.085 7.05 3.88 13.58
1/15/2023 2:00:00 AM 1.69 35.042 0.085 7.07 4 13.59
1/15/2023 2:15:00 AM 1.69 35.042 0.085 7.08 3.91 13.59
1/15/2023 2:30:00 AM 1.68 35.024 0.085 7.08 3.74 13.59
1/15/2023 2:45:00 AM 1.67 35.006 0.085 7.03 4.15 13.6
1/15/2023 3:00:00 AM 1.66 34.988 0.084 7.04 3.87 13.61
1/15/2023 3:15:00 AM 1.65 34.97 0.084 7.07 3.85 13.61
1/15/2023 3:30:00 AM 1.64 34.952 0.084 7.04 3.83 13.61
1/15/2023 3:45:00 AM 1.63 34.934 0.084 7.05 3.82 13.62
1/15/2023 4:00:00 AM 1.62 34.916 0.084 7.08 3.84 13.62
1/15/2023 4:15:00 AM 1.61 34.898 0.084 7.09 3.98 13.62
1/15/2023 4:30:00 AM 1.6 34.88 0.084 7.06 3.87 13.63
1/15/2023 4:45:00 AM 1.6 34.88 0.084 7.09 3.82 13.63
1/15/2023 5:00:00 AM 1.59 34.862 0.084 7.01 3.7 13.64
1/15/2023 5:15:00 AM 1.58 34.844 0.084 7.09 4.08 13.64
1/15/2023 5:30:00 AM 1.57 34.826 0.084 7.01 3.96 13.64
1/15/2023 5:45:00 AM 1.55 34.79 0.084 7.05 3.86 13.64
1/15/2023 6:00:00 AM 1.52 34.736 0.084 7.08 4.03 13.66
1/15/2023 6:15:00 AM 1.5 34.7 0.084 7.07 3.78 13.66
1/15/2023 6:30:00 AM 1.47 34.646 0.084 7.08 3.71 13.66
1/15/2023 6:45:00 AM 1.44 34.592 0.084 7.06 3.95 13.68
1/15/2023 7:00:00 AM 1.42 34.556 0.084 7.09 3.8 13.68
1/15/2023 7:15:00 AM 1.39 34.502 0.084 7.06 3.87 13.69
1/15/2023 7:30:00 AM 1.37 34.466 0.084 7.07 3.81 13.7
1/15/2023 7:45:00 AM 1.34 34.412 0.084 7.02 3.82 13.72
1/15/2023 8:00:00 AM 1.33 34.394 0.084 7.09 3.75 13.75
1/15/2023 8:15:00 AM 1.31 34.358 0.084 7.01 3.66 13.78
1/15/2023 8:30:00 AM 1.3 34.34 0.084 7.08 3.78 13.82
1/15/2023 8:45:00 AM 1.31 34.358 0.084 7.1 3.56 13.87
1/15/2023 9:00:00 AM 1.3 34.34 0.084 7.1 3.94 13.92
1/15/2023 9:15:00 AM 1.31 34.358 0.084 7.12 3.62 13.97
1/15/2023 9:30:00 AM 1.32 34.376 0.084 7.12 3.56 14.03
1/15/2023 9:45:00 AM 1.34 34.412 0.084 7.1 3.6 14.08
1/15/2023 10:00:00 AM 1.35 34.43 0.084 7.15 3.56 14.12
1/15/2023 10:15:00 AM 1.38 34.484 0.083 7.16 3.61 14.15
1/15/2023 10:30:00 AM 1.43 34.574 0.083 7.13 3.63 14.18
1/15/2023 10:45:00 AM 1.47 34.646 0.083 7.15 3.39 14.2
1/15/2023 11:00:00 AM 1.53 34.754 0.083 7.17 3.62 14.22
1/15/2023 11:15:00 AM 1.58 34.844 0.083 7.19 3.35 14.25
1/15/2023 11:30:00 AM 1.64 34.952 0.083 7.21 3.52 14.25
1/15/2023 11:45:00 AM 1.68 35.024 0.083 7.24 3.59 14.27
1/15/2023 12:00:00 PM 1.75 35.15 0.083 7.19 3.53 14.27
1/15/2023 12:15:00 PM 1.85 35.33 0.083 7.22 3.49 14.27
1/15/2023 12:30:00 PM 1.95 35.51 0.083 7.23 3.29 14.27
1/15/2023 12:45:00 PM 2.05 35.69 0.083 7.24 3.39 14.25
1/15/2023 1:00:00 PM 2.12 35.816 0.083 7.26 3.46 14.22
1/15/2023 1:15:00 PM 2.23 36.014 0.083 7.31 3.34 14.19
1/15/2023 1:30:00 PM 2.34 36.212 0.083 7.23 3.29 14.16
1/15/2023 1:45:00 PM 2.43 36.374 0.083 7.33 3.32 14.13
1/15/2023 2:00:00 PM 2.51 36.518 0.083 7.27 3.31 14.09
1/15/2023 2:15:00 PM 2.58 36.644 0.082 7.35 3.4 14.05
1/15/2023 2:30:00 PM 2.62 36.716 0.082 7.31 3.35 14.03
1/15/2023 2:45:00 PM 2.65 36.77 0.082 7.3 3.26 13.99
1/15/2023 3:00:00 PM 2.68 36.824 0.082 7.31 3.28 13.96
1/15/2023 3:15:00 PM 2.69 36.842 0.082 7.35 3.27 13.93
1/15/2023 3:30:00 PM 2.69 36.842 0.082 7.3 3.23 13.9
1/15/2023 3:45:00 PM 2.69 36.842 0.082 7.25 3.27 13.87